Darstellungsparameter: Aktuell verwendete Einstellungen:
Skalierung der Graphiken ... ?
xyx+y,   Skalierungsfaktor:      Skalierung: Modus: x, Faktor: 1
Darstellungszeitraum ... ?
Vom - - bis: - -   Zeitraum: 31.08.2021 - 30.11.2021
Min/Max/Avg-Anzeige ... ?
Zeige MMA aktuell
Zeige MMA Monat
Zeige MMA alles
Zeige --A aktuell
Zeige --A Monat
Zeige --A alles
Keine MMA-Anzeige
MMA:
Average (ber die Originaldaten)
MMA-Basis: 31.08.2021 - 30.11.2021
Quicknavigation für Darstellung... ?
Tage:      1T, 2T, 3T, 5T -1T -2T -3T -5T +1T +2T +3T +5T
Wochen: 1W, 2W, 3W -1W -2W -3W +1W +2W +3W
Monate: 1M, 3M, 6M -1M -3M -6M +1M +3M +6M
Jahre:    1J, 3J, 5J, 10J -1J -3J -5J -10J +1J +3J +5J +10J
Nutze für die Darstellung ... ?
Originaldaten oder ...
Mittelwerte Minima Maxima auf...
Stundenbasis Tagesbasis Wochenbasis
Monatsbasis Jahresbasis      Datenbasis: Mittelwerte auf Stundenbasis
Darstellen als:
Statistik (Auto) Statistik J:M      Darstellung:
Zur Graphik,    zurück zur Übersicht aller Sensoren.
 
Tabellarische Datenbersicht: ?
 
Sensor: Nr:Datum:Temp:Abs-Feuchte:Windchill:Wind:
Aussen-T/F 1 31-08-2021 00:00:00 14.85 C 11.94 g/m*3 14.85 C 1.2 km/h
2 31-08-2021 01:00:00 14.5 C 11.69 g/m*3 14.5 C 0.93333 km/h
3 31-08-2021 02:00:00 13.71667 C 11.15 g/m*3 13.72 C 1.06667 km/h
4 31-08-2021 03:00:00 13.33333 C 11 g/m*3 13.33 C 1.06667 km/h
5 31-08-2021 04:00:00 12.925 C 10.72 g/m*3 12.93 C 1.6 km/h
6 31-08-2021 05:00:00 12.40833 C 10.4 g/m*3 12.41 C 0.53333 km/h
7 31-08-2021 06:00:00 12.15833 C 10.32 g/m*3 12.16 C 0.4 km/h
8 31-08-2021 07:00:00 12.925 C 10.88 g/m*3 12.93 C 0 km/h
9 31-08-2021 08:00:00 13.7 C 11.49 g/m*3 13.7 C 0 km/h
10 31-08-2021 09:00:00 14.79167 C 12.27 g/m*3 14.79 C 0.26667 km/h
11 31-08-2021 10:00:00 15.28333 C 12.33 g/m*3 15.28 C 5.35833 km/h
12 31-08-2021 11:00:00 16.35833 C 12.38 g/m*3 16.36 C 5.21667 km/h
13 31-08-2021 12:00:00 17.54167 C 12.6 g/m*3 17.54 C 7.38333 km/h
14 31-08-2021 13:00:00 18.175 C 12.58 g/m*3 18.18 C 10.225 km/h
15 31-08-2021 14:00:00 18.46667 C 12.51 g/m*3 18.47 C 13.83333 km/h
16 31-08-2021 15:00:00 18.25833 C 12.19 g/m*3 18.26 C 11.55833 km/h
17 31-08-2021 16:00:00 19.75833 C 12.85 g/m*3 19.76 C 8.475 km/h
18 31-08-2021 17:00:00 21.65833 C 12.64 g/m*3 21.66 C 8.73333 km/h
19 31-08-2021 18:00:00 21.56667 C 12.35 g/m*3 21.57 C 10.23333 km/h
20 31-08-2021 19:00:00 20.06667 C 12.43 g/m*3 20.07 C 5.35 km/h
21 31-08-2021 20:00:00 17.10833 C 11.98 g/m*3 17.11 C 5.35 km/h
22 31-08-2021 21:00:00 15.075 C 11.41 g/m*3 15.08 C 2.4 km/h
23 31-08-2021 22:00:00 14.05 C 11 g/m*3 14.05 C 0.26667 km/h
24 31-08-2021 23:00:00 13.03333 C 10.48 g/m*3 13.03 C 0 km/h
25 01-09-2021 00:00:00 12.25833 C 10.12 g/m*3 12.26 C 0.13333 km/h
Sensor: Nr:Datum:Temp:Abs-Feuchte:Windchill:Wind:
Aussen-T/F 26 01-09-2021 01:00:00 12.1 C 10.11 g/m*3 12.1 C 0.13333 km/h
27 01-09-2021 02:00:00 11.675 C 9.92 g/m*3 11.68 C 0.26667 km/h
28 01-09-2021 03:00:00 12.18333 C 10.33 g/m*3 12.18 C 1.86667 km/h
29 01-09-2021 04:00:00 13.09167 C 10.98 g/m*3 13.09 C 0.93333 km/h
30 01-09-2021 05:00:00 13.6 C 11.3 g/m*3 13.6 C 0 km/h
31 01-09-2021 06:00:00 13.51667 C 11.24 g/m*3 13.52 C 0 km/h
32 01-09-2021 07:00:00 13.525 C 11.25 g/m*3 13.53 C 0 km/h
33 01-09-2021 08:00:00 14.2 C 11.73 g/m*3 14.2 C 0 km/h
34 01-09-2021 09:00:00 15.08333 C 12.2 g/m*3 15.08 C 0 km/h
35 01-09-2021 10:00:00 16.05833 C 12.02 g/m*3 16.06 C 2.93333 km/h
36 01-09-2021 11:00:00 16.84167 C 12.19 g/m*3 16.84 C 3.46667 km/h
37 01-09-2021 12:00:00 17.575 C 12.01 g/m*3 17.58 C 4.40833 km/h
38 01-09-2021 13:00:00 18.20833 C 11.57 g/m*3 18.21 C 6.84167 km/h
39 01-09-2021 14:00:00 18.71667 C 11.35 g/m*3 18.72 C 7.65 km/h
40 01-09-2021 15:00:00 18.9 C 11.33 g/m*3 18.9 C 6.85 km/h
41 01-09-2021 16:00:00 18.91667 C 11.65 g/m*3 18.92 C 5.08333 km/h
42 01-09-2021 17:00:00 19.46667 C 11.81 g/m*3 19.47 C 6.575 km/h
43 01-09-2021 18:00:00 18.675 C 11.63 g/m*3 18.68 C 7.51667 km/h
44 01-09-2021 19:00:00 18.00833 C 11.55 g/m*3 18.01 C 6.03333 km/h
45 01-09-2021 20:00:00 15.60833 C 11.18 g/m*3 15.61 C 2.53333 km/h
46 01-09-2021 21:00:00 13.6 C 10.6 g/m*3 13.6 C 1.33333 km/h
47 01-09-2021 22:00:00 13.20833 C 10.66 g/m*3 13.21 C 1.33333 km/h
48 01-09-2021 23:00:00 12.73333 C 10.42 g/m*3 12.73 C 0.8 km/h
49 02-09-2021 00:00:00 11.98333 C 9.91 g/m*3 11.98 C 0 km/h
50 02-09-2021 01:00:00 11.03333 C 9.42 g/m*3 11.03 C 0 km/h
Sensor: Nr:Datum:Temp:Abs-Feuchte:Windchill:Wind:
Aussen-T/F 51 02-09-2021 02:00:00 10.50833 C 9.18 g/m*3 10.51 C 0 km/h
52 02-09-2021 03:00:00 10.49167 C 9.23 g/m*3 10.49 C 0 km/h
53 02-09-2021 04:00:00 11.15833 C 9.71 g/m*3 11.16 C 0 km/h
54 02-09-2021 05:00:00 11.59167 C 9.97 g/m*3 11.59 C 0.26667 km/h
55 02-09-2021 06:00:00 11.39167 C 9.85 g/m*3 11.39 C 1.06667 km/h
56 02-09-2021 07:00:00 11.25 C 9.76 g/m*3 11.25 C 0.66667 km/h
57 02-09-2021 08:00:00 11.49167 C 10.01 g/m*3 11.49 C 0.4 km/h
58 02-09-2021 09:00:00 11.96667 C 10.32 g/m*3 11.97 C 1.06667 km/h
59 02-09-2021 10:00:00 12.89167 C 10.91 g/m*3 12.89 C 1.86667 km/h
60 02-09-2021 11:00:00 13.9 C 11.46 g/m*3 13.9 C 1.73333 km/h
61 02-09-2021 12:00:00 15.65833 C 12.39 g/m*3 15.66 C 1.73333 km/h
62 02-09-2021 13:00:00 18.175 C 13.11 g/m*3 18.18 C 1.86667 km/h
63 02-09-2021 14:00:00 20.41667 C 13.56 g/m*3 20.42 C 4.41667 km/h
64 02-09-2021 15:00:00 22.06667 C 12.71 g/m*3 22.07 C 8.875 km/h
65 02-09-2021 16:00:00 23.44167 C 12.47 g/m*3 23.44 C 7.93333 km/h
66 02-09-2021 17:00:00 25.45 C 13.1 g/m*3 25.45 C 6.45833 km/h
67 02-09-2021 18:00:00 25.28333 C 14.77 g/m*3 25.28 C 3.34167 km/h
68 02-09-2021 19:00:00 21.275 C 13.77 g/m*3 21.28 C 3.33333 km/h
69 02-09-2021 20:00:00 17.75833 C 12.44 g/m*3 17.76 C 3.6 km/h
70 02-09-2021 21:00:00 16.225 C 11.99 g/m*3 16.23 C 3.075 km/h
71 02-09-2021 22:00:00 14.675 C 11.25 g/m*3 14.68 C 0 km/h
72 02-09-2021 23:00:00 13.675 C 10.91 g/m*3 13.68 C 0.13333 km/h
73 03-09-2021 00:00:00 12.95833 C 10.54 g/m*3 12.96 C 0 km/h
74 03-09-2021 01:00:00 12.34167 C 10.22 g/m*3 12.34 C 0 km/h
75 03-09-2021 02:00:00 11.83333 C 9.96 g/m*3 11.83 C 0 km/h
Sensor: Nr:Datum:Temp:Abs-Feuchte:Windchill:Wind:
Aussen-T/F 76 03-09-2021 03:00:00 11.3 C 9.69 g/m*3 11.3 C 0 km/h
77 03-09-2021 04:00:00 10.825 C 9.4 g/m*3 10.83 C 0 km/h
78 03-09-2021 05:00:00 10.66667 C 9.36 g/m*3 10.67 C 0 km/h
79 03-09-2021 06:00:00 11.20833 C 9.74 g/m*3 11.21 C 0 km/h
80 03-09-2021 07:00:00 11.59167 C 9.97 g/m*3 11.59 C 0.66667 km/h
81 03-09-2021 08:00:00 11.61667 C 10.03 g/m*3 11.62 C 0.13333 km/h
82 03-09-2021 09:00:00 12.2 C 10.47 g/m*3 12.2 C 0.8 km/h
83 03-09-2021 10:00:00 13.29 C 11.2 g/m*3 13.29 C 0.64 km/h
84 03-09-2021 15:00:00 23.01111 C 13.39 g/m*3 23.01 C 5.17778 km/h
85 03-09-2021 16:00:00 24.125 C 13.44 g/m*3 24.13 C 4.55 km/h
86 03-09-2021 17:00:00 26.8 C 15.19 g/m*3 26.8 C 2.4 km/h
87 03-09-2021 18:00:00 24.64167 C 15.13 g/m*3 24.64 C 4.8 km/h
88 03-09-2021 19:00:00 21.71667 C 13.62 g/m*3 21.72 C 5.475 km/h
89 03-09-2021 20:00:00 18.45 C 12.42 g/m*3 18.45 C 2.13333 km/h
90 03-09-2021 21:00:00 16.325 C 12.03 g/m*3 16.33 C 0 km/h
91 03-09-2021 22:00:00 15.04167 C 11.51 g/m*3 15.04 C 0 km/h
92 03-09-2021 23:00:00 13.925 C 10.95 g/m*3 13.93 C 0 km/h
93 04-09-2021 00:00:00 13.15 C 10.61 g/m*3 13.15 C 0 km/h
94 04-09-2021 01:00:00 12.625 C 10.38 g/m*3 12.63 C 0 km/h
95 04-09-2021 02:00:00 12.225 C 10.16 g/m*3 12.23 C 0 km/h
96 04-09-2021 03:00:00 11.60833 C 9.81 g/m*3 11.61 C 0 km/h
97 04-09-2021 04:00:00 11.3 C 9.69 g/m*3 11.3 C 0 km/h
98 04-09-2021 05:00:00 10.925 C 9.46 g/m*3 10.93 C 0 km/h
99 04-09-2021 06:00:00 10.49167 C 9.23 g/m*3 10.49 C 0 km/h
100 04-09-2021 07:00:00 10.44167 C 9.28 g/m*3 10.44 C 0.26667 km/h
Sensor: Nr:Datum:Temp:Abs-Feuchte:Windchill:Wind:
Aussen-T/F 101 04-09-2021 08:00:00 11.30833 C 9.87 g/m*3 11.31 C 0.13333 km/h
102 04-09-2021 09:00:00 12.01667 C 10.35 g/m*3 12.02 C 0.66667 km/h
103 04-09-2021 10:00:00 13.14167 C 11.1 g/m*3 13.14 C 0 km/h
104 04-09-2021 11:00:00 15.10833 C 12.56 g/m*3 15.11 C 0 km/h
105 04-09-2021 12:00:00 17.03333 C 14.04 g/m*3 17.03 C 0 km/h
106 04-09-2021 13:00:00 19.60833 C 14.38 g/m*3 19.61 C 3.49167 km/h
107 04-09-2021 14:00:00 23.025 C 13.31 g/m*3 23.03 C 6.01667 km/h
108 04-09-2021 15:00:00 23.80833 C 12.93 g/m*3 23.81 C 2.80833 km/h
109 04-09-2021 16:00:00 24.69167 C 14.12 g/m*3 24.69 C 2.26667 km/h
110 04-09-2021 17:00:00 27.48333 C 15.86 g/m*3 27.48 C 1.86667 km/h
111 04-09-2021 18:00:00 26.16667 C 15.81 g/m*3 26.17 C 2.8 km/h
112 04-09-2021 19:00:00 22.375 C 14.51 g/m*3 22.38 C 3.73333 km/h
113 04-09-2021 20:00:00 19.025 C 13.15 g/m*3 19.02 C 6.425 km/h
114 04-09-2021 21:00:00 17.86667 C 13.12 g/m*3 17.87 C 4 km/h
115 04-09-2021 22:00:00 17 C 12.77 g/m*3 17 C 0.93333 km/h
116 04-09-2021 23:00:00 15.84167 C 12.28 g/m*3 15.84 C 0 km/h
117 05-09-2021 00:00:00 15.06667 C 11.91 g/m*3 15.07 C 0.66667 km/h
118 05-09-2021 01:00:00 14.475 C 11.57 g/m*3 14.48 C 0.13333 km/h
119 05-09-2021 02:00:00 13.9 C 11.26 g/m*3 13.9 C 0 km/h
120 05-09-2021 03:00:00 13.35833 C 10.93 g/m*3 13.36 C 0 km/h
121 05-09-2021 04:00:00 12.86667 C 10.68 g/m*3 12.87 C 0 km/h
122 05-09-2021 05:00:00 12.48333 C 10.43 g/m*3 12.48 C 0 km/h
123 05-09-2021 06:00:00 12.00833 C 10.13 g/m*3 12.01 C 0 km/h
124 05-09-2021 07:00:00 11.81667 C 10.09 g/m*3 11.82 C 0 km/h
125 05-09-2021 08:00:00 12.18333 C 10.35 g/m*3 12.18 C 0 km/h
Sensor: Nr:Datum:Temp:Abs-Feuchte:Windchill:Wind:
Aussen-T/F 126 05-09-2021 09:00:00 12.95833 C 10.93 g/m*3 12.96 C 0 km/h
127 05-09-2021 10:00:00 14.45833 C 12.03 g/m*3 14.46 C 0.13333 km/h
128 05-09-2021 11:00:00 16.075 C 13.28 g/m*3 16.08 C 0.13333 km/h
129 05-09-2021 12:00:00 17.60833 C 14.43 g/m*3 17.61 C 0 km/h
130 05-09-2021 13:00:00 19.84167 C 15.17 g/m*3 19.84 C 0.8 km/h
131 05-09-2021 14:00:00 21.30833 C 15.39 g/m*3 21.31 C 1.73333 km/h
132 05-09-2021 15:00:00 22.89167 C 15.73 g/m*3 22.89 C 0.93333 km/h
133 05-09-2021 16:00:00 23.79167 C 15.48 g/m*3 23.79 C 1.33333 km/h
134 05-09-2021 17:00:00 25.96667 C 16.61 g/m*3 25.97 C 1.33333 km/h
135 05-09-2021 18:00:00 24.91667 C 15.77 g/m*3 24.92 C 3.73333 km/h
136 05-09-2021 19:00:00 22.14167 C 14.24 g/m*3 22.14 C 4.8 km/h
137 05-09-2021 20:00:00 18.56667 C 12.59 g/m*3 18.57 C 3.48333 km/h
138 05-09-2021 21:00:00 16.625 C 11.83 g/m*3 16.63 C 0 km/h
139 05-09-2021 22:00:00 15.63333 C 11.77 g/m*3 15.63 C 0 km/h
140 05-09-2021 23:00:00 14.9 C 11.58 g/m*3 14.9 C 0 km/h
141 06-09-2021 00:00:00 14.35 C 11.32 g/m*3 14.35 C 0 km/h
142 06-09-2021 01:00:00 13.93333 C 11.2 g/m*3 13.93 C 0 km/h
143 06-09-2021 02:00:00 13.38333 C 10.91 g/m*3 13.38 C 0 km/h
144 06-09-2021 03:00:00 12.94167 C 10.67 g/m*3 12.94 C 0 km/h
145 06-09-2021 04:00:00 12.625 C 10.53 g/m*3 12.63 C 0 km/h
146 06-09-2021 05:00:00 12.325 C 10.33 g/m*3 12.33 C 0 km/h
147 06-09-2021 06:00:00 12.08333 C 10.2 g/m*3 12.08 C 0 km/h
148 06-09-2021 07:00:00 11.85 C 10.14 g/m*3 11.85 C 0 km/h
149 06-09-2021 08:00:00 12.35 C 10.48 g/m*3 12.35 C 0 km/h
150 06-09-2021 09:00:00 13.01667 C 10.95 g/m*3 13.02 C 0 km/h
Sensor: Nr:Datum:Temp:Abs-Feuchte:Windchill:Wind:
Aussen-T/F 151 06-09-2021 10:00:00 14.55 C 12.1 g/m*3 14.55 C 0 km/h
152 06-09-2021 11:00:00 15.98889 C 13.21 g/m*3 15.99 C 0.17778 km/h
153 06-09-2021 12:00:00 17.35 C 14.23 g/m*3 17.35 C 0 km/h
154 06-09-2021 13:00:00 19.38333 C 14.7 g/m*3 19.38 C 0 km/h
155 06-09-2021 14:00:00 21.975 C 15.02 g/m*3 21.98 C 0.4 km/h
156 06-09-2021 15:00:00 23.88333 C 15.65 g/m*3 23.88 C 3.08333 km/h
157 06-09-2021 16:00:00 24.53333 C 16.09 g/m*3 24.53 C 3.34167 km/h
158 06-09-2021 17:00:00 27.54167 C 15.29 g/m*3 27.54 C 4.4 km/h
159 06-09-2021 18:00:00 26.08333 C 15.57 g/m*3 26.08 C 3.34167 km/h
160 06-09-2021 19:00:00 21.51667 C 14.88 g/m*3 21.52 C 4.66667 km/h
161 06-09-2021 20:00:00 19.36667 C 13.96 g/m*3 19.37 C 3.33333 km/h
162 06-09-2021 21:00:00 18.425 C 13.63 g/m*3 18.43 C 0.93333 km/h
163 06-09-2021 22:00:00 17.00833 C 12.96 g/m*3 17.01 C 0.53333 km/h
164 06-09-2021 23:00:00 15.825 C 12.34 g/m*3 15.83 C 0 km/h
165 07-09-2021 00:00:00 14.85833 C 11.82 g/m*3 14.86 C 0 km/h
166 07-09-2021 01:00:00 14 C 11.31 g/m*3 14 C 0 km/h
167 07-09-2021 02:00:00 13.50833 C 11.06 g/m*3 13.51 C 0 km/h
168 07-09-2021 03:00:00 13 C 10.77 g/m*3 13 C 0 km/h
169 07-09-2021 04:00:00 13.1 C 10.94 g/m*3 13.1 C 0.13333 km/h
170 07-09-2021 05:00:00 12.93333 C 10.82 g/m*3 12.93 C 0 km/h
171 07-09-2021 06:00:00 12.325 C 10.42 g/m*3 12.33 C 0 km/h
172 07-09-2021 07:00:00 12.49167 C 10.57 g/m*3 12.49 C 0 km/h
173 07-09-2021 08:00:00 13.175 C 11.11 g/m*3 13.18 C 0.53333 km/h
174 07-09-2021 09:00:00 13.85 C 11.59 g/m*3 13.85 C 0.26667 km/h
175 07-09-2021 10:00:00 16.98182 C 13.65 g/m*3 16.98 C 0 km/h
Sensor: Nr:Datum:Temp:Abs-Feuchte:Windchill:Wind:
Aussen-T/F 176 07-09-2021 11:00:00 20.225 C 14.67 g/m*3 20.23 C 0 km/h
177 07-09-2021 13:00:00 21.55455 C 14.74 g/m*3 21.55 C 0 km/h
178 07-09-2021 14:00:00 22.5 C 13.98 g/m*3 22.5 C 1.06667 km/h
179 07-09-2021 15:00:00 23.99167 C 13.75 g/m*3 23.99 C 0.66667 km/h
180 07-09-2021 16:00:00 24.625 C 15.25 g/m*3 24.63 C 0 km/h
181 07-09-2021 17:00:00 26.04167 C 16.88 g/m*3 26.04 C 0 km/h
182 07-09-2021 18:00:00 23.98333 C 16.37 g/m*3 23.98 C 0 km/h
183 07-09-2021 19:00:00 21.15 C 14.57 g/m*3 21.15 C 0 km/h
184 07-09-2021 20:00:00 18.71667 C 13.21 g/m*3 18.72 C 3.6 km/h
185 07-09-2021 21:00:00 17.46667 C 12.66 g/m*3 17.47 C 3.86667 km/h
186 07-09-2021 22:00:00 16.56667 C 12.32 g/m*3 16.57 C 2.66667 km/h
187 07-09-2021 23:00:00 15.85833 C 11.97 g/m*3 15.86 C 1.06667 km/h
188 08-09-2021 00:00:00 15.09167 C 11.56 g/m*3 15.09 C 0 km/h
189 08-09-2021 01:00:00 14.21667 C 11.19 g/m*3 14.22 C 0 km/h
190 08-09-2021 02:00:00 13.675 C 11.01 g/m*3 13.68 C 0 km/h
191 08-09-2021 03:00:00 13.23333 C 10.82 g/m*3 13.23 C 0 km/h
192 08-09-2021 04:00:00 12.78333 C 10.54 g/m*3 12.78 C 0 km/h
193 08-09-2021 05:00:00 12.425 C 10.4 g/m*3 12.43 C 0 km/h
194 08-09-2021 06:00:00 12.03333 C 10.15 g/m*3 12.03 C 0 km/h
195 08-09-2021 07:00:00 11.81667 C 10.05 g/m*3 11.82 C 0 km/h
196 08-09-2021 08:00:00 12.14167 C 10.32 g/m*3 12.14 C 0 km/h
197 08-09-2021 09:00:00 12.93333 C 10.88 g/m*3 12.93 C 0 km/h
198 08-09-2021 10:00:00 13.96 C 11.67 g/m*3 13.96 C 0 km/h
199 08-09-2021 11:00:00 16.775 C 13.81 g/m*3 16.77 C 1.4125 km/h
200 08-09-2021 12:00:00 18.575 C 14.57 g/m*3 18.58 C 2.14167 km/h
Sensor: Nr:Datum:Temp:Abs-Feuchte:Windchill:Wind:
Aussen-T/F 201 08-09-2021 13:00:00 21.35 C 14.86 g/m*3 21.35 C 2 km/h
202 08-09-2021 14:00:00 23.725 C 13.42 g/m*3 23.73 C 7.525 km/h
203 08-09-2021 15:00:00 25.03333 C 12.63 g/m*3 25.03 C 8.325 km/h
204 08-09-2021 16:00:00 25.70833 C 13.05 g/m*3 25.71 C 5.49167 km/h
205 08-09-2021 17:00:00 27.75833 C 15.27 g/m*3 27.76 C 2.275 km/h
206 08-09-2021 18:00:00 25.71667 C 15.14 g/m*3 25.72 C 2.13333 km/h
207 08-09-2021 19:00:00 21.96667 C 13.71 g/m*3 21.97 C 4.14167 km/h
208 08-09-2021 20:00:00 18.925 C 12.64 g/m*3 18.93 C 3.74167 km/h
209 08-09-2021 21:00:00 16.95 C 12.11 g/m*3 16.95 C 1.06667 km/h
210 08-09-2021 22:00:00 15.74167 C 11.74 g/m*3 15.74 C 0 km/h
211 08-09-2021 23:00:00 14.81667 C 11.37 g/m*3 14.82 C 0 km/h
212 09-09-2021 00:00:00 14.15833 C 11.18 g/m*3 14.16 C 0 km/h
213 09-09-2021 01:00:00 13.73333 C 10.98 g/m*3 13.73 C 0 km/h
214 09-09-2021 02:00:00 13.33333 C 10.83 g/m*3 13.33 C 0 km/h
215 09-09-2021 03:00:00 13.29167 C 10.88 g/m*3 13.29 C 0 km/h
216 09-09-2021 04:00:00 12.975 C 10.69 g/m*3 12.98 C 0 km/h
217 09-09-2021 05:00:00 12.59167 C 10.5 g/m*3 12.59 C 0 km/h
218 09-09-2021 06:00:00 12.475 C 10.43 g/m*3 12.48 C 0 km/h
219 09-09-2021 07:00:00 12.33 C 10.39 g/m*3 12.33 C 0 km/h
220 09-09-2021 08:00:00 12.93333 C 10.84 g/m*3 12.93 C 0.4 km/h
221 09-09-2021 09:00:00 13.85 C 11.56 g/m*3 13.85 C 0 km/h
222 09-09-2021 10:00:00 15.28333 C 12.65 g/m*3 15.28 C 0.93333 km/h
223 09-09-2021 11:00:00 17.84167 C 14.76 g/m*3 17.84 C 1.46667 km/h
224 09-09-2021 12:00:00 21.25 C 15.81 g/m*3 21.25 C 9.15 km/h
225 09-09-2021 13:00:00 23.14167 C 15.97 g/m*3 23.14 C 6.58333 km/h
Sensor: Nr:Datum:Temp:Abs-Feuchte:Windchill:Wind:
Aussen-T/F 226 09-09-2021 14:00:00 24.46667 C 16.68 g/m*3 24.47 C 5.24167 km/h
227 09-09-2021 15:00:00 24.94167 C 16.94 g/m*3 24.94 C 8.05 km/h
228 09-09-2021 16:00:00 25.84167 C 16.81 g/m*3 25.84 C 13.03333 km/h
229 09-09-2021 17:00:00 25.61667 C 16.78 g/m*3 25.62 C 9.675 km/h
230 09-09-2021 18:00:00 24.275 C 17 g/m*3 24.28 C 4.55 km/h
231 09-09-2021 19:00:00 21.98333 C 16.27 g/m*3 21.98 C 2.8 km/h
232 09-09-2021 20:00:00 20.46667 C 15.63 g/m*3 20.47 C 2.13333 km/h
233 09-09-2021 21:00:00 19.55 C 15.23 g/m*3 19.55 C 0.93333 km/h
234 09-09-2021 22:00:00 19.33333 C 15.36 g/m*3 19.33 C 0 km/h
235 09-09-2021 23:00:00 19.25833 C 15.39 g/m*3 19.26 C 0 km/h
236 10-09-2021 00:00:00 18.61667 C 14.78 g/m*3 18.62 C 0 km/h
237 10-09-2021 01:00:00 18.26667 C 14.66 g/m*3 18.27 C 0 km/h
238 10-09-2021 02:00:00 18.4 C 14.93 g/m*3 18.4 C 0 km/h
239 10-09-2021 03:00:00 18.30833 C 14.86 g/m*3 18.31 C 0 km/h
240 10-09-2021 04:00:00 18.21667 C 14.78 g/m*3 18.22 C 0.4 km/h
241 10-09-2021 05:00:00 18.21667 C 14.78 g/m*3 18.22 C 0 km/h
242 10-09-2021 06:00:00 18.16667 C 14.74 g/m*3 18.17 C 0.13333 km/h
243 10-09-2021 07:00:00 18.275 C 14.84 g/m*3 18.27 C 0.53333 km/h
244 10-09-2021 08:00:00 18.725 C 15.39 g/m*3 18.73 C 0 km/h
245 10-09-2021 09:00:00 19.46667 C 16.08 g/m*3 19.47 C 0.13333 km/h
246 10-09-2021 10:00:00 20.01667 C 16.04 g/m*3 20.02 C 3.2 km/h
247 10-09-2021 11:00:00 21.30833 C 16.29 g/m*3 21.31 C 5.75 km/h
248 10-09-2021 12:00:00 22.80833 C 16.48 g/m*3 22.81 C 9.15 km/h
249 10-09-2021 13:00:00 22.85 C 16.29 g/m*3 22.85 C 9.95 km/h
250 10-09-2021 14:00:00 23.25833 C 16.36 g/m*3 23.26 C 6.3 km/h
Sensor: Nr:Datum:Temp:Abs-Feuchte:Windchill:Wind:
Aussen-T/F 251 10-09-2021 15:00:00 23.96667 C 16.54 g/m*3 23.97 C 5.08333 km/h
252 10-09-2021 16:00:00 23.49167 C 16.82 g/m*3 23.49 C 4.95833 km/h
253 10-09-2021 17:00:00 24.43333 C 16.59 g/m*3 24.43 C 6.975 km/h
254 10-09-2021 18:00:00 23.01667 C 15.89 g/m*3 23.02 C 4.83333 km/h
255 10-09-2021 19:00:00 21.31667 C 15.66 g/m*3 21.32 C 6.84167 km/h
256 10-09-2021 20:00:00 20 C 15.19 g/m*3 20 C 4.94167 km/h
257 10-09-2021 21:00:00 19.525 C 14.97 g/m*3 19.52 C 5.63333 km/h
258 10-09-2021 22:00:00 18.83333 C 14.62 g/m*3 18.83 C 5.08333 km/h
259 10-09-2021 23:00:00 18.16667 C 14.26 g/m*3 18.17 C 0.53333 km/h
260 11-09-2021 00:00:00 17.86667 C 14.17 g/m*3 17.87 C 0.13333 km/h
261 11-09-2021 01:00:00 17.89167 C 14.31 g/m*3 17.89 C 2.95 km/h
262 11-09-2021 02:00:00 18.15833 C 14.42 g/m*3 18.16 C 2.13333 km/h
263 11-09-2021 03:00:00 17.81667 C 14.12 g/m*3 17.82 C 0.26667 km/h
264 11-09-2021 04:00:00 17.75 C 14.22 g/m*3 17.75 C 0 km/h
265 11-09-2021 05:00:00 17.61667 C 14.12 g/m*3 17.62 C 1.2 km/h
266 11-09-2021 06:00:00 17.825 C 14.35 g/m*3 17.83 C 1.86667 km/h
267 11-09-2021 07:00:00 17.83333 C 14.3 g/m*3 17.83 C 1.06667 km/h
268 11-09-2021 08:00:00 18.16667 C 14.44 g/m*3 18.17 C 3.48333 km/h
269 11-09-2021 09:00:00 18.14167 C 14.42 g/m*3 18.14 C 0.13333 km/h
270 11-09-2021 10:00:00 18.4 C 14.47 g/m*3 18.4 C 0.26667 km/h
271 11-09-2021 11:00:00 18.85833 C 14.6 g/m*3 18.86 C 1.6 km/h
272 11-09-2021 12:00:00 20.275 C 15.59 g/m*3 20.27 C 0.4 km/h
273 11-09-2021 13:00:00 20.93333 C 15.19 g/m*3 20.93 C 1.06667 km/h
274 11-09-2021 14:00:00 21.20833 C 15.48 g/m*3 21.21 C 2.69167 km/h
275 11-09-2021 15:00:00 22.39167 C 13.98 g/m*3 22.39 C 6.15833 km/h
Sensor: Nr:Datum:Temp:Abs-Feuchte:Windchill:Wind:
Aussen-T/F 276 11-09-2021 16:00:00 22.38333 C 13.87 g/m*3 22.38 C 5.35 km/h
277 11-09-2021 17:00:00 22.06667 C 14.29 g/m*3 22.07 C 2 km/h
278 11-09-2021 18:00:00 22.46667 C 14.6 g/m*3 22.47 C 0.53333 km/h
279 11-09-2021 19:00:00 21.65833 C 13.31 g/m*3 21.66 C 2.80833 km/h
280 11-09-2021 20:00:00 18.23333 C 12.58 g/m*3 18.23 C 2.13333 km/h
281 11-09-2021 21:00:00 16.49167 C 12.09 g/m*3 16.49 C 4.4 km/h
282 11-09-2021 22:00:00 15.55833 C 11.86 g/m*3 15.56 C 1.2 km/h
283 11-09-2021 23:00:00 14.86667 C 11.65 g/m*3 14.87 C 0 km/h
284 12-09-2021 00:00:00 15.05833 C 11.97 g/m*3 15.06 C 0 km/h
285 12-09-2021 01:00:00 15.54167 C 12.06 g/m*3 15.54 C 3.60833 km/h
286 12-09-2021 02:00:00 15.09167 C 11.64 g/m*3 15.09 C 1.06667 km/h
287 12-09-2021 03:00:00 13.95 C 11.07 g/m*3 13.95 C 0 km/h
288 12-09-2021 04:00:00 13.325 C 10.84 g/m*3 13.33 C 0 km/h
289 12-09-2021 05:00:00 12.74167 C 10.5 g/m*3 12.74 C 0 km/h
290 12-09-2021 06:00:00 12.20833 C 10.24 g/m*3 12.21 C 0.66667 km/h
291 12-09-2021 07:00:00 11.95 C 10.12 g/m*3 11.95 C 0.13333 km/h
292 12-09-2021 08:00:00 13.00833 C 10.89 g/m*3 13.01 C 0.4 km/h
293 12-09-2021 09:00:00 14.15 C 11.63 g/m*3 14.15 C 2.275 km/h
294 12-09-2021 10:00:00 16.025 C 12.3 g/m*3 16.02 C 3.46667 km/h
295 12-09-2021 11:00:00 17.55 C 12.6 g/m*3 17.55 C 5.35 km/h
296 12-09-2021 12:00:00 18.90833 C 12.89 g/m*3 18.91 C 1.33333 km/h
297 12-09-2021 13:00:00 20.21667 C 12.25 g/m*3 20.22 C 3.20833 km/h
298 12-09-2021 14:00:00 21.6 C 11.55 g/m*3 21.6 C 7.38333 km/h
299 12-09-2021 15:00:00 22.325 C 11.67 g/m*3 22.33 C 7.925 km/h
300 12-09-2021 16:00:00 22.11667 C 12.98 g/m*3 22.12 C 2.13333 km/h
Sensor: Nr:Datum:Temp:Abs-Feuchte:Windchill:Wind:
Aussen-T/F 301 12-09-2021 17:00:00 23 C 13.03 g/m*3 23 C 4.575 km/h
302 12-09-2021 18:00:00 23.04167 C 12.79 g/m*3 23.04 C 3.075 km/h
303 12-09-2021 19:00:00 19.49167 C 12.87 g/m*3 19.49 C 2.675 km/h
304 12-09-2021 20:00:00 16.8 C 11.84 g/m*3 16.8 C 3.46667 km/h
305 12-09-2021 21:00:00 15.5 C 11.4 g/m*3 15.5 C 3.46667 km/h
306 12-09-2021 22:00:00 14.63333 C 11.1 g/m*3 14.63 C 0.66667 km/h
307 12-09-2021 23:00:00 13.59167 C 10.62 g/m*3 13.59 C 0 km/h
308 13-09-2021 00:00:00 12.725 C 10.28 g/m*3 12.73 C 0 km/h
309 13-09-2021 01:00:00 12.2 C 10.05 g/m*3 12.2 C 0 km/h
310 13-09-2021 02:00:00 11.73333 C 9.85 g/m*3 11.73 C 0 km/h
311 13-09-2021 03:00:00 11.23333 C 9.57 g/m*3 11.23 C 0.13333 km/h
312 13-09-2021 04:00:00 10.84167 C 9.41 g/m*3 10.84 C 0 km/h
313 13-09-2021 05:00:00 10.45 C 9.18 g/m*3 10.45 C 0 km/h
314 13-09-2021 06:00:00 10.09167 C 8.98 g/m*3 10.09 C 0 km/h
315 13-09-2021 07:00:00 10.375 C 9.24 g/m*3 10.38 C 0 km/h
316 13-09-2021 08:00:00 11.1 C 9.69 g/m*3 11.1 C 0.53333 km/h
317 13-09-2021 09:00:00 11.7 C 10.1 g/m*3 11.7 C 0.53333 km/h
318 13-09-2021 10:00:00 12.55 C 10.7 g/m*3 12.55 C 1.46667 km/h
319 13-09-2021 11:00:00 13.83333 C 11.57 g/m*3 13.83 C 0.93333 km/h
320 13-09-2021 12:00:00 16.025 C 12.85 g/m*3 16.02 C 0.26667 km/h
321 13-09-2021 13:00:00 18.60833 C 12.71 g/m*3 18.61 C 2.4 km/h
322 13-09-2021 14:00:00 20.38333 C 12.52 g/m*3 20.38 C 1.46667 km/h
323 13-09-2021 15:00:00 21.50833 C 13.17 g/m*3 21.51 C 2.68333 km/h
324 13-09-2021 16:00:00 21.98333 C 13.69 g/m*3 21.98 C 2.26667 km/h
325 13-09-2021 17:00:00 22.125 C 14.92 g/m*3 22.13 C 0.8 km/h
Sensor: Nr:Datum:Temp:Abs-Feuchte:Windchill:Wind:
Aussen-T/F 326 13-09-2021 18:00:00 22.36667 C 14.77 g/m*3 22.37 C 1.86667 km/h
327 13-09-2021 19:00:00 18.375 C 12.56 g/m*3 18.38 C 3.2 km/h
328 13-09-2021 20:00:00 16.175 C 11.77 g/m*3 16.18 C 3.06667 km/h
329 13-09-2021 21:00:00 14.8 C 11.25 g/m*3 14.8 C 0 km/h
330 13-09-2021 22:00:00 13.96667 C 10.92 g/m*3 13.97 C 0 km/h
331 13-09-2021 23:00:00 13.35 C 10.71 g/m*3 13.35 C 0 km/h
332 14-09-2021 00:00:00 13.06667 C 10.64 g/m*3 13.07 C 0 km/h
333 14-09-2021 01:00:00 12.40833 C 10.28 g/m*3 12.41 C 0 km/h
334 14-09-2021 02:00:00 12.11667 C 10.17 g/m*3 12.12 C 0 km/h
335 14-09-2021 03:00:00 11.875 C 10.05 g/m*3 11.88 C 0 km/h
336 14-09-2021 04:00:00 11.71667 C 9.95 g/m*3 11.72 C 0 km/h
337 14-09-2021 05:00:00 11.275 C 9.69 g/m*3 11.28 C 0 km/h
338 14-09-2021 06:00:00 10.90833 C 9.54 g/m*3 10.91 C 0 km/h
339 14-09-2021 07:00:00 11 C 9.62 g/m*3 11 C 0 km/h
340 14-09-2021 08:00:00 11.9 C 10.23 g/m*3 11.9 C 0.26667 km/h
341 14-09-2021 09:00:00 12.775 C 10.85 g/m*3 12.78 C 0.13333 km/h
342 14-09-2021 10:00:00 13.9 C 11.63 g/m*3 13.9 C 0 km/h
343 14-09-2021 11:00:00 15.35 C 12.67 g/m*3 15.35 C 0.13333 km/h
344 14-09-2021 12:00:00 17.45 C 14.17 g/m*3 17.45 C 0.13333 km/h
345 14-09-2021 13:00:00 20.28333 C 15.7 g/m*3 20.28 C 1.86667 km/h
346 14-09-2021 14:00:00 22 C 16.79 g/m*3 22 C 0.53333 km/h
347 14-09-2021 15:00:00 22.96667 C 17.66 g/m*3 22.97 C 0.8 km/h
348 14-09-2021 16:00:00 23.525 C 18.09 g/m*3 23.53 C 0.66667 km/h
349 14-09-2021 17:00:00 23.53333 C 18.03 g/m*3 23.53 C 0.4 km/h
350 14-09-2021 18:00:00 21.98333 C 16.85 g/m*3 21.98 C 1.86667 km/h
Sensor: Nr:Datum:Temp:Abs-Feuchte:Windchill:Wind:
Aussen-T/F 351 14-09-2021 19:00:00 20.35 C 15.99 g/m*3 20.35 C 3.73333 km/h
352 14-09-2021 20:00:00 19.33333 C 15.36 g/m*3 19.33 C 1.73333 km/h
353 14-09-2021 21:00:00 18.925 C 15.1 g/m*3 18.93 C 1.46667 km/h
354 14-09-2021 22:00:00 18.85833 C 15.19 g/m*3 18.86 C 2.13333 km/h
355 14-09-2021 23:00:00 18.68333 C 15.03 g/m*3 18.68 C 0 km/h
356 15-09-2021 00:00:00 18.18333 C 14.6 g/m*3 18.18 C 0.13333 km/h
357 15-09-2021 01:00:00 17.575 C 14.15 g/m*3 17.58 C 0 km/h
358 15-09-2021 02:00:00 17.475 C 14.14 g/m*3 17.48 C 0 km/h
359 15-09-2021 03:00:00 17.5 C 14.24 g/m*3 17.5 C 0 km/h
360 15-09-2021 04:00:00 17.21667 C 14.05 g/m*3 17.22 C 0 km/h
361 15-09-2021 05:00:00 17.46667 C 14.28 g/m*3 17.47 C 0 km/h
362 15-09-2021 06:00:00 17.53333 C 14.34 g/m*3 17.53 C 0 km/h
363 15-09-2021 07:00:00 17.48333 C 14.31 g/m*3 17.48 C 0 km/h
364 15-09-2021 08:00:00 18.04167 C 14.94 g/m*3 18.04 C 0 km/h
365 15-09-2021 09:00:00 18.825 C 15.64 g/m*3 18.83 C 0 km/h
366 15-09-2021 10:00:00 19.50833 C 16.29 g/m*3 19.51 C 0 km/h
367 15-09-2021 11:00:00 20.24167 C 16.93 g/m*3 20.24 C 0 km/h
368 15-09-2021 12:00:00 20.91667 C 17.27 g/m*3 20.92 C 0.26667 km/h
369 15-09-2021 13:00:00 21.43333 C 17.31 g/m*3 21.43 C 4.3 km/h
370 15-09-2021 14:00:00 21.64167 C 17.13 g/m*3 21.64 C 7.11667 km/h
371 15-09-2021 15:00:00 21.94167 C 17.01 g/m*3 21.94 C 8.2 km/h
372 15-09-2021 16:00:00 22.65833 C 16.95 g/m*3 22.66 C 10.5 km/h
373 15-09-2021 17:00:00 22.49167 C 16.72 g/m*3 22.49 C 7.79167 km/h
374 15-09-2021 18:00:00 20.40833 C 15.84 g/m*3 20.41 C 1.475 km/h
375 15-09-2021 19:00:00 19.48333 C 15.56 g/m*3 19.48 C 0 km/h
Sensor: Nr:Datum:Temp:Abs-Feuchte:Windchill:Wind:
Aussen-T/F 376 15-09-2021 20:00:00 18.94167 C 15.25 g/m*3 18.94 C 3.21667 km/h
377 15-09-2021 21:00:00 18.28333 C 14.75 g/m*3 18.28 C 4.825 km/h
378 15-09-2021 22:00:00 17.50833 C 14.15 g/m*3 17.51 C 3.86667 km/h
379 15-09-2021 23:00:00 17.175 C 13.98 g/m*3 17.18 C 2.53333 km/h
380 16-09-2021 00:00:00 17.03333 C 13.92 g/m*3 17.03 C 2.95 km/h
381 16-09-2021 01:00:00 16.69167 C 13.64 g/m*3 16.69 C 2.4 km/h
382 16-09-2021 02:00:00 16.45 C 13.44 g/m*3 16.45 C 0.53333 km/h
383 16-09-2021 03:00:00 16.13333 C 13.19 g/m*3 16.13 C 1.2 km/h
384 16-09-2021 04:00:00 15.70833 C 12.85 g/m*3 15.71 C 1.2 km/h
385 16-09-2021 05:00:00 15.35833 C 12.61 g/m*3 15.36 C 6.175 km/h
386 16-09-2021 06:00:00 15.075 C 12.05 g/m*3 15.08 C 10.21667 km/h
387 16-09-2021 07:00:00 14.575 C 11.51 g/m*3 14.58 C 5.09167 km/h
388 16-09-2021 08:00:00 13.76667 C 11.11 g/m*3 13.77 C 2.53333 km/h
389 16-09-2021 09:00:00 13.75 C 11.17 g/m*3 13.75 C 4.56667 km/h
390 16-09-2021 10:00:00 15.31667 C 11.54 g/m*3 15.32 C 5.625 km/h
391 16-09-2021 11:00:00 16.19167 C 11.66 g/m*3 16.19 C 5.09167 km/h
392 16-09-2021 12:00:00 17.075 C 12.02 g/m*3 17.08 C 3.33333 km/h
393 16-09-2021 13:00:00 17.80833 C 12.19 g/m*3 17.81 C 2.66667 km/h
394 16-09-2021 14:00:00 18.55833 C 12.2 g/m*3 18.56 C 6.16667 km/h
395 16-09-2021 15:00:00 18.80833 C 12.18 g/m*3 18.81 C 5.60833 km/h
396 16-09-2021 16:00:00 18.88333 C 12.33 g/m*3 18.88 C 6.025 km/h
397 16-09-2021 17:00:00 18.68333 C 12.74 g/m*3 18.68 C 2 km/h
398 16-09-2021 18:00:00 18.45833 C 12.26 g/m*3 18.46 C 3.6 km/h
399 16-09-2021 19:00:00 17.69167 C 12.68 g/m*3 17.69 C 2.66667 km/h
400 16-09-2021 20:00:00 15.625 C 11.67 g/m*3 15.63 C 7.25833 km/h
Sensor: Nr:Datum:Temp:Abs-Feuchte:Windchill:Wind:
Aussen-T/F 401 16-09-2021 21:00:00 14.40833 C 11.19 g/m*3 14.41 C 2.13333 km/h
402 16-09-2021 22:00:00 14.00833 C 11.22 g/m*3 14.01 C 0.26667 km/h
403 16-09-2021 23:00:00 13.41667 C 10.9 g/m*3 13.42 C 0.66667 km/h
404 17-09-2021 00:00:00 12.95 C 10.67 g/m*3 12.95 C 0.93333 km/h
405 17-09-2021 01:00:00 12.53333 C 10.42 g/m*3 12.53 C 0.66667 km/h
406 17-09-2021 02:00:00 11.68333 C 9.93 g/m*3 11.68 C 0.13333 km/h
407 17-09-2021 03:00:00 11.18333 C 9.64 g/m*3 11.18 C 0.8 km/h
408 17-09-2021 04:00:00 10.91667 C 9.49 g/m*3 10.92 C 0 km/h
409 17-09-2021 05:00:00 11.10833 C 9.67 g/m*3 11.11 C 0 km/h
410 17-09-2021 06:00:00 11.3 C 9.79 g/m*3 11.3 C 0 km/h
411 17-09-2021 07:00:00 11.16667 C 9.71 g/m*3 11.17 C 0 km/h
412 17-09-2021 08:00:00 11.60833 C 10.06 g/m*3 11.61 C 0 km/h
413 17-09-2021 09:00:00 12.7 C 10.8 g/m*3 12.7 C 0 km/h
414 17-09-2021 10:00:00 13.70833 C 11.36 g/m*3 13.71 C 0 km/h
415 17-09-2021 11:00:00 14.99167 C 11.89 g/m*3 14.99 C 0 km/h
416 17-09-2021 12:00:00 17.01667 C 12.5 g/m*3 17.02 C 0 km/h
417 17-09-2021 13:00:00 18.45833 C 12.77 g/m*3 18.46 C 0.53333 km/h
418 17-09-2021 14:00:00 18.89167 C 12.75 g/m*3 18.89 C 0 km/h
419 17-09-2021 15:00:00 19.29167 C 12.61 g/m*3 19.29 C 0 km/h
420 17-09-2021 16:00:00 19.425 C 13.31 g/m*3 19.43 C 0 km/h
421 17-09-2021 17:00:00 20.64167 C 13.86 g/m*3 20.64 C 0.26667 km/h
422 17-09-2021 18:00:00 18.98333 C 12.98 g/m*3 18.98 C 5.33333 km/h
423 17-09-2021 19:00:00 16.975 C 12.33 g/m*3 16.98 C 5.75 km/h
424 17-09-2021 20:00:00 15.18333 C 11.44 g/m*3 15.18 C 2.14167 km/h
425 17-09-2021 21:00:00 13.89167 C 10.94 g/m*3 13.89 C 0 km/h
Sensor: Nr:Datum:Temp:Abs-Feuchte:Windchill:Wind:
Aussen-T/F 426 17-09-2021 22:00:00 12.96667 C 10.53 g/m*3 12.97 C 0 km/h
427 17-09-2021 23:00:00 12.36667 C 10.26 g/m*3 12.37 C 0.13333 km/h
428 18-09-2021 00:00:00 12.08333 C 10.18 g/m*3 12.08 C 0 km/h
429 18-09-2021 01:00:00 11.86667 C 10.04 g/m*3 11.87 C 0.13333 km/h
430 18-09-2021 02:00:00 11.38333 C 9.76 g/m*3 11.38 C 0 km/h
431 18-09-2021 03:00:00 10.9 C 9.5 g/m*3 10.9 C 0.13333 km/h
432 18-09-2021 04:00:00 11.08333 C 9.66 g/m*3 11.08 C 0.13333 km/h
433 18-09-2021 05:00:00 11.03333 C 9.63 g/m*3 11.03 C 0 km/h
434 18-09-2021 06:00:00 10.81667 C 9.5 g/m*3 10.82 C 0 km/h
435 18-09-2021 07:00:00 10.7 C 9.51 g/m*3 10.7 C 0 km/h
436 18-09-2021 08:00:00 10.8 C 9.59 g/m*3 10.8 C 0 km/h
437 18-09-2021 09:00:00 11.175 C 9.82 g/m*3 11.18 C 0.13333 km/h
438 18-09-2021 10:00:00 11.75833 C 10.18 g/m*3 11.76 C 0 km/h
439 18-09-2021 11:00:00 12.75833 C 10.84 g/m*3 12.76 C 0 km/h
440 18-09-2021 12:00:00 14.76667 C 12.16 g/m*3 14.77 C 0 km/h
441 18-09-2021 13:00:00 16.69167 C 12.87 g/m*3 16.69 C 0 km/h
442 18-09-2021 14:00:00 18.925 C 12.74 g/m*3 18.93 C 0 km/h
443 18-09-2021 15:00:00 20.525 C 12.99 g/m*3 20.53 C 0 km/h
444 18-09-2021 16:00:00 20.94167 C 13.05 g/m*3 20.94 C 0 km/h
445 18-09-2021 17:00:00 21.8 C 14.57 g/m*3 21.8 C 0 km/h
446 18-09-2021 18:00:00 21.75833 C 14.58 g/m*3 21.76 C 0 km/h
447 18-09-2021 19:00:00 18.08333 C 12.85 g/m*3 18.08 C 0.53333 km/h
448 18-09-2021 20:00:00 15.95833 C 12 g/m*3 15.96 C 1.73333 km/h
449 18-09-2021 21:00:00 15.1 C 11.75 g/m*3 15.1 C 0.4 km/h
450 18-09-2021 22:00:00 14.58333 C 11.56 g/m*3 14.58 C 0.66667 km/h
Sensor: Nr:Datum:Temp:Abs-Feuchte:Windchill:Wind:
Aussen-T/F 451 18-09-2021 23:00:00 14.18333 C 11.27 g/m*3 14.18 C 0.66667 km/h
452 19-09-2021 00:00:00 13.275 C 10.68 g/m*3 13.28 C 1.06667 km/h
453 19-09-2021 01:00:00 12.65833 C 10.4 g/m*3 12.66 C 1.46667 km/h
454 19-09-2021 02:00:00 12.28333 C 10.16 g/m*3 12.28 C 1.86667 km/h
455 19-09-2021 03:00:00 11.68333 C 9.83 g/m*3 11.68 C 2.53333 km/h
456 19-09-2021 04:00:00 11.31667 C 9.69 g/m*3 11.32 C 0 km/h
457 19-09-2021 05:00:00 10.76667 C 9.37 g/m*3 10.77 C 0 km/h
458 19-09-2021 06:00:00 10.4 C 9.17 g/m*3 10.4 C 0 km/h
459 19-09-2021 07:00:00 10.125 C 9.05 g/m*3 10.13 C 0 km/h
460 19-09-2021 08:00:00 10.525 C 9.33 g/m*3 10.53 C 0 km/h
461 19-09-2021 09:00:00 12.125 C 10.41 g/m*3 12.13 C 2.01667 km/h
462 19-09-2021 10:00:00 12.91667 C 10.83 g/m*3 12.92 C 1.33333 km/h
463 19-09-2021 11:00:00 14.375 C 11.39 g/m*3 14.38 C 2.94167 km/h
464 19-09-2021 12:00:00 16.8 C 11.43 g/m*3 16.8 C 7.525 km/h
465 19-09-2021 13:00:00 17.65 C 11.26 g/m*3 17.65 C 5.51667 km/h
466 19-09-2021 14:00:00 18.29167 C 11.46 g/m*3 18.29 C 3.73333 km/h
467 19-09-2021 15:00:00 18.8 C 11.5 g/m*3 18.8 C 7.5 km/h
468 19-09-2021 16:00:00 19.01667 C 11.39 g/m*3 19.02 C 9.28333 km/h
469 19-09-2021 17:00:00 19.45 C 11.78 g/m*3 19.45 C 6.3 km/h
470 19-09-2021 18:00:00 19.60833 C 11.87 g/m*3 19.61 C 4.025 km/h
471 19-09-2021 19:00:00 15.71667 C 10.96 g/m*3 15.72 C 0.4 km/h
472 19-09-2021 20:00:00 13.44167 C 10.08 g/m*3 13.44 C 1.60833 km/h
473 19-09-2021 21:00:00 12.11667 C 9.5 g/m*3 12.12 C 0 km/h
474 19-09-2021 22:00:00 11.04167 C 9.17 g/m*3 11.04 C 0 km/h
475 19-09-2021 23:00:00 11.39167 C 9.56 g/m*3 11.39 C 0 km/h
Sensor: Nr:Datum:Temp:Abs-Feuchte:Windchill:Wind:
Aussen-T/F 476 20-09-2021 00:00:00 11.8 C 9.76 g/m*3 11.8 C 0 km/h
477 20-09-2021 01:00:00 12 C 9.71 g/m*3 12 C 0 km/h
478 20-09-2021 02:00:00 12.09167 C 9.6 g/m*3 12.09 C 0.13333 km/h
479 20-09-2021 03:00:00 11.975 C 9.56 g/m*3 11.98 C 0 km/h
480 20-09-2021 04:00:00 11.6 C 9.37 g/m*3 11.6 C 0 km/h
481 20-09-2021 05:00:00 11.30833 C 9.29 g/m*3 11.31 C 0 km/h
482 20-09-2021 06:00:00 11.325 C 9.23 g/m*3 11.33 C 0 km/h
483 20-09-2021 07:00:00 11.45 C 9.28 g/m*3 11.45 C 0 km/h
484 20-09-2021 08:00:00 11.76667 C 9.1 g/m*3 11.77 C 0 km/h
485 20-09-2021 09:00:00 12.54167 C 9.1 g/m*3 12.54 C 0.93333 km/h
486 20-09-2021 10:00:00 12.95 C 9.25 g/m*3 12.95 C 4.40833 km/h
487 20-09-2021 11:00:00 13.79167 C 9.45 g/m*3 13.79 C 7.8 km/h
488 20-09-2021 12:00:00 14.6 C 9.66 g/m*3 14.6 C 8.35 km/h
489 20-09-2021 13:00:00 15.16667 C 9.89 g/m*3 15.17 C 6.84167 km/h
490 20-09-2021 14:00:00 16.04167 C 10.23 g/m*3 16.04 C 7.80833 km/h
491 20-09-2021 15:00:00 16.28333 C 10.34 g/m*3 16.28 C 7.25 km/h
492 20-09-2021 16:00:00 16.26667 C 10.27 g/m*3 16.27 C 4.025 km/h
493 20-09-2021 17:00:00 16.29167 C 10.35 g/m*3 16.29 C 1.73333 km/h
494 20-09-2021 18:00:00 15.93333 C 10.88 g/m*3 15.93 C 0 km/h
495 20-09-2021 19:00:00 14.71667 C 10.48 g/m*3 14.72 C 0 km/h
496 20-09-2021 20:00:00 13.66667 C 9.9 g/m*3 13.67 C 0 km/h
497 20-09-2021 21:00:00 13.075 C 9.64 g/m*3 13.08 C 0 km/h
498 20-09-2021 22:00:00 12.75833 C 9.47 g/m*3 12.76 C 0 km/h
499 20-09-2021 23:00:00 12.71667 C 9.41 g/m*3 12.72 C 0 km/h
500 21-09-2021 00:00:00 12.25833 C 9.23 g/m*3 12.26 C 0 km/h
Sensor: Nr:Datum:Temp:Abs-Feuchte:Windchill:Wind:
Aussen-T/F 501 21-09-2021 01:00:00 12.00833 C 8.95 g/m*3 12.01 C 0.26667 km/h
502 21-09-2021 02:00:00 12.00833 C 8.48 g/m*3 12.01 C 1.6 km/h
503 21-09-2021 03:00:00 12.34167 C 8.45 g/m*3 12.34 C 0 km/h
504 21-09-2021 04:00:00 11.60833 C 8.52 g/m*3 11.61 C 0 km/h
505 21-09-2021 05:00:00 11.06667 C 8.33 g/m*3 11.07 C 0 km/h
506 21-09-2021 06:00:00 9.9 C 7.91 g/m*3 9.9 C 0 km/h
507 21-09-2021 07:00:00 8.94167 C 7.76 g/m*3 8.94 C 0 km/h
508 21-09-2021 08:00:00 8.4 C 7.71 g/m*3 8.4 C 0 km/h
509 21-09-2021 09:00:00 8.40833 C 7.73 g/m*3 8.41 C 0 km/h
510 21-09-2021 10:00:00 9.21667 C 8.27 g/m*3 9.22 C 0 km/h
511 21-09-2021 11:00:00 10.95833 C 8.96 g/m*3 10.96 C 0 km/h
512 21-09-2021 12:00:00 13.90833 C 8.82 g/m*3 13.91 C 1.075 km/h
513 21-09-2021 13:00:00 15.93333 C 8.46 g/m*3 15.93 C 6.575 km/h
514 21-09-2021 14:00:00 16.65 C 8.55 g/m*3 16.65 C 6.84167 km/h
515 21-09-2021 15:00:00 16.64167 C 8.73 g/m*3 16.64 C 4.81667 km/h
516 21-09-2021 16:00:00 16.83333 C 8.54 g/m*3 16.83 C 7.66667 km/h
517 21-09-2021 17:00:00 17.26667 C 9.48 g/m*3 17.27 C 2.4 km/h
518 21-09-2021 18:00:00 16.125 C 10.39 g/m*3 16.13 C 3.875 km/h
519 21-09-2021 19:00:00 13.10833 C 8.99 g/m*3 13.11 C 8.08333 km/h
520 21-09-2021 20:00:00 11.425 C 8.61 g/m*3 11.43 C 2.53333 km/h
521 21-09-2021 21:00:00 10.10833 C 8.29 g/m*3 10.11 C 0 km/h
522 21-09-2021 22:00:00 9.26667 C 8.1 g/m*3 9.27 C 0 km/h
523 21-09-2021 23:00:00 8.825 C 8 g/m*3 8.82 C 0 km/h
524 22-09-2021 00:00:00 8.44167 C 7.91 g/m*3 8.44 C 0 km/h
525 22-09-2021 01:00:00 8.025 C 7.76 g/m*3 8.03 C 0 km/h
Sensor: Nr:Datum:Temp:Abs-Feuchte:Windchill:Wind:
Aussen-T/F 526 22-09-2021 02:00:00 7.71667 C 7.63 g/m*3 7.72 C 0.13333 km/h
527 22-09-2021 03:00:00 7.36667 C 7.51 g/m*3 7.37 C 0 km/h
528 22-09-2021 04:00:00 7.01667 C 7.37 g/m*3 7.02 C 0 km/h
529 22-09-2021 05:00:00 6.775 C 7.25 g/m*3 6.78 C 0.13333 km/h
530 22-09-2021 06:00:00 6.36667 C 7.06 g/m*3 6.37 C 0 km/h
531 22-09-2021 07:00:00 6.10833 C 6.96 g/m*3 6.11 C 0 km/h
532 22-09-2021 08:00:00 6.76667 C 7.33 g/m*3 6.77 C 0 km/h
533 22-09-2021 09:00:00 7.475 C 7.67 g/m*3 7.48 C 0 km/h
534 22-09-2021 10:00:00 8.64167 C 8.32 g/m*3 8.64 C 0 km/h
535 22-09-2021 11:00:00 10.55 C 9.33 g/m*3 10.55 C 0 km/h
536 22-09-2021 12:00:00 12.85833 C 10.19 g/m*3 12.86 C 0 km/h
537 22-09-2021 13:00:00 14.7 C 10.6 g/m*3 14.7 C 0 km/h
538 22-09-2021 14:00:00 16.98333 C 10.81 g/m*3 16.98 C 0 km/h
539 22-09-2021 15:00:00 17.65833 C 11.6 g/m*3 17.66 C 0 km/h
540 22-09-2021 16:00:00 17.175 C 11.48 g/m*3 17.18 C 0 km/h
541 22-09-2021 17:00:00 17.76667 C 12.08 g/m*3 17.77 C 0 km/h
542 22-09-2021 18:00:00 17.9 C 11.96 g/m*3 17.9 C 0 km/h
543 22-09-2021 19:00:00 14.925 C 10.55 g/m*3 14.93 C 4.13333 km/h
544 22-09-2021 20:00:00 12.725 C 9.73 g/m*3 12.73 C 1.06667 km/h
545 22-09-2021 21:00:00 11.30833 C 9.23 g/m*3 11.31 C 0 km/h
546 22-09-2021 22:00:00 10.475 C 8.9 g/m*3 10.48 C 0 km/h
547 22-09-2021 23:00:00 9.91667 C 8.72 g/m*3 9.92 C 0.4 km/h
548 23-09-2021 00:00:00 9.43333 C 8.52 g/m*3 9.43 C 0.13333 km/h
549 23-09-2021 01:00:00 9.075 C 8.39 g/m*3 9.07 C 0.13333 km/h
550 23-09-2021 02:00:00 8.625 C 8.18 g/m*3 8.63 C 0.26667 km/h
Sensor: Nr:Datum:Temp:Abs-Feuchte:Windchill:Wind:
Aussen-T/F 551 23-09-2021 03:00:00 8.19167 C 7.95 g/m*3 8.19 C 0.13333 km/h
552 23-09-2021 04:00:00 7.54167 C 7.62 g/m*3 7.54 C 0 km/h
553 23-09-2021 05:00:00 7.38333 C 7.59 g/m*3 7.38 C 0 km/h
554 23-09-2021 06:00:00 7.53333 C 7.7 g/m*3 7.53 C 0.13333 km/h
555 23-09-2021 07:00:00 7.83333 C 7.85 g/m*3 7.83 C 0 km/h
556 23-09-2021 08:00:00 8.225 C 8.05 g/m*3 8.23 C 0 km/h
557 23-09-2021 09:00:00 8.58333 C 8.27 g/m*3 8.58 C 0 km/h
558 23-09-2021 10:00:00 9.2 C 8.66 g/m*3 9.2 C 0 km/h
559 23-09-2021 11:00:00 10.65 C 9.5 g/m*3 10.65 C 0 km/h
560 23-09-2021 12:00:00 13.525 C 11.34 g/m*3 13.53 C 0.8 km/h
561 23-09-2021 13:00:00 17.00833 C 11.99 g/m*3 17.01 C 8.33333 km/h
562 23-09-2021 14:00:00 19.60833 C 11.95 g/m*3 19.61 C 7.8 km/h
563 23-09-2021 15:00:00 20.61667 C 12.36 g/m*3 20.62 C 9.00833 km/h
564 23-09-2021 16:00:00 21.23333 C 12.9 g/m*3 21.23 C 8.73333 km/h
565 23-09-2021 17:00:00 22.15 C 12.14 g/m*3 22.15 C 8.04167 km/h
566 23-09-2021 18:00:00 21.625 C 10.34 g/m*3 21.63 C 8.19167 km/h
567 23-09-2021 19:00:00 19.10833 C 10.24 g/m*3 19.11 C 3.89167 km/h
568 23-09-2021 20:00:00 17.84167 C 10.31 g/m*3 17.84 C 8.46667 km/h
569 23-09-2021 21:00:00 17.13333 C 10.62 g/m*3 17.13 C 3.33333 km/h
570 23-09-2021 22:00:00 15.84167 C 10.64 g/m*3 15.84 C 4.26667 km/h
571 23-09-2021 23:00:00 15.18333 C 10.71 g/m*3 15.18 C 2.4 km/h
572 24-09-2021 00:00:00 14.90833 C 10.77 g/m*3 14.91 C 2.94167 km/h
573 24-09-2021 01:00:00 15.09167 C 10.69 g/m*3 15.09 C 2.8 km/h
574 24-09-2021 02:00:00 14.36667 C 10.6 g/m*3 14.37 C 4.81667 km/h
575 24-09-2021 03:00:00 13.98333 C 10.52 g/m*3 13.98 C 2.675 km/h
Sensor: Nr:Datum:Temp:Abs-Feuchte:Windchill:Wind:
Aussen-T/F 576 24-09-2021 04:00:00 13.875 C 10.49 g/m*3 13.88 C 5.09167 km/h
577 24-09-2021 05:00:00 12.85833 C 10.15 g/m*3 12.86 C 3.20833 km/h
578 24-09-2021 06:00:00 12.60833 C 10.18 g/m*3 12.61 C 5.21667 km/h
579 24-09-2021 07:00:00 12.15 C 9.94 g/m*3 12.15 C 1.33333 km/h
580 24-09-2021 08:00:00 11.89167 C 9.92 g/m*3 11.89 C 0.93333 km/h
581 24-09-2021 09:00:00 12.425 C 10.39 g/m*3 12.43 C 3.08333 km/h
582 24-09-2021 10:00:00 14.59167 C 11.6 g/m*3 14.59 C 5.90833 km/h
583 24-09-2021 11:00:00 16.49167 C 12.3 g/m*3 16.49 C 5.1 km/h
584 24-09-2021 12:00:00 18.525 C 12.95 g/m*3 18.52 C 8.05833 km/h
585 24-09-2021 13:00:00 19.35833 C 12.75 g/m*3 19.36 C 10.9 km/h
586 24-09-2021 14:00:00 19.64167 C 12.68 g/m*3 19.64 C 13.56667 km/h
587 24-09-2021 15:00:00 19.18333 C 12.3 g/m*3 19.18 C 12.23333 km/h
588 24-09-2021 16:00:00 19.33333 C 12.63 g/m*3 19.33 C 10.35 km/h
589 24-09-2021 17:00:00 20.68333 C 12.96 g/m*3 20.68 C 5.48333 km/h
590 24-09-2021 18:00:00 19.85 C 13.09 g/m*3 19.85 C 2.93333 km/h
591 24-09-2021 19:00:00 16.875 C 12.26 g/m*3 16.88 C 4.4 km/h
592 24-09-2021 20:00:00 15.55 C 11.88 g/m*3 15.55 C 2.53333 km/h
593 24-09-2021 21:00:00 14.875 C 11.54 g/m*3 14.88 C 4.825 km/h
594 24-09-2021 22:00:00 14.8 C 11.28 g/m*3 14.8 C 5.075 km/h
595 24-09-2021 23:00:00 14.11667 C 10.85 g/m*3 14.12 C 1.33333 km/h
596 25-09-2021 00:00:00 13.19167 C 10.51 g/m*3 13.19 C 0.66667 km/h
597 25-09-2021 01:00:00 12.74167 C 10.38 g/m*3 12.74 C 0 km/h
598 25-09-2021 02:00:00 12.15833 C 10.06 g/m*3 12.16 C 0 km/h
599 25-09-2021 03:00:00 11.3 C 9.52 g/m*3 11.3 C 0 km/h
600 25-09-2021 04:00:00 10.80833 C 9.35 g/m*3 10.81 C 0 km/h
Sensor: Nr:Datum:Temp:Abs-Feuchte:Windchill:Wind:
Aussen-T/F 601 25-09-2021 05:00:00 10.53333 C 9.23 g/m*3 10.53 C 0 km/h
602 25-09-2021 06:00:00 10.65 C 9.34 g/m*3 10.65 C 0 km/h
603 25-09-2021 07:00:00 10.49167 C 9.25 g/m*3 10.49 C 0 km/h
604 25-09-2021 08:00:00 10.425 C 9.27 g/m*3 10.43 C 0 km/h
605 25-09-2021 09:00:00 11.225 C 9.77 g/m*3 11.23 C 0 km/h
606 25-09-2021 10:00:00 12.06667 C 10.35 g/m*3 12.07 C 0 km/h
607 25-09-2021 11:00:00 13.51667 C 11.36 g/m*3 13.52 C 0 km/h
608 25-09-2021 12:00:00 15.16667 C 12.46 g/m*3 15.17 C 0 km/h
609 25-09-2021 13:00:00 16.98333 C 13.07 g/m*3 16.98 C 0 km/h
610 25-09-2021 14:00:00 19.50833 C 13.63 g/m*3 19.51 C 0 km/h
611 25-09-2021 15:00:00 20.625 C 13.83 g/m*3 20.63 C 0 km/h
612 25-09-2021 16:00:00 19.51667 C 13.69 g/m*3 19.52 C 0 km/h
613 25-09-2021 17:00:00 19.4 C 13.65 g/m*3 19.4 C 0 km/h
614 25-09-2021 18:00:00 20.875 C 13.9 g/m*3 20.88 C 0 km/h
615 25-09-2021 19:00:00 17.91667 C 12.12 g/m*3 17.92 C 0 km/h
616 25-09-2021 20:00:00 15.775 C 11.39 g/m*3 15.78 C 0 km/h
617 25-09-2021 21:00:00 14.73333 C 11.13 g/m*3 14.73 C 0 km/h
618 25-09-2021 22:00:00 14.66667 C 11.38 g/m*3 14.67 C 0 km/h
619 25-09-2021 23:00:00 14.93333 C 11.73 g/m*3 14.93 C 0 km/h
620 26-09-2021 00:00:00 15.09167 C 11.86 g/m*3 15.09 C 0 km/h
621 26-09-2021 01:00:00 14.90833 C 11.74 g/m*3 14.91 C 0 km/h
622 26-09-2021 02:00:00 14.71667 C 11.62 g/m*3 14.72 C 0 km/h
623 26-09-2021 03:00:00 13.79167 C 11.01 g/m*3 13.79 C 0 km/h
624 26-09-2021 04:00:00 13.76667 C 11.18 g/m*3 13.77 C 0 km/h
625 26-09-2021 05:00:00 13.26667 C 10.84 g/m*3 13.27 C 0 km/h
Sensor: Nr:Datum:Temp:Abs-Feuchte:Windchill:Wind:
Aussen-T/F 626 26-09-2021 06:00:00 12.775 C 10.57 g/m*3 12.78 C 0 km/h
627 26-09-2021 07:00:00 12.5 C 10.44 g/m*3 12.5 C 0 km/h
628 26-09-2021 08:00:00 12.51667 C 10.53 g/m*3 12.52 C 0 km/h
629 26-09-2021 09:00:00 13.975 C 11.61 g/m*3 13.98 C 0 km/h
630 26-09-2021 10:00:00 15.6 C 12.76 g/m*3 15.6 C 1.06667 km/h
631 26-09-2021 11:00:00 17.725 C 13.93 g/m*3 17.73 C 3.60833 km/h
632 26-09-2021 12:00:00 18.68333 C 14.17 g/m*3 18.68 C 5.48333 km/h
633 26-09-2021 13:00:00 19.59167 C 14.51 g/m*3 19.59 C 3.49167 km/h
634 26-09-2021 14:00:00 19.34167 C 14.91 g/m*3 19.34 C 0.4 km/h
635 26-09-2021 15:00:00 19.25 C 14.95 g/m*3 19.25 C 1.33333 km/h
636 26-09-2021 16:00:00 19.30833 C 15.03 g/m*3 19.31 C 0.13333 km/h
637 26-09-2021 17:00:00 19.25833 C 14.89 g/m*3 19.26 C 0.4 km/h
638 26-09-2021 18:00:00 18.74167 C 14.47 g/m*3 18.74 C 1.2 km/h
639 26-09-2021 19:00:00 17.7 C 13.81 g/m*3 17.7 C 0.66667 km/h
640 26-09-2021 20:00:00 17.11667 C 13.62 g/m*3 17.12 C 1.33333 km/h
641 26-09-2021 21:00:00 16.78333 C 13.44 g/m*3 16.78 C 2 km/h
642 26-09-2021 22:00:00 16.15833 C 13.06 g/m*3 16.16 C 2.13333 km/h
643 26-09-2021 23:00:00 15.43333 C 12.51 g/m*3 15.43 C 0.93333 km/h
644 27-09-2021 00:00:00 14.625 C 11.91 g/m*3 14.63 C 0.26667 km/h
645 27-09-2021 01:00:00 13.90833 C 11.41 g/m*3 13.91 C 0.13333 km/h
646 27-09-2021 02:00:00 13.30833 C 11.08 g/m*3 13.31 C 0 km/h
647 27-09-2021 03:00:00 13.05833 C 10.93 g/m*3 13.06 C 0 km/h
648 27-09-2021 04:00:00 13.45 C 11.25 g/m*3 13.45 C 0.13333 km/h
649 27-09-2021 05:00:00 13.60833 C 11.42 g/m*3 13.61 C 0.26667 km/h
650 27-09-2021 06:00:00 13.50833 C 11.33 g/m*3 13.51 C 0 km/h
Sensor: Nr:Datum:Temp:Abs-Feuchte:Windchill:Wind:
Aussen-T/F 651 27-09-2021 07:00:00 13.65 C 11.45 g/m*3 13.65 C 0 km/h
652 27-09-2021 08:00:00 14.01667 C 11.71 g/m*3 14.02 C 0.26667 km/h
653 27-09-2021 09:00:00 14.96667 C 12.41 g/m*3 14.97 C 1.61667 km/h
654 27-09-2021 10:00:00 15.8 C 13.07 g/m*3 15.8 C 1.33333 km/h
655 27-09-2021 11:00:00 17.73333 C 14.12 g/m*3 17.73 C 2.93333 km/h
656 27-09-2021 12:00:00 19.49167 C 14.26 g/m*3 19.49 C 5.61667 km/h
657 27-09-2021 13:00:00 20.26667 C 14.38 g/m*3 20.27 C 3.86667 km/h
658 27-09-2021 14:00:00 20.35 C 14.1 g/m*3 20.35 C 7.25 km/h
659 27-09-2021 15:00:00 20.31667 C 14.47 g/m*3 20.32 C 1.74167 km/h
660 27-09-2021 16:00:00 20.00833 C 14.6 g/m*3 20.01 C 0 km/h
661 27-09-2021 17:00:00 19.18333 C 14.41 g/m*3 19.18 C 0.26667 km/h
662 27-09-2021 18:00:00 18.425 C 14.11 g/m*3 18.43 C 1.46667 km/h
663 27-09-2021 19:00:00 17.525 C 13.76 g/m*3 17.52 C 1.06667 km/h
664 27-09-2021 20:00:00 16.45833 C 13 g/m*3 16.46 C 7.23333 km/h
665 27-09-2021 21:00:00 14.59167 C 11.53 g/m*3 14.59 C 3.48333 km/h
666 27-09-2021 22:00:00 13.38333 C 10.88 g/m*3 13.38 C 2.66667 km/h
667 27-09-2021 23:00:00 12.725 C 10.55 g/m*3 12.73 C 3.06667 km/h
668 28-09-2021 00:00:00 11.95833 C 10.08 g/m*3 11.96 C 2.53333 km/h
669 28-09-2021 01:00:00 11.59167 C 9.87 g/m*3 11.59 C 0.4 km/h
670 28-09-2021 02:00:00 11.23333 C 9.73 g/m*3 11.23 C 0.53333 km/h
671 28-09-2021 03:00:00 11.09167 C 9.66 g/m*3 11.09 C 0.8 km/h
672 28-09-2021 04:00:00 10.95 C 9.59 g/m*3 10.95 C 2.66667 km/h
673 28-09-2021 05:00:00 10.81667 C 9.5 g/m*3 10.82 C 2.53333 km/h
674 28-09-2021 06:00:00 10.4 C 9.25 g/m*3 10.4 C 2.4 km/h
675 28-09-2021 07:00:00 9.65833 C 8.83 g/m*3 9.66 C 0.4 km/h
Sensor: Nr:Datum:Temp:Abs-Feuchte:Windchill:Wind:
Aussen-T/F 676 28-09-2021 08:00:00 9.70833 C 8.91 g/m*3 9.71 C 4 km/h
677 28-09-2021 09:00:00 10.90833 C 9.65 g/m*3 10.91 C 1.73333 km/h
678 28-09-2021 10:00:00 12.04167 C 10.32 g/m*3 12.04 C 7.24167 km/h
679 28-09-2021 11:00:00 12.975 C 10.55 g/m*3 12.98 C 3.46667 km/h
680 28-09-2021 12:00:00 14.125 C 10.81 g/m*3 14.13 C 3.33333 km/h
681 28-09-2021 13:00:00 14.93333 C 11.03 g/m*3 14.93 C 4.26667 km/h
682 28-09-2021 14:00:00 16.25 C 11.23 g/m*3 16.25 C 4.8 km/h
683 28-09-2021 15:00:00 17 C 10.95 g/m*3 17 C 3.33333 km/h
684 28-09-2021 16:00:00 17.15 C 10.95 g/m*3 17.15 C 2.13333 km/h
685 28-09-2021 17:00:00 17.1 C 11.91 g/m*3 17.1 C 1.06667 km/h
686 28-09-2021 18:00:00 14.93333 C 10.88 g/m*3 14.93 C 2.8 km/h
687 28-09-2021 19:00:00 13.375 C 10.31 g/m*3 13.38 C 3.6 km/h
688 28-09-2021 20:00:00 12.55 C 10.07 g/m*3 12.55 C 1.86667 km/h
689 28-09-2021 21:00:00 11.85 C 9.76 g/m*3 11.85 C 0 km/h
690 28-09-2021 22:00:00 11.38333 C 9.59 g/m*3 11.38 C 0 km/h
691 28-09-2021 23:00:00 10.93333 C 9.37 g/m*3 10.93 C 0 km/h
692 29-09-2021 00:00:00 10.34167 C 9.07 g/m*3 10.34 C 0 km/h
693 29-09-2021 01:00:00 10.23333 C 9.06 g/m*3 10.23 C 0 km/h
694 29-09-2021 02:00:00 9.93333 C 8.89 g/m*3 9.93 C 0 km/h
695 29-09-2021 03:00:00 9.74167 C 8.8 g/m*3 9.74 C 0 km/h
696 29-09-2021 04:00:00 9.35 C 8.59 g/m*3 9.35 C 0 km/h
697 29-09-2021 05:00:00 8.98333 C 8.44 g/m*3 8.98 C 0 km/h
698 29-09-2021 06:00:00 8.63333 C 8.27 g/m*3 8.63 C 0 km/h
699 29-09-2021 07:00:00 8.34167 C 8.11 g/m*3 8.34 C 0.53333 km/h
700 29-09-2021 08:00:00 9.075 C 8.57 g/m*3 9.07 C 1.46667 km/h
Sensor: Nr:Datum:Temp:Abs-Feuchte:Windchill:Wind:
Aussen-T/F 701 29-09-2021 09:00:00 10.35 C 9.32 g/m*3 10.35 C 2.13333 km/h
702 29-09-2021 10:00:00 11.825 C 10.23 g/m*3 11.83 C 2.41667 km/h
703 29-09-2021 11:00:00 14.24167 C 11.02 g/m*3 14.24 C 12.9 km/h
704 29-09-2021 12:00:00 15.05 C 10.96 g/m*3 15.05 C 13.425 km/h
705 29-09-2021 13:00:00 13.05 C 10.62 g/m*3 13.05 C 9.68333 km/h
706 29-09-2021 14:00:00 14.09167 C 10.63 g/m*3 14.09 C 12.35833 km/h
707 29-09-2021 15:00:00 14.58333 C 9.79 g/m*3 14.58 C 14.9 km/h
708 29-09-2021 16:00:00 14.95 C 9.09 g/m*3 14.95 C 15.96667 km/h
709 29-09-2021 17:00:00 15.45 C 8.94 g/m*3 15.45 C 11.69167 km/h
710 29-09-2021 18:00:00 15.85 C 8.43 g/m*3 15.85 C 10.075 km/h
711 29-09-2021 19:00:00 12.875 C 8.05 g/m*3 12.88 C 7.5 km/h
712 29-09-2021 20:00:00 10.48333 C 7.86 g/m*3 9.83 C 6.825 km/h
713 29-09-2021 21:00:00 9.65833 C 7.88 g/m*3 9.66 C 4.4 km/h
714 29-09-2021 22:00:00 9.28333 C 7.92 g/m*3 9.28 C 4.14167 km/h
715 29-09-2021 23:00:00 8.79167 C 7.76 g/m*3 8.79 C 2.66667 km/h
716 30-09-2021 00:00:00 9.28333 C 7.78 g/m*3 8.83 C 5.35833 km/h
717 30-09-2021 01:00:00 8.89167 C 7.71 g/m*3 8.47 C 5.1 km/h
718 30-09-2021 02:00:00 9.03333 C 7.77 g/m*3 8.14 C 6.85 km/h
719 30-09-2021 03:00:00 8.89167 C 7.7 g/m*3 7.69 C 8.05833 km/h
720 30-09-2021 04:00:00 8.65 C 7.64 g/m*3 7.47 C 7.79167 km/h
721 30-09-2021 05:00:00 8.3 C 7.53 g/m*3 7.22 C 7.125 km/h
722 30-09-2021 06:00:00 7.85 C 7.47 g/m*3 7.85 C 4.80833 km/h
723 30-09-2021 07:00:00 7.93333 C 7.51 g/m*3 6.27 C 9.425 km/h
724 30-09-2021 08:00:00 7.73333 C 7.49 g/m*3 6.3 C 8.20833 km/h
725 30-09-2021 09:00:00 8.29167 C 7.72 g/m*3 6.57 C 10.1 km/h
Sensor: Nr:Datum:Temp:Abs-Feuchte:Windchill:Wind:
Aussen-T/F 726 30-09-2021 10:00:00 9.16667 C 8.05 g/m*3 8.07 C 7.79167 km/h
727 30-09-2021 11:00:00 10.49167 C 8.5 g/m*3 9.93 C 6.43333 km/h
728 30-09-2021 12:00:00 12.2 C 8.78 g/m*3 12.2 C 9.68333 km/h
729 30-09-2021 13:00:00 13.36667 C 8.77 g/m*3 13.37 C 12.23333 km/h
730 30-09-2021 14:00:00 14.70833 C 8.71 g/m*3 14.71 C 10.60833 km/h
731 30-09-2021 15:00:00 14.86667 C 8.53 g/m*3 14.87 C 9.01667 km/h
732 30-09-2021 16:00:00 14.95833 C 8.44 g/m*3 14.96 C 6.05833 km/h
733 30-09-2021 17:00:00 14.45 C 9.81 g/m*3 14.45 C 0.66667 km/h
734 30-09-2021 18:00:00 13.25833 C 9.62 g/m*3 13.26 C 0.26667 km/h
735 30-09-2021 19:00:00 11.84167 C 9.11 g/m*3 11.84 C 2 km/h
736 30-09-2021 20:00:00 11.175 C 8.95 g/m*3 11.18 C 1.73333 km/h
737 30-09-2021 21:00:00 10.51667 C 8.66 g/m*3 10.52 C 1.33333 km/h
738 30-09-2021 22:00:00 9.91667 C 8.48 g/m*3 9.92 C 1.86667 km/h
739 30-09-2021 23:00:00 9.85 C 8.49 g/m*3 9.85 C 0 km/h
740 01-10-2021 00:00:00 9.15833 C 8.1 g/m*3 9.16 C 1.33333 km/h
741 01-10-2021 01:00:00 8.33333 C 7.69 g/m*3 8.33 C 0.66667 km/h
742 01-10-2021 02:00:00 7.64167 C 7.45 g/m*3 7.64 C 0.4 km/h
743 01-10-2021 03:00:00 7.05 C 7.23 g/m*3 7.05 C 0.13333 km/h
744 01-10-2021 04:00:00 7 C 7.28 g/m*3 7 C 0 km/h
745 01-10-2021 05:00:00 6.86667 C 7.22 g/m*3 6.87 C 0 km/h
746 01-10-2021 06:00:00 6.38333 C 7.04 g/m*3 6.38 C 0.13333 km/h
747 01-10-2021 07:00:00 5.875 C 6.84 g/m*3 5.88 C 0 km/h
748 01-10-2021 08:00:00 5.83333 C 6.82 g/m*3 5.83 C 0 km/h
749 01-10-2021 09:00:00 6.475 C 7.19 g/m*3 6.48 C 0.13333 km/h
750 01-10-2021 10:00:00 8.5 C 8.26 g/m*3 8.5 C 0.13333 km/h
Sensor: Nr:Datum:Temp:Abs-Feuchte:Windchill:Wind:
Aussen-T/F 751 01-10-2021 11:00:00 10.40833 C 9.25 g/m*3 10.41 C 1.73333 km/h
752 01-10-2021 12:00:00 12.95833 C 9.91 g/m*3 12.96 C 4.55833 km/h
753 01-10-2021 13:00:00 15.55833 C 9.54 g/m*3 15.56 C 7.9 km/h
754 01-10-2021 14:00:00 17.55 C 9.28 g/m*3 17.55 C 7.24167 km/h
755 01-10-2021 15:00:00 18.19167 C 9.53 g/m*3 18.19 C 6.3 km/h
756 01-10-2021 16:00:00 18 C 10.97 g/m*3 18 C 1.46667 km/h
757 01-10-2021 17:00:00 16.15833 C 10.6 g/m*3 16.16 C 5.34167 km/h
758 01-10-2021 18:00:00 14.25 C 9.84 g/m*3 14.25 C 6.40833 km/h
759 01-10-2021 19:00:00 13.00833 C 9.41 g/m*3 13.01 C 4.54167 km/h
760 01-10-2021 20:00:00 12.51667 C 9.35 g/m*3 12.52 C 2.93333 km/h
761 01-10-2021 21:00:00 12.34167 C 9.4 g/m*3 12.34 C 1.86667 km/h
762 01-10-2021 22:00:00 12.26667 C 9.46 g/m*3 12.27 C 0.26667 km/h
763 01-10-2021 23:00:00 12.375 C 9.83 g/m*3 12.38 C 1.46667 km/h
764 02-10-2021 00:00:00 12.20833 C 9.82 g/m*3 12.21 C 1.875 km/h
765 02-10-2021 01:00:00 13.4 C 9.91 g/m*3 13.4 C 6.30833 km/h
766 02-10-2021 02:00:00 13.575 C 9.99 g/m*3 13.58 C 2.53333 km/h
767 02-10-2021 03:00:00 13.225 C 10.17 g/m*3 13.23 C 2.80833 km/h
768 02-10-2021 04:00:00 12.80833 C 10.28 g/m*3 12.81 C 2.675 km/h
769 02-10-2021 05:00:00 12.8 C 10.39 g/m*3 12.8 C 0.66667 km/h
770 02-10-2021 06:00:00 12.86667 C 10.46 g/m*3 12.87 C 0.53333 km/h
771 02-10-2021 07:00:00 12.8 C 10.48 g/m*3 12.8 C 0.53333 km/h
772 02-10-2021 08:00:00 12.83333 C 10.58 g/m*3 12.83 C 0.26667 km/h
773 02-10-2021 09:00:00 13.35833 C 10.92 g/m*3 13.36 C 0.4 km/h
774 02-10-2021 10:00:00 14.41667 C 11.32 g/m*3 14.42 C 0.26667 km/h
775 02-10-2021 11:00:00 15.33333 C 11.52 g/m*3 15.33 C 1.6 km/h
Sensor: Nr:Datum:Temp:Abs-Feuchte:Windchill:Wind:
Aussen-T/F 776 02-10-2021 12:00:00 16.05 C 11.64 g/m*3 16.05 C 3.34167 km/h
777 02-10-2021 13:00:00 16.79167 C 11.79 g/m*3 16.79 C 7.11667 km/h
778 02-10-2021 14:00:00 17.46667 C 11.79 g/m*3 17.47 C 6.45 km/h
779 02-10-2021 15:00:00 18.48333 C 12.32 g/m*3 18.48 C 2.8 km/h
780 02-10-2021 16:00:00 18.16667 C 12.56 g/m*3 18.17 C 3.75833 km/h
781 02-10-2021 17:00:00 17.83333 C 12.71 g/m*3 17.83 C 2.26667 km/h
782 02-10-2021 18:00:00 16.51667 C 12.1 g/m*3 16.52 C 2.8 km/h
783 02-10-2021 19:00:00 15.18333 C 11.54 g/m*3 15.18 C 1.46667 km/h
784 02-10-2021 20:00:00 14.85 C 11.29 g/m*3 14.85 C 1.73333 km/h
785 02-10-2021 21:00:00 15.45 C 11.42 g/m*3 15.45 C 3.6 km/h
786 02-10-2021 22:00:00 16.26667 C 11.87 g/m*3 16.27 C 4.95833 km/h
787 02-10-2021 23:00:00 17.66667 C 12.12 g/m*3 17.67 C 5.76667 km/h
788 03-10-2021 00:00:00 18.075 C 12.05 g/m*3 18.08 C 7.10833 km/h
789 03-10-2021 01:00:00 18.3 C 11.96 g/m*3 18.3 C 4.80833 km/h
790 03-10-2021 02:00:00 18.85 C 11.66 g/m*3 18.85 C 9.95 km/h
791 03-10-2021 03:00:00 18.98333 C 11.84 g/m*3 18.98 C 6.71667 km/h
792 03-10-2021 04:00:00 18.825 C 12.23 g/m*3 18.83 C 3.74167 km/h
793 03-10-2021 05:00:00 17.85 C 12.23 g/m*3 17.85 C 3.35 km/h
794 03-10-2021 06:00:00 18.50833 C 12.08 g/m*3 18.51 C 6.70833 km/h
795 03-10-2021 07:00:00 19.35833 C 12.03 g/m*3 19.36 C 6.15 km/h
796 03-10-2021 08:00:00 18.86667 C 11.99 g/m*3 18.87 C 4.55 km/h
797 03-10-2021 09:00:00 19.33333 C 11.8 g/m*3 19.33 C 6.44167 km/h
798 03-10-2021 10:00:00 20.125 C 12.07 g/m*3 20.13 C 7.78333 km/h
799 03-10-2021 11:00:00 19.48333 C 12.66 g/m*3 19.48 C 6.43333 km/h
800 03-10-2021 12:00:00 19.76667 C 12.36 g/m*3 19.77 C 7.65 km/h
Sensor: Nr:Datum:Temp:Abs-Feuchte:Windchill:Wind:
Aussen-T/F 801 03-10-2021 13:00:00 21.50833 C 12.23 g/m*3 21.51 C 7.93333 km/h
802 03-10-2021 14:00:00 22.86667 C 12.19 g/m*3 22.87 C 12.75833 km/h
803 03-10-2021 15:00:00 21.225 C 12.71 g/m*3 21.23 C 12.48333 km/h
804 03-10-2021 16:00:00 19.36667 C 13.21 g/m*3 19.37 C 9.11667 km/h
805 03-10-2021 17:00:00 19.15833 C 12.68 g/m*3 19.16 C 10.225 km/h
806 03-10-2021 18:00:00 18.63333 C 12.56 g/m*3 18.63 C 8.05833 km/h
807 03-10-2021 19:00:00 17.81667 C 12.42 g/m*3 17.82 C 4.28333 km/h
808 03-10-2021 20:00:00 16.13333 C 11.8 g/m*3 16.13 C 8.725 km/h
809 03-10-2021 21:00:00 14.13333 C 10.73 g/m*3 14.13 C 2.8 km/h
810 03-10-2021 22:00:00 13.51667 C 10.3 g/m*3 13.52 C 5.1 km/h
811 03-10-2021 23:00:00 13.50833 C 9.91 g/m*3 13.51 C 6.425 km/h
812 04-10-2021 00:00:00 13.30833 C 9.93 g/m*3 13.31 C 5.625 km/h
813 04-10-2021 01:00:00 13.125 C 9.9 g/m*3 13.13 C 3.475 km/h
814 04-10-2021 02:00:00 12.9 C 9.79 g/m*3 12.9 C 6.56667 km/h
815 04-10-2021 03:00:00 12.825 C 9.72 g/m*3 12.83 C 1.33333 km/h
816 04-10-2021 04:00:00 12.325 C 9.71 g/m*3 12.33 C 0.26667 km/h
817 04-10-2021 05:00:00 12.125 C 9.78 g/m*3 12.13 C 0 km/h
818 04-10-2021 06:00:00 11.8 C 9.68 g/m*3 11.8 C 0.8 km/h
819 04-10-2021 07:00:00 11.79167 C 9.77 g/m*3 11.79 C 1.6 km/h
820 04-10-2021 08:00:00 12.05 C 9.9 g/m*3 12.05 C 0.26667 km/h
821 04-10-2021 09:00:00 12.6 C 10.29 g/m*3 12.6 C 0 km/h
822 04-10-2021 10:00:00 13.49167 C 10.4 g/m*3 13.49 C 0.53333 km/h
823 04-10-2021 11:00:00 14.83333 C 10.4 g/m*3 14.83 C 4.14167 km/h
824 04-10-2021 12:00:00 15.89167 C 10.41 g/m*3 15.89 C 5.90833 km/h
825 04-10-2021 13:00:00 16.675 C 10.28 g/m*3 16.68 C 8.05833 km/h
Sensor: Nr:Datum:Temp:Abs-Feuchte:Windchill:Wind:
Aussen-T/F 826 04-10-2021 14:00:00 17.03333 C 10.08 g/m*3 17.03 C 5.78333 km/h
827 04-10-2021 15:00:00 17.525 C 10.27 g/m*3 17.52 C 4.7 km/h
828 04-10-2021 16:00:00 17.13333 C 10.6 g/m*3 17.13 C 2.00833 km/h
829 04-10-2021 17:00:00 16.85 C 11.08 g/m*3 16.85 C 0 km/h
830 04-10-2021 18:00:00 17.4 C 10.94 g/m*3 17.4 C 0.26667 km/h
831 04-10-2021 19:00:00 13.04167 C 9.41 g/m*3 13.04 C 5.6 km/h
832 04-10-2021 20:00:00 11.25833 C 9 g/m*3 11.26 C 2 km/h
833 04-10-2021 21:00:00 10.43333 C 8.75 g/m*3 10.43 C 0.4 km/h
834 04-10-2021 22:00:00 10.36667 C 8.85 g/m*3 10.37 C 0 km/h
835 04-10-2021 23:00:00 10 C 8.68 g/m*3 10 C 0.13333 km/h
836 05-10-2021 00:00:00 9.65833 C 8.55 g/m*3 9.66 C 0 km/h
837 05-10-2021 01:00:00 9.40833 C 8.49 g/m*3 9.41 C 0 km/h
838 05-10-2021 02:00:00 9.58333 C 8.65 g/m*3 9.58 C 0 km/h
839 05-10-2021 03:00:00 9.34167 C 8.52 g/m*3 9.34 C 0 km/h
840 05-10-2021 04:00:00 9.475 C 8.63 g/m*3 9.48 C 0.26667 km/h
841 05-10-2021 05:00:00 9.375 C 8.58 g/m*3 9.38 C 0.26667 km/h
842 05-10-2021 06:00:00 9.28333 C 8.53 g/m*3 9.28 C 0 km/h
843 05-10-2021 07:00:00 9.325 C 8.6 g/m*3 9.32 C 0 km/h
844 05-10-2021 08:00:00 9.59167 C 8.79 g/m*3 9.59 C 0 km/h
845 05-10-2021 09:00:00 10.51667 C 9.32 g/m*3 10.52 C 0.4 km/h
846 05-10-2021 10:00:00 11.51667 C 9.9 g/m*3 11.52 C 0.13333 km/h
847 05-10-2021 11:00:00 12.875 C 10.36 g/m*3 12.88 C 3.34167 km/h
848 05-10-2021 12:00:00 14.53333 C 10.28 g/m*3 14.53 C 4.40833 km/h
849 05-10-2021 13:00:00 15.95833 C 9.85 g/m*3 15.96 C 8.05833 km/h
850 05-10-2021 14:00:00 17.5 C 10.08 g/m*3 17.5 C 11.29167 km/h
Sensor: Nr:Datum:Temp:Abs-Feuchte:Windchill:Wind:
Aussen-T/F 851 05-10-2021 15:00:00 17.73333 C 10.48 g/m*3 17.73 C 5.09167 km/h
852 05-10-2021 16:00:00 17.575 C 10.61 g/m*3 17.58 C 2.68333 km/h
853 05-10-2021 17:00:00 15.775 C 11.28 g/m*3 15.78 C 1.73333 km/h
854 05-10-2021 18:00:00 14.3 C 11.23 g/m*3 14.3 C 0.93333 km/h
855 05-10-2021 19:00:00 13.65 C 10.97 g/m*3 13.65 C 5.49167 km/h
856 05-10-2021 20:00:00 12.8 C 10.3 g/m*3 12.8 C 6.15833 km/h
857 05-10-2021 21:00:00 11.70833 C 9.69 g/m*3 11.71 C 5.35833 km/h
858 05-10-2021 22:00:00 11.075 C 9.35 g/m*3 11.08 C 5.21667 km/h
859 05-10-2021 23:00:00 10.975 C 9.32 g/m*3 10.98 C 4.81667 km/h
860 06-10-2021 00:00:00 11.025 C 9.27 g/m*3 11.03 C 8.45833 km/h
861 06-10-2021 01:00:00 11.09167 C 9.17 g/m*3 11.09 C 7.39167 km/h
862 06-10-2021 02:00:00 10.775 C 8.98 g/m*3 10.42 C 5.75833 km/h
863 06-10-2021 03:00:00 11.3 C 9.04 g/m*3 11.3 C 10.5 km/h
864 06-10-2021 04:00:00 11.09167 C 8.84 g/m*3 11.09 C 9 km/h
865 06-10-2021 05:00:00 10.85 C 8.77 g/m*3 9.7 C 9.675 km/h
866 06-10-2021 06:00:00 10.45 C 8.66 g/m*3 10.45 C 4.54167 km/h
867 06-10-2021 07:00:00 10.09167 C 8.58 g/m*3 9.83 C 5.08333 km/h
868 06-10-2021 08:00:00 10.825 C 8.79 g/m*3 10.08 C 7.50833 km/h
869 06-10-2021 09:00:00 11.70833 C 8.84 g/m*3 11.71 C 14.5 km/h
870 06-10-2021 10:00:00 12.53333 C 8.91 g/m*3 12.53 C 16.1 km/h
871 06-10-2021 11:00:00 12.10833 C 9.01 g/m*3 12.11 C 9.275 km/h
872 06-10-2021 12:00:00 12.375 C 9.14 g/m*3 12.38 C 13.03333 km/h
873 06-10-2021 13:00:00 13.23333 C 9.05 g/m*3 13.23 C 16.36667 km/h
874 06-10-2021 14:00:00 13.91667 C 9.33 g/m*3 13.92 C 14.63333 km/h
875 06-10-2021 15:00:00 13.93333 C 9.22 g/m*3 13.93 C 15.7 km/h
Sensor: Nr:Datum:Temp:Abs-Feuchte:Windchill:Wind:
Aussen-T/F 876 06-10-2021 16:00:00 13.49167 C 9.25 g/m*3 13.49 C 12.63333 km/h
877 06-10-2021 17:00:00 13.95833 C 9.49 g/m*3 13.96 C 13.15833 km/h
878 06-10-2021 18:00:00 13.00833 C 9.39 g/m*3 13.01 C 6.71667 km/h
879 06-10-2021 19:00:00 12.51667 C 9.41 g/m*3 12.52 C 5.88333 km/h
880 06-10-2021 20:00:00 11.8 C 9.46 g/m*3 11.8 C 5.35833 km/h
881 06-10-2021 21:00:00 11.35 C 9.46 g/m*3 11.35 C 4.41667 km/h
882 06-10-2021 22:00:00 11.16667 C 9.47 g/m*3 11.17 C 6.3 km/h
883 06-10-2021 23:00:00 11.09167 C 9.46 g/m*3 11.09 C 5.225 km/h
884 07-10-2021 00:00:00 11.05 C 9.52 g/m*3 11.05 C 5.5 km/h
885 07-10-2021 01:00:00 10.98333 C 9.5 g/m*3 10.98 C 4.40833 km/h
886 07-10-2021 02:00:00 11.01667 C 9.52 g/m*3 11.02 C 1.6 km/h
887 07-10-2021 03:00:00 10.98333 C 9.5 g/m*3 10.98 C 0.13333 km/h
888 07-10-2021 04:00:00 10.9 C 9.54 g/m*3 10.9 C 0.66667 km/h
889 07-10-2021 05:00:00 11.03333 C 9.63 g/m*3 11.03 C 0.13333 km/h
890 07-10-2021 06:00:00 11.1 C 9.67 g/m*3 11.1 C 0 km/h
891 07-10-2021 07:00:00 11.05833 C 9.64 g/m*3 11.06 C 0 km/h
892 07-10-2021 08:00:00 11.19167 C 9.73 g/m*3 11.19 C 0 km/h
893 07-10-2021 09:00:00 11.65 C 10.01 g/m*3 11.65 C 1.73333 km/h
894 07-10-2021 10:00:00 12.03333 C 10.18 g/m*3 12.03 C 0.93333 km/h
895 07-10-2021 11:00:00 12.79167 C 10.69 g/m*3 12.79 C 1.06667 km/h
896 07-10-2021 12:00:00 13.61667 C 10.68 g/m*3 13.62 C 2.13333 km/h
897 07-10-2021 13:00:00 14.575 C 10.56 g/m*3 14.58 C 2.675 km/h
898 07-10-2021 14:00:00 15.33333 C 10.52 g/m*3 15.33 C 5.08333 km/h
899 07-10-2021 15:00:00 16.125 C 10.39 g/m*3 16.13 C 7.24167 km/h
900 07-10-2021 16:00:00 16.325 C 10.25 g/m*3 16.33 C 9.15 km/h
Sensor: Nr:Datum:Temp:Abs-Feuchte:Windchill:Wind:
Aussen-T/F 901 07-10-2021 17:00:00 16.525 C 10.51 g/m*3 16.52 C 3.475 km/h
902 07-10-2021 18:00:00 15.71667 C 10.64 g/m*3 15.72 C 3.06667 km/h
903 07-10-2021 19:00:00 12.45833 C 9.51 g/m*3 12.46 C 3.46667 km/h
904 07-10-2021 20:00:00 10.85833 C 8.97 g/m*3 10.86 C 1.46667 km/h
905 07-10-2021 21:00:00 9.58333 C 8.43 g/m*3 9.58 C 0.13333 km/h
906 07-10-2021 22:00:00 8.81667 C 8.12 g/m*3 8.82 C 0 km/h
907 07-10-2021 23:00:00 8.23333 C 7.89 g/m*3 8.23 C 0 km/h
908 08-10-2021 00:00:00 7.75 C 7.69 g/m*3 7.75 C 0 km/h
909 08-10-2021 01:00:00 7.275 C 7.49 g/m*3 7.28 C 0 km/h
910 08-10-2021 02:00:00 7.39167 C 7.58 g/m*3 7.39 C 0 km/h
911 08-10-2021 03:00:00 8.025 C 7.95 g/m*3 8.03 C 0 km/h
912 08-10-2021 04:00:00 8.15833 C 8.02 g/m*3 8.16 C 0.13333 km/h
913 08-10-2021 05:00:00 8.125 C 8 g/m*3 8.13 C 0.13333 km/h
914 08-10-2021 06:00:00 7.99167 C 7.99 g/m*3 7.99 C 0.13333 km/h
915 08-10-2021 07:00:00 7.925 C 7.93 g/m*3 7.93 C 0.26667 km/h
916 08-10-2021 08:00:00 8.05833 C 8.05 g/m*3 8.06 C 0.26667 km/h
917 08-10-2021 09:00:00 8.475 C 8.27 g/m*3 8.48 C 1.46667 km/h
918 08-10-2021 10:00:00 8.86667 C 8.48 g/m*3 8.87 C 2.8 km/h
919 08-10-2021 11:00:00 9.225 C 8.68 g/m*3 9.23 C 3.33333 km/h
920 08-10-2021 12:00:00 10.18333 C 9.23 g/m*3 10.18 C 1.46667 km/h
921 08-10-2021 13:00:00 11.825 C 10.26 g/m*3 11.83 C 0.26667 km/h
922 08-10-2021 14:00:00 13.41667 C 11.28 g/m*3 13.42 C 0.13333 km/h
923 08-10-2021 15:00:00 15.525 C 11.3 g/m*3 15.53 C 6.85 km/h
924 08-10-2021 16:00:00 17.325 C 10.86 g/m*3 17.33 C 8.05833 km/h
925 08-10-2021 17:00:00 17.06667 C 11.08 g/m*3 17.07 C 3.33333 km/h
Sensor: Nr:Datum:Temp:Abs-Feuchte:Windchill:Wind:
Aussen-T/F 926 08-10-2021 18:00:00 16.18333 C 10.88 g/m*3 16.18 C 1.73333 km/h
927 08-10-2021 19:00:00 12.90833 C 9.85 g/m*3 12.91 C 1.33333 km/h
928 08-10-2021 20:00:00 11.71667 C 9.49 g/m*3 11.72 C 0.26667 km/h
929 08-10-2021 21:00:00 10.61667 C 8.96 g/m*3 10.62 C 0.13333 km/h
930 08-10-2021 22:00:00 9.78333 C 8.64 g/m*3 9.78 C 0.13333 km/h
931 08-10-2021 23:00:00 9.40833 C 8.54 g/m*3 9.41 C 0.53333 km/h
932 09-10-2021 00:00:00 9.14167 C 8.45 g/m*3 9.14 C 2 km/h
933 09-10-2021 01:00:00 8.78333 C 8.26 g/m*3 8.78 C 0.93333 km/h
934 09-10-2021 02:00:00 8.24167 C 7.98 g/m*3 8.24 C 1.06667 km/h
935 09-10-2021 03:00:00 7.55 C 7.63 g/m*3 7.55 C 0.13333 km/h
936 09-10-2021 04:00:00 7.025 C 7.4 g/m*3 7.03 C 0.4 km/h
937 09-10-2021 05:00:00 6.8 C 7.31 g/m*3 6.8 C 1.33333 km/h
938 09-10-2021 06:00:00 6.84167 C 7.36 g/m*3 6.84 C 0.8 km/h
939 09-10-2021 07:00:00 5.875 C 6.87 g/m*3 5.88 C 0 km/h
940 09-10-2021 08:00:00 6.05 C 6.99 g/m*3 6.05 C 0 km/h
941 09-10-2021 09:00:00 6.65 C 7.3 g/m*3 6.65 C 0 km/h
942 09-10-2021 10:00:00 7.28333 C 7.66 g/m*3 7.28 C 0.26667 km/h
943 09-10-2021 11:00:00 8.63333 C 8.35 g/m*3 8.63 C 0.8 km/h
944 09-10-2021 12:00:00 10 C 9.11 g/m*3 10 C 2.26667 km/h
945 09-10-2021 13:00:00 11.84167 C 10.22 g/m*3 11.84 C 2 km/h
946 09-10-2021 14:00:00 13.51667 C 10.63 g/m*3 13.52 C 1.6 km/h
947 09-10-2021 15:00:00 14.85833 C 10.59 g/m*3 14.86 C 2.8 km/h
948 09-10-2021 16:00:00 14.11667 C 10.27 g/m*3 14.12 C 2.66667 km/h
949 09-10-2021 17:00:00 14.89167 C 10.38 g/m*3 14.89 C 3.875 km/h
950 09-10-2021 18:00:00 14.46667 C 9.87 g/m*3 14.47 C 3.2 km/h
Sensor: Nr:Datum:Temp:Abs-Feuchte:Windchill:Wind:
Aussen-T/F 951 09-10-2021 19:00:00 11.56667 C 8.83 g/m*3 11.57 C 4.00833 km/h
952 09-10-2021 20:00:00 10.28333 C 8.4 g/m*3 10.28 C 2.13333 km/h
953 09-10-2021 21:00:00 9.41667 C 8.15 g/m*3 9.42 C 1.06667 km/h
954 09-10-2021 22:00:00 8.53333 C 7.75 g/m*3 8.53 C 0.26667 km/h
955 09-10-2021 23:00:00 7.325 C 7.28 g/m*3 7.33 C 0.26667 km/h
956 10-10-2021 00:00:00 6.59167 C 7.04 g/m*3 6.59 C 0 km/h
957 10-10-2021 01:00:00 6.20833 C 6.92 g/m*3 6.21 C 1.46667 km/h
958 10-10-2021 02:00:00 5.46667 C 6.59 g/m*3 5.47 C 0 km/h
959 10-10-2021 03:00:00 4.63333 C 6.25 g/m*3 4.63 C 0 km/h
960 10-10-2021 04:00:00 4.81667 C 6.38 g/m*3 4.82 C 0 km/h
961 10-10-2021 05:00:00 4.90833 C 6.45 g/m*3 4.91 C 0.4 km/h
962 10-10-2021 06:00:00 4.75833 C 6.4 g/m*3 4.76 C 0 km/h
963 10-10-2021 07:00:00 4.40833 C 6.26 g/m*3 4.41 C 0.26667 km/h
964 10-10-2021 08:00:00 4.25833 C 6.21 g/m*3 4.26 C 0.4 km/h
965 10-10-2021 09:00:00 4.525 C 6.33 g/m*3 4.53 C 1.2 km/h
966 10-10-2021 10:00:00 5.13333 C 6.62 g/m*3 5.13 C 1.06667 km/h
967 10-10-2021 11:00:00 6.00833 C 7.04 g/m*3 6.01 C 1.6 km/h
968 10-10-2021 12:00:00 7.20833 C 7.62 g/m*3 7.21 C 0.8 km/h
969 10-10-2021 13:00:00 9.46667 C 8.78 g/m*3 9.47 C 1.2 km/h
970 10-10-2021 14:00:00 11.66667 C 9.69 g/m*3 11.67 C 0.26667 km/h
971 10-10-2021 15:00:00 13.06667 C 9.68 g/m*3 13.07 C 1.2 km/h
972 10-10-2021 16:00:00 12.41667 C 9.31 g/m*3 12.42 C 1.6 km/h
973 10-10-2021 17:00:00 12.51667 C 9.42 g/m*3 12.52 C 3.6 km/h
974 10-10-2021 18:00:00 12.40833 C 8.95 g/m*3 12.41 C 5.60833 km/h
975 10-10-2021 19:00:00 9.49167 C 7.88 g/m*3 9.49 C 4.40833 km/h
Sensor: Nr:Datum:Temp:Abs-Feuchte:Windchill:Wind:
Aussen-T/F 976 10-10-2021 20:00:00 7.65833 C 7.29 g/m*3 7.66 C 0 km/h
977 10-10-2021 21:00:00 6.50833 C 6.93 g/m*3 6.51 C 0.13333 km/h
978 10-10-2021 22:00:00 6.00833 C 6.81 g/m*3 6.01 C 0 km/h
979 10-10-2021 23:00:00 5.50833 C 6.61 g/m*3 5.51 C 0.4 km/h
980 11-10-2021 00:00:00 5.075 C 6.49 g/m*3 5.08 C 0.4 km/h
981 11-10-2021 01:00:00 4.725 C 6.34 g/m*3 4.72 C 0.13333 km/h
982 11-10-2021 02:00:00 4.53333 C 6.27 g/m*3 4.53 C 1.06667 km/h
983 11-10-2021 03:00:00 4.2 C 6.14 g/m*3 4.2 C 0.13333 km/h
984 11-10-2021 04:00:00 4.78333 C 6.43 g/m*3 4.78 C 0 km/h
985 11-10-2021 05:00:00 4.925 C 6.49 g/m*3 4.93 C 0 km/h
986 11-10-2021 06:00:00 4.93333 C 6.49 g/m*3 4.93 C 0 km/h
987 11-10-2021 07:00:00 5.75833 C 6.86 g/m*3 5.76 C 1.46667 km/h
988 11-10-2021 08:00:00 6.38333 C 7.15 g/m*3 6.38 C 1.86667 km/h
989 11-10-2021 09:00:00 7.03333 C 7.47 g/m*3 7.03 C 1.73333 km/h
990 11-10-2021 10:00:00 7.78333 C 7.87 g/m*3 7.78 C 1.46667 km/h
991 11-10-2021 11:00:00 9.075 C 8.57 g/m*3 9.07 C 0.4 km/h
992 11-10-2021 12:00:00 11.06667 C 9.61 g/m*3 11.07 C 2.675 km/h
993 11-10-2021 13:00:00 13.075 C 9.9 g/m*3 13.08 C 6.85833 km/h
994 11-10-2021 14:00:00 13.55 C 9.7 g/m*3 13.55 C 6.975 km/h
995 11-10-2021 15:00:00 13.81667 C 9.4 g/m*3 13.82 C 8.31667 km/h
996 11-10-2021 16:00:00 14.075 C 9.28 g/m*3 14.08 C 8.05 km/h
997 11-10-2021 17:00:00 14.05833 C 9.26 g/m*3 14.06 C 5.225 km/h
998 11-10-2021 18:00:00 13.13333 C 9.28 g/m*3 13.13 C 2.66667 km/h
999 11-10-2021 19:00:00 10.725 C 8.61 g/m*3 10.73 C 4.53333 km/h
1000 11-10-2021 20:00:00 10.15 C 8.63 g/m*3 10.15 C 1.33333 km/h
Sensor: Nr:Datum:Temp:Abs-Feuchte:Windchill:Wind:
Aussen-T/F 1001 11-10-2021 21:00:00 9.74167 C 8.45 g/m*3 9.74 C 0 km/h
1002 11-10-2021 22:00:00 9.84167 C 8.64 g/m*3 9.84 C 0.26667 km/h
1003 11-10-2021 23:00:00 9.83333 C 8.74 g/m*3 9.83 C 0.93333 km/h
1004 12-10-2021 00:00:00 9.775 C 8.75 g/m*3 9.78 C 0.26667 km/h
1005 12-10-2021 01:00:00 9.63333 C 8.72 g/m*3 9.63 C 0.66667 km/h
1006 12-10-2021 02:00:00 9.45 C 8.62 g/m*3 9.45 C 0 km/h
1007 12-10-2021 03:00:00 9.4 C 8.63 g/m*3 9.4 C 0.66667 km/h
1008 12-10-2021 04:00:00 9.5 C 8.74 g/m*3 9.5 C 0.26667 km/h
1009 12-10-2021 05:00:00 9.58333 C 8.78 g/m*3 9.58 C 0.66667 km/h
1010 12-10-2021 06:00:00 9.58333 C 8.78 g/m*3 9.58 C 1.33333 km/h
1011 12-10-2021 07:00:00 9.38333 C 8.67 g/m*3 9.38 C 0.26667 km/h
1012 12-10-2021 08:00:00 9.39167 C 8.68 g/m*3 9.39 C 3.33333 km/h
1013 12-10-2021 09:00:00 9.70833 C 8.87 g/m*3 9.71 C 3.06667 km/h
1014 12-10-2021 10:00:00 10.49167 C 9.33 g/m*3 10.49 C 3.86667 km/h
1015 12-10-2021 11:00:00 10.825 C 9.48 g/m*3 10.83 C 3.60833 km/h
1016 12-10-2021 12:00:00 11.54167 C 9.78 g/m*3 11.54 C 6.85833 km/h
1017 12-10-2021 13:00:00 11.70833 C 9.89 g/m*3 11.71 C 3.74167 km/h
1018 12-10-2021 14:00:00 11.73333 C 9.96 g/m*3 11.73 C 2.26667 km/h
1019 12-10-2021 15:00:00 11.55833 C 9.87 g/m*3 11.56 C 1.6 km/h
1020 12-10-2021 16:00:00 11.99167 C 10.23 g/m*3 11.99 C 2 km/h
1021 12-10-2021 17:00:00 11.65833 C 10.01 g/m*3 11.66 C 4.53333 km/h
1022 12-10-2021 18:00:00 11.21667 C 9.7 g/m*3 11.22 C 2.95 km/h
1023 12-10-2021 19:00:00 10.20833 C 9.06 g/m*3 10.21 C 0.8 km/h
1024 12-10-2021 20:00:00 9.21667 C 8.53 g/m*3 9.22 C 2.8 km/h
1025 12-10-2021 21:00:00 8.05 C 7.92 g/m*3 8.05 C 0.4 km/h
Sensor: Nr:Datum:Temp:Abs-Feuchte:Windchill:Wind:
Aussen-T/F 1026 12-10-2021 22:00:00 7.86667 C 7.87 g/m*3 7.87 C 0 km/h
1027 12-10-2021 23:00:00 7.55 C 7.71 g/m*3 7.55 C 2.13333 km/h
1028 13-10-2021 00:00:00 6.93333 C 7.41 g/m*3 6.93 C 0.4 km/h
1029 13-10-2021 01:00:00 6.41667 C 7.16 g/m*3 6.42 C 0.4 km/h
1030 13-10-2021 02:00:00 5.81667 C 6.88 g/m*3 5.82 C 0.4 km/h
1031 13-10-2021 03:00:00 5.56667 C 6.79 g/m*3 5.57 C 0 km/h
1032 13-10-2021 04:00:00 5.66667 C 6.85 g/m*3 5.67 C 0 km/h
1033 13-10-2021 05:00:00 6.125 C 7.1 g/m*3 6.13 C 2.675 km/h
1034 13-10-2021 06:00:00 6.29167 C 7.18 g/m*3 6.29 C 2.4 km/h
1035 13-10-2021 07:00:00 6.36667 C 7.21 g/m*3 6.37 C 1.46667 km/h
1036 13-10-2021 08:00:00 6.61667 C 7.33 g/m*3 6.62 C 2 km/h
1037 13-10-2021 09:00:00 7.08333 C 7.56 g/m*3 7.08 C 2.13333 km/h
1038 13-10-2021 10:00:00 7.79167 C 7.91 g/m*3 7.79 C 3.2 km/h
1039 13-10-2021 11:00:00 8.73333 C 8.41 g/m*3 8.73 C 2.4 km/h
1040 13-10-2021 12:00:00 9.6 C 8.82 g/m*3 9.6 C 0.8 km/h
1041 13-10-2021 13:00:00 10.425 C 9.07 g/m*3 10.43 C 2.4 km/h
1042 13-10-2021 14:00:00 11.40833 C 9.17 g/m*3 11.41 C 2.4 km/h
1043 13-10-2021 15:00:00 11.98333 C 9.24 g/m*3 11.98 C 1.6 km/h
1044 13-10-2021 16:00:00 11.79167 C 9.05 g/m*3 11.79 C 6.70833 km/h
1045 13-10-2021 17:00:00 11.00833 C 9.14 g/m*3 11.01 C 2.93333 km/h
1046 13-10-2021 18:00:00 10.00833 C 8.65 g/m*3 9.63 C 5.46667 km/h
1047 13-10-2021 19:00:00 8.925 C 8.2 g/m*3 8.93 C 3.46667 km/h
1048 13-10-2021 20:00:00 8.825 C 8.26 g/m*3 8.82 C 1.06667 km/h
1049 13-10-2021 21:00:00 8.9 C 8.33 g/m*3 8.9 C 1.46667 km/h
1050 13-10-2021 22:00:00 8.74167 C 8.31 g/m*3 8.74 C 0.66667 km/h
Sensor: Nr:Datum:Temp:Abs-Feuchte:Windchill:Wind:
Aussen-T/F 1051 13-10-2021 23:00:00 8.79167 C 8.35 g/m*3 8.79 C 3.06667 km/h
1052 14-10-2021 00:00:00 8.81667 C 8.36 g/m*3 8.82 C 3.33333 km/h
1053 14-10-2021 01:00:00 8.90833 C 8.41 g/m*3 8.91 C 3.21667 km/h
1054 14-10-2021 02:00:00 8.91667 C 8.42 g/m*3 8.92 C 1.6 km/h
1055 14-10-2021 03:00:00 8.84167 C 8.38 g/m*3 8.84 C 2.66667 km/h
1056 14-10-2021 04:00:00 8.95 C 8.41 g/m*3 8.95 C 4.94167 km/h
1057 14-10-2021 05:00:00 9.125 C 8.44 g/m*3 8.74 C 5.08333 km/h
1058 14-10-2021 06:00:00 9.26667 C 8.46 g/m*3 8.02 C 8.6 km/h
1059 14-10-2021 07:00:00 9.31667 C 8.43 g/m*3 8.57 C 6.44167 km/h
1060 14-10-2021 08:00:00 9.4 C 8.5 g/m*3 9.4 C 4.40833 km/h
1061 14-10-2021 09:00:00 9.65833 C 8.62 g/m*3 9.66 C 4.13333 km/h
1062 14-10-2021 10:00:00 10.625 C 8.8 g/m*3 9.57 C 8.89167 km/h
1063 14-10-2021 11:00:00 11.29167 C 9.01 g/m*3 11.29 C 6.83333 km/h
1064 14-10-2021 12:00:00 11.875 C 9.24 g/m*3 11.88 C 7.10833 km/h
1065 14-10-2021 13:00:00 12.96667 C 9.62 g/m*3 12.97 C 9.825 km/h
1066 14-10-2021 14:00:00 14.09167 C 10.08 g/m*3 14.09 C 8.33333 km/h
1067 14-10-2021 15:00:00 13.80833 C 10.22 g/m*3 13.81 C 4.69167 km/h
1068 14-10-2021 16:00:00 13.55 C 10.33 g/m*3 13.55 C 1.73333 km/h
1069 14-10-2021 17:00:00 13.5 C 10.38 g/m*3 13.5 C 1.73333 km/h
1070 14-10-2021 18:00:00 12.94167 C 10.17 g/m*3 12.94 C 3.06667 km/h
1071 14-10-2021 19:00:00 12.14167 C 9.86 g/m*3 12.14 C 2.8 km/h
1072 14-10-2021 20:00:00 11.775 C 9.78 g/m*3 11.78 C 2.53333 km/h
1073 14-10-2021 21:00:00 11.34167 C 9.55 g/m*3 11.34 C 1.6 km/h
1074 14-10-2021 22:00:00 10.53333 C 9.05 g/m*3 10.53 C 2.66667 km/h
1075 14-10-2021 23:00:00 9.525 C 8.53 g/m*3 9.53 C 1.73333 km/h
Sensor: Nr:Datum:Temp:Abs-Feuchte:Windchill:Wind:
Aussen-T/F 1076 15-10-2021 00:00:00 9.11667 C 8.4 g/m*3 9.12 C 1.86667 km/h
1077 15-10-2021 01:00:00 8.89167 C 8.32 g/m*3 8.89 C 2.26667 km/h
1078 15-10-2021 02:00:00 8.20833 C 7.93 g/m*3 8.21 C 3.2 km/h
1079 15-10-2021 03:00:00 7.65 C 7.66 g/m*3 7.65 C 2 km/h
1080 15-10-2021 04:00:00 7.43333 C 7.57 g/m*3 6.43 C 6.30833 km/h
1081 15-10-2021 05:00:00 7.05833 C 7.39 g/m*3 7.06 C 2.80833 km/h
1082 15-10-2021 06:00:00 6.375 C 7.07 g/m*3 6.38 C 0.93333 km/h
1083 15-10-2021 07:00:00 6.01667 C 6.95 g/m*3 6.02 C 2.28333 km/h
1084 15-10-2021 08:00:00 7.45 C 7.67 g/m*3 5.3 C 11.56667 km/h
1085 15-10-2021 09:00:00 8.30833 C 7.95 g/m*3 6.13 C 12.9 km/h
1086 15-10-2021 10:00:00 9.25 C 8.22 g/m*3 7.16 C 13.7 km/h
1087 15-10-2021 11:00:00 10.79167 C 8.64 g/m*3 9.28 C 11.95 km/h
1088 15-10-2021 12:00:00 11.775 C 9.03 g/m*3 11.78 C 9.69167 km/h
1089 15-10-2021 13:00:00 12.54167 C 9.32 g/m*3 12.54 C 8.19167 km/h
1090 15-10-2021 14:00:00 12.68333 C 9.68 g/m*3 12.68 C 5.64167 km/h
1091 15-10-2021 15:00:00 12.40833 C 10.15 g/m*3 12.41 C 1.06667 km/h
1092 15-10-2021 16:00:00 12.23333 C 10.17 g/m*3 12.23 C 0.53333 km/h
1093 15-10-2021 17:00:00 12.14167 C 10.21 g/m*3 12.14 C 0.26667 km/h
1094 15-10-2021 18:00:00 11.525 C 9.76 g/m*3 11.53 C 3.73333 km/h
1095 15-10-2021 19:00:00 10.175 C 8.95 g/m*3 9.67 C 6.00833 km/h
1096 15-10-2021 20:00:00 8.96667 C 8.34 g/m*3 8.97 C 2.53333 km/h
1097 15-10-2021 21:00:00 7.65 C 7.64 g/m*3 7.65 C 0 km/h
1098 15-10-2021 22:00:00 6.875 C 7.31 g/m*3 6.88 C 0 km/h
1099 15-10-2021 23:00:00 7.125 C 7.5 g/m*3 7.13 C 0.13333 km/h
1100 16-10-2021 00:00:00 7.25 C 7.56 g/m*3 7.25 C 0.13333 km/h
Sensor: Nr:Datum:Temp:Abs-Feuchte:Windchill:Wind:
Aussen-T/F 1101 16-10-2021 01:00:00 7.05 C 7.46 g/m*3 7.05 C 0.4 km/h
1102 16-10-2021 02:00:00 6.83333 C 7.39 g/m*3 6.83 C 1.33333 km/h
1103 16-10-2021 03:00:00 6.76667 C 7.4 g/m*3 6.77 C 3.74167 km/h
1104 16-10-2021 04:00:00 6.63333 C 7.34 g/m*3 6.63 C 2.8 km/h
1105 16-10-2021 05:00:00 6.44167 C 7.25 g/m*3 6.44 C 0.53333 km/h
1106 16-10-2021 06:00:00 6.34167 C 7.2 g/m*3 6.34 C 1.33333 km/h
1107 16-10-2021 07:00:00 6.21667 C 7.14 g/m*3 6.22 C 0.53333 km/h
1108 16-10-2021 08:00:00 6.35833 C 7.21 g/m*3 6.36 C 1.46667 km/h
1109 16-10-2021 09:00:00 6.35833 C 7.21 g/m*3 6.36 C 0.13333 km/h
1110 16-10-2021 10:00:00 6.7 C 7.38 g/m*3 6.7 C 0.8 km/h
1111 16-10-2021 11:00:00 7.00833 C 7.56 g/m*3 7.01 C 1.2 km/h
1112 16-10-2021 12:00:00 7.30833 C 7.72 g/m*3 7.31 C 3.2 km/h
1113 16-10-2021 13:00:00 7.78333 C 7.96 g/m*3 7.78 C 3.06667 km/h
1114 16-10-2021 14:00:00 8.48333 C 8.34 g/m*3 8.48 C 2.93333 km/h
1115 16-10-2021 15:00:00 8.94167 C 8.52 g/m*3 8.94 C 0 km/h
1116 16-10-2021 16:00:00 9.45833 C 8.81 g/m*3 9.46 C 0.66667 km/h
1117 16-10-2021 17:00:00 10.48333 C 9.4 g/m*3 10.48 C 0 km/h
1118 16-10-2021 18:00:00 9.9 C 8.96 g/m*3 9.9 C 0.53333 km/h
1119 16-10-2021 19:00:00 9.35833 C 8.66 g/m*3 9.36 C 2 km/h
1120 16-10-2021 20:00:00 8.725 C 8.32 g/m*3 8.73 C 2.93333 km/h
1121 16-10-2021 21:00:00 8.26667 C 8.07 g/m*3 8.27 C 1.06667 km/h
1122 16-10-2021 22:00:00 8.25 C 8.07 g/m*3 8.25 C 0 km/h
1123 16-10-2021 23:00:00 8.39167 C 8.22 g/m*3 8.39 C 0 km/h
1124 17-10-2021 00:00:00 8.50833 C 8.29 g/m*3 8.51 C 0 km/h
1125 17-10-2021 01:00:00 8.49167 C 8.28 g/m*3 8.49 C 0 km/h
Sensor: Nr:Datum:Temp:Abs-Feuchte:Windchill:Wind:
Aussen-T/F 1126 17-10-2021 02:00:00 8.40833 C 8.23 g/m*3 8.41 C 0 km/h
1127 17-10-2021 03:00:00 8.56667 C 8.32 g/m*3 8.57 C 0 km/h
1128 17-10-2021 04:00:00 8.49167 C 8.28 g/m*3 8.49 C 0 km/h
1129 17-10-2021 05:00:00 8.28333 C 8.17 g/m*3 8.28 C 0 km/h
1130 17-10-2021 06:00:00 8.11667 C 8.08 g/m*3 8.12 C 0 km/h
1131 17-10-2021 07:00:00 8.125 C 8.08 g/m*3 8.13 C 0 km/h
1132 17-10-2021 08:00:00 8.20833 C 8.13 g/m*3 8.21 C 0 km/h
1133 17-10-2021 09:00:00 8.49167 C 8.28 g/m*3 8.49 C 0 km/h
1134 17-10-2021 10:00:00 8.975 C 8.54 g/m*3 8.98 C 0.66667 km/h
1135 17-10-2021 11:00:00 9.70833 C 8.89 g/m*3 9.71 C 0.4 km/h
1136 17-10-2021 12:00:00 10.8 C 9.14 g/m*3 10.8 C 0.8 km/h
1137 17-10-2021 13:00:00 11.81667 C 9.1 g/m*3 11.82 C 1.6 km/h
1138 17-10-2021 14:00:00 12.90833 C 8.38 g/m*3 12.91 C 1.33333 km/h
1139 17-10-2021 15:00:00 13.6 C 9.13 g/m*3 13.6 C 0.13333 km/h
1140 17-10-2021 16:00:00 12.95833 C 9.33 g/m*3 12.96 C 1.46667 km/h
1141 17-10-2021 17:00:00 12.13333 C 9.04 g/m*3 12.13 C 4.69167 km/h
1142 17-10-2021 18:00:00 10.34167 C 8.11 g/m*3 9.82 C 6.15833 km/h
1143 17-10-2021 19:00:00 8.775 C 7.68 g/m*3 8.78 C 2.675 km/h
1144 17-10-2021 20:00:00 7.78333 C 7.45 g/m*3 7.78 C 0 km/h
1145 17-10-2021 21:00:00 7.2 C 7.28 g/m*3 7.2 C 0 km/h
1146 17-10-2021 22:00:00 6.875 C 7.21 g/m*3 6.88 C 0 km/h
1147 17-10-2021 23:00:00 6.51667 C 7.06 g/m*3 6.52 C 0.26667 km/h
1148 18-10-2021 00:00:00 5.73333 C 6.71 g/m*3 5.73 C 0 km/h
1149 18-10-2021 01:00:00 5.14167 C 6.49 g/m*3 5.14 C 0 km/h
1150 18-10-2021 02:00:00 4.75833 C 6.35 g/m*3 4.76 C 0 km/h
Sensor: Nr:Datum:Temp:Abs-Feuchte:Windchill:Wind:
Aussen-T/F 1151 18-10-2021 03:00:00 4.45 C 6.22 g/m*3 4.45 C 0 km/h
1152 18-10-2021 04:00:00 4.15833 C 6.13 g/m*3 4.16 C 0.13333 km/h
1153 18-10-2021 05:00:00 4.575 C 6.34 g/m*3 4.58 C 0 km/h
1154 18-10-2021 06:00:00 4.68333 C 6.39 g/m*3 4.68 C 0 km/h
1155 18-10-2021 07:00:00 4.59167 C 6.35 g/m*3 4.59 C 0 km/h
1156 18-10-2021 08:00:00 4.43333 C 6.28 g/m*3 4.43 C 0.13333 km/h
1157 18-10-2021 09:00:00 4.93333 C 6.56 g/m*3 4.93 C 0.26667 km/h
1158 18-10-2021 10:00:00 5.74167 C 6.92 g/m*3 5.74 C 0.26667 km/h
1159 18-10-2021 11:00:00 7.425 C 7.75 g/m*3 7.43 C 0.13333 km/h
1160 18-10-2021 12:00:00 9.18333 C 8.68 g/m*3 9.18 C 2.94167 km/h
1161 18-10-2021 13:00:00 10.6 C 9.08 g/m*3 9.99 C 6.70833 km/h
1162 18-10-2021 14:00:00 12.16667 C 9.37 g/m*3 12.17 C 5.64167 km/h
1163 18-10-2021 15:00:00 12.875 C 9.48 g/m*3 12.88 C 5.075 km/h
1164 18-10-2021 16:00:00 13.03333 C 9.47 g/m*3 13.03 C 4.40833 km/h
1165 18-10-2021 17:00:00 12.425 C 9.47 g/m*3 12.43 C 0.8 km/h
1166 18-10-2021 18:00:00 10.8 C 8.81 g/m*3 10.8 C 1.06667 km/h
1167 18-10-2021 19:00:00 9.175 C 8.2 g/m*3 9.18 C 2.93333 km/h
1168 18-10-2021 20:00:00 8.35 C 7.91 g/m*3 8.35 C 1.86667 km/h
1169 18-10-2021 21:00:00 7.83333 C 7.72 g/m*3 7.83 C 0.26667 km/h
1170 18-10-2021 22:00:00 7.71667 C 7.72 g/m*3 7.72 C 0.8 km/h
1171 18-10-2021 23:00:00 7.59167 C 7.68 g/m*3 7.59 C 0.53333 km/h
1172 19-10-2021 00:00:00 7.525 C 7.7 g/m*3 7.53 C 0 km/h
1173 19-10-2021 01:00:00 7.925 C 7.9 g/m*3 7.93 C 0 km/h
1174 19-10-2021 02:00:00 7.85 C 7.86 g/m*3 7.85 C 0 km/h
1175 19-10-2021 03:00:00 7.90833 C 7.89 g/m*3 7.91 C 0 km/h
Sensor: Nr:Datum:Temp:Abs-Feuchte:Windchill:Wind:
Aussen-T/F 1176 19-10-2021 04:00:00 8.14167 C 8.01 g/m*3 8.14 C 0 km/h
1177 19-10-2021 05:00:00 8.50833 C 8.27 g/m*3 8.51 C 0 km/h
1178 19-10-2021 06:00:00 8.8 C 8.44 g/m*3 8.8 C 0 km/h
1179 19-10-2021 07:00:00 9.1 C 8.61 g/m*3 9.1 C 0 km/h
1180 19-10-2021 08:00:00 9.59167 C 8.88 g/m*3 9.59 C 0.26667 km/h
1181 19-10-2021 09:00:00 10.19167 C 9.23 g/m*3 10.19 C 0 km/h
1182 19-10-2021 10:00:00 10.975 C 9.7 g/m*3 10.98 C 0 km/h
1183 19-10-2021 11:00:00 12.36667 C 10.68 g/m*3 12.37 C 3.35 km/h
1184 19-10-2021 12:00:00 13.625 C 11.55 g/m*3 13.63 C 3.475 km/h
1185 19-10-2021 13:00:00 14.36667 C 12.08 g/m*3 14.37 C 9.95833 km/h
1186 19-10-2021 14:00:00 15.35833 C 12.64 g/m*3 15.36 C 11.15 km/h
1187 19-10-2021 15:00:00 16.20833 C 13 g/m*3 16.21 C 10.20833 km/h
1188 19-10-2021 16:00:00 16.86667 C 13.27 g/m*3 16.87 C 5.75833 km/h
1189 19-10-2021 17:00:00 16.525 C 13.21 g/m*3 16.52 C 3.33333 km/h
1190 19-10-2021 18:00:00 15.91667 C 12.63 g/m*3 15.92 C 5.475 km/h
1191 19-10-2021 19:00:00 14.55 C 11.77 g/m*3 14.55 C 3.2 km/h
1192 19-10-2021 20:00:00 13.35 C 11 g/m*3 13.35 C 0 km/h
1193 19-10-2021 21:00:00 12.76667 C 10.69 g/m*3 12.77 C 0.66667 km/h
1194 19-10-2021 22:00:00 12.06667 C 10.27 g/m*3 12.07 C 0 km/h
1195 19-10-2021 23:00:00 11.73333 C 10.1 g/m*3 11.73 C 1.2 km/h
1196 20-10-2021 00:00:00 11.625 C 10.01 g/m*3 11.63 C 0.26667 km/h
1197 20-10-2021 01:00:00 10.45833 C 9.29 g/m*3 10.46 C 0 km/h
1198 20-10-2021 02:00:00 10.15 C 9.17 g/m*3 10.15 C 0.13333 km/h
1199 20-10-2021 03:00:00 9.825 C 8.99 g/m*3 9.82 C 0.13333 km/h
1200 20-10-2021 04:00:00 9.55833 C 8.86 g/m*3 9.56 C 0 km/h
Sensor: Nr:Datum:Temp:Abs-Feuchte:Windchill:Wind:
Aussen-T/F 1201 20-10-2021 05:00:00 9.775 C 8.99 g/m*3 9.78 C 0 km/h
1202 20-10-2021 06:00:00 10.04167 C 9.15 g/m*3 10.04 C 0 km/h
1203 20-10-2021 07:00:00 10.89167 C 9.68 g/m*3 10.89 C 0.66667 km/h
1204 20-10-2021 08:00:00 11.15 C 9.83 g/m*3 11.15 C 0.13333 km/h
1205 20-10-2021 09:00:00 11.9 C 10.36 g/m*3 11.9 C 0.8 km/h
1206 20-10-2021 10:00:00 12.71667 C 10.92 g/m*3 12.72 C 0.53333 km/h
1207 20-10-2021 11:00:00 14.01667 C 11.73 g/m*3 14.02 C 9.53333 km/h
1208 20-10-2021 12:00:00 16.66667 C 12.15 g/m*3 16.67 C 13.7 km/h
1209 20-10-2021 13:00:00 17.86667 C 12.5 g/m*3 17.87 C 12.9 km/h
1210 20-10-2021 14:00:00 17.76667 C 12.64 g/m*3 17.77 C 11.00833 km/h
1211 20-10-2021 15:00:00 16.99167 C 12.79 g/m*3 16.99 C 2.53333 km/h
1212 20-10-2021 16:00:00 15.86667 C 12.58 g/m*3 15.87 C 1.2 km/h
1213 20-10-2021 17:00:00 15.64167 C 12.64 g/m*3 15.64 C 4.81667 km/h
1214 20-10-2021 18:00:00 15.33333 C 12.43 g/m*3 15.33 C 6.55833 km/h
1215 20-10-2021 19:00:00 14.89167 C 12.17 g/m*3 14.89 C 3.06667 km/h
1216 20-10-2021 20:00:00 14.76667 C 12.14 g/m*3 14.77 C 3.46667 km/h
1217 20-10-2021 21:00:00 14.6 C 12.03 g/m*3 14.6 C 3.86667 km/h
1218 20-10-2021 22:00:00 14.66667 C 12.16 g/m*3 14.67 C 5.21667 km/h
1219 20-10-2021 23:00:00 14.8 C 12.16 g/m*3 14.8 C 2.4 km/h
1220 21-10-2021 00:00:00 14.89167 C 12.17 g/m*3 14.89 C 4.55833 km/h
1221 21-10-2021 01:00:00 15.375 C 12 g/m*3 15.38 C 8.33333 km/h
1222 21-10-2021 02:00:00 15.675 C 11.85 g/m*3 15.68 C 7.78333 km/h
1223 21-10-2021 03:00:00 14.8 C 11.28 g/m*3 14.8 C 21.325 km/h
1224 21-10-2021 04:00:00 13.80833 C 9.51 g/m*3 13.81 C 23.85 km/h
1225 21-10-2021 05:00:00 13.71667 C 9.09 g/m*3 13.72 C 23.05833 km/h
Sensor: Nr:Datum:Temp:Abs-Feuchte:Windchill:Wind:
Aussen-T/F 1226 21-10-2021 06:00:00 13.70833 C 8.94 g/m*3 13.71 C 31.10833 km/h
1227 21-10-2021 07:00:00 13.08333 C 8.9 g/m*3 13.08 C 32.71667 km/h
1228 21-10-2021 08:00:00 12.375 C 8.95 g/m*3 12.38 C 27.225 km/h
1229 21-10-2021 09:00:00 12.00833 C 8.5 g/m*3 12.01 C 25.6 km/h
1230 21-10-2021 10:00:00 11.35833 C 8.18 g/m*3 11.36 C 18.5 km/h
1231 21-10-2021 11:00:00 12.06667 C 8.31 g/m*3 12.07 C 24.13333 km/h
1232 21-10-2021 12:00:00 12.225 C 8.57 g/m*3 12.23 C 17.83333 km/h
1233 21-10-2021 13:00:00 13.3 C 8.74 g/m*3 13.3 C 21.175 km/h
1234 21-10-2021 14:00:00 12.93333 C 8.87 g/m*3 12.93 C 16.76667 km/h
1235 21-10-2021 15:00:00 13.325 C 8.92 g/m*3 13.33 C 13.825 km/h
1236 21-10-2021 16:00:00 12.975 C 8.72 g/m*3 12.98 C 16.1 km/h
1237 21-10-2021 17:00:00 10.53333 C 8.37 g/m*3 8.52 C 15.43333 km/h
1238 21-10-2021 18:00:00 8.53333 C 7.87 g/m*3 7.18 C 8.45833 km/h
1239 21-10-2021 19:00:00 8.29167 C 7.81 g/m*3 7.62 C 5.625 km/h
1240 21-10-2021 20:00:00 8.00833 C 7.76 g/m*3 8.01 C 4.80833 km/h
1241 21-10-2021 21:00:00 6.975 C 7.27 g/m*3 6.98 C 2.8 km/h
1242 21-10-2021 22:00:00 6.125 C 6.91 g/m*3 6.13 C 2.93333 km/h
1243 21-10-2021 23:00:00 5.4 C 6.61 g/m*3 5.4 C 0.8 km/h
1244 22-10-2021 00:00:00 4.825 C 6.38 g/m*3 4.83 C 1.33333 km/h
1245 22-10-2021 01:00:00 4.69167 C 6.34 g/m*3 4.69 C 1.46667 km/h
1246 22-10-2021 02:00:00 4.50833 C 6.29 g/m*3 4.51 C 2 km/h
1247 22-10-2021 03:00:00 5.13333 C 6.58 g/m*3 3.91 C 5.90833 km/h
1248 22-10-2021 04:00:00 4.81667 C 6.41 g/m*3 4.82 C 4.81667 km/h
1249 22-10-2021 05:00:00 4.80833 C 6.38 g/m*3 3.32 C 6.575 km/h
1250 22-10-2021 06:00:00 4.52222 C 6.25 g/m*3 4.52 C 2.84444 km/h
Sensor: Nr:Datum:Temp:Abs-Feuchte:Windchill:Wind:
Aussen-T/F 1251 22-10-2021 07:00:00 4.4 C 6.2 g/m*3 1.84 C 10.46667 km/h
1252 22-10-2021 08:00:00 4.55833 C 6.22 g/m*3 2.36 C 9.00833 km/h
1253 22-10-2021 09:00:00 5.04167 C 6.29 g/m*3 2.52 C 10.89167 km/h
1254 22-10-2021 10:00:00 5.81667 C 6.42 g/m*3 2.73 C 15.16667 km/h
1255 22-10-2021 11:00:00 6.84167 C 6.69 g/m*3 4.21 C 13.7 km/h
1256 22-10-2021 12:00:00 8.24167 C 7.04 g/m*3 5.59 C 16.23333 km/h
1257 22-10-2021 13:00:00 10 C 7.47 g/m*3 7.77 C 16.23333 km/h
1258 22-10-2021 14:00:00 10.93333 C 7.5 g/m*3 8.99 C 15.7 km/h
1259 22-10-2021 15:00:00 11.6 C 7.14 g/m*3 11.6 C 14.63333 km/h
1260 22-10-2021 16:00:00 11.38333 C 6.97 g/m*3 11.38 C 15.83333 km/h
1261 22-10-2021 17:00:00 11.20833 C 7.11 g/m*3 11.21 C 12.1 km/h
1262 22-10-2021 18:00:00 10.68333 C 7.31 g/m*3 9.17 C 11.825 km/h
1263 22-10-2021 19:00:00 9.75 C 7.44 g/m*3 8.29 C 10.225 km/h
1264 22-10-2021 20:00:00 9.86667 C 7.43 g/m*3 8.1 C 12.36667 km/h
1265 22-10-2021 21:00:00 9.9 C 7.51 g/m*3 8.3 C 11.28333 km/h
1266 22-10-2021 22:00:00 9.15833 C 7.83 g/m*3 9.16 C 3.20833 km/h
1267 22-10-2021 23:00:00 8.49167 C 7.94 g/m*3 8.49 C 2.93333 km/h
1268 23-10-2021 00:00:00 8.175 C 7.85 g/m*3 8.18 C 2.66667 km/h
1269 23-10-2021 01:00:00 8.025 C 7.85 g/m*3 8.03 C 1.33333 km/h
1270 23-10-2021 02:00:00 7.51667 C 7.61 g/m*3 7.52 C 1.73333 km/h
1271 23-10-2021 03:00:00 7.5 C 7.62 g/m*3 7.5 C 0.26667 km/h
1272 23-10-2021 04:00:00 7.25833 C 7.51 g/m*3 7.26 C 0 km/h
1273 23-10-2021 05:00:00 6.43333 C 7.09 g/m*3 6.43 C 0 km/h
1274 23-10-2021 06:00:00 5.675 C 6.78 g/m*3 5.68 C 0.13333 km/h
1275 23-10-2021 07:00:00 5.68333 C 6.81 g/m*3 5.68 C 0.26667 km/h
Sensor: Nr:Datum:Temp:Abs-Feuchte:Windchill:Wind:
Aussen-T/F 1276 23-10-2021 08:00:00 5.875 C 6.93 g/m*3 5.88 C 0.66667 km/h
1277 23-10-2021 09:00:00 7 C 7.52 g/m*3 7 C 0 km/h
1278 23-10-2021 10:00:00 7.78333 C 7.91 g/m*3 7.78 C 0.8 km/h
1279 23-10-2021 11:00:00 8.53333 C 8.29 g/m*3 8.53 C 0.13333 km/h
1280 23-10-2021 12:00:00 9.64167 C 8.78 g/m*3 9.64 C 0.93333 km/h
1281 23-10-2021 13:00:00 10.76667 C 8.79 g/m*3 10.77 C 2.13333 km/h
1282 23-10-2021 14:00:00 11.53333 C 8.6 g/m*3 11.53 C 4.4 km/h
1283 23-10-2021 15:00:00 12.175 C 8.42 g/m*3 12.18 C 3.46667 km/h
1284 23-10-2021 16:00:00 12.29167 C 8.86 g/m*3 12.29 C 0.8 km/h
1285 23-10-2021 17:00:00 11.85833 C 9.1 g/m*3 11.86 C 0 km/h
1286 23-10-2021 18:00:00 10.34167 C 8.47 g/m*3 10.34 C 0 km/h
1287 23-10-2021 19:00:00 8.55 C 7.74 g/m*3 8.55 C 0.13333 km/h
1288 23-10-2021 20:00:00 6.91667 C 7.06 g/m*3 6.92 C 0 km/h
1289 23-10-2021 21:00:00 5.75 C 6.63 g/m*3 5.75 C 0 km/h
1290 23-10-2021 22:00:00 5.18333 C 6.47 g/m*3 5.18 C 0 km/h
1291 23-10-2021 23:00:00 4.51667 C 6.19 g/m*3 4.52 C 0 km/h
1292 24-10-2021 00:00:00 3.85 C 5.97 g/m*3 3.85 C 0 km/h
1293 24-10-2021 01:00:00 3.35833 C 5.79 g/m*3 3.36 C 0 km/h
1294 24-10-2021 02:00:00 4.23333 C 6.2 g/m*3 4.23 C 0 km/h
1295 24-10-2021 03:00:00 4.48333 C 6.3 g/m*3 4.48 C 0.13333 km/h
1296 24-10-2021 04:00:00 4.16667 C 6.17 g/m*3 4.17 C 0.4 km/h
1297 24-10-2021 05:00:00 3.68333 C 5.98 g/m*3 3.68 C 0.8 km/h
1298 24-10-2021 06:00:00 3 C 5.71 g/m*3 3 C 0.53333 km/h
1299 24-10-2021 07:00:00 2.55833 C 5.54 g/m*3 2.56 C 0 km/h
1300 24-10-2021 08:00:00 2.05 C 5.35 g/m*3 2.05 C 0 km/h
Sensor: Nr:Datum:Temp:Abs-Feuchte:Windchill:Wind:
Aussen-T/F 1301 24-10-2021 09:00:00 1.59167 C 5.19 g/m*3 1.59 C 0 km/h
1302 24-10-2021 10:00:00 2.01667 C 5.37 g/m*3 2.02 C 0 km/h
1303 24-10-2021 11:00:00 3.4 C 5.92 g/m*3 3.4 C 0.13333 km/h
1304 24-10-2021 12:00:00 5.41667 C 6.79 g/m*3 5.42 C 0.8 km/h
1305 24-10-2021 13:00:00 7.625 C 7.91 g/m*3 7.63 C 2.66667 km/h
1306 24-10-2021 14:00:00 8.975 C 8.55 g/m*3 8.98 C 4.01667 km/h
1307 24-10-2021 15:00:00 10.59167 C 8.53 g/m*3 10.59 C 4.68333 km/h
1308 24-10-2021 16:00:00 12.46667 C 8.59 g/m*3 12.47 C 3.075 km/h
1309 24-10-2021 17:00:00 11.41667 C 8.48 g/m*3 11.42 C 1.33333 km/h
1310 24-10-2021 18:00:00 8.95 C 7.56 g/m*3 8.95 C 0.8 km/h
1311 24-10-2021 19:00:00 6.63333 C 6.93 g/m*3 6.63 C 2.93333 km/h
1312 24-10-2021 20:00:00 6.19167 C 6.9 g/m*3 6.19 C 1.86667 km/h
1313 24-10-2021 21:00:00 5.8 C 6.74 g/m*3 5.8 C 1.33333 km/h
1314 24-10-2021 22:00:00 4.725 C 6.27 g/m*3 4.72 C 0 km/h
1315 24-10-2021 23:00:00 3.85833 C 5.95 g/m*3 3.86 C 0.13333 km/h
1316 25-10-2021 00:00:00 3.25833 C 5.75 g/m*3 3.26 C 0.13333 km/h
1317 25-10-2021 01:00:00 2.975 C 5.66 g/m*3 2.98 C 0.26667 km/h
1318 25-10-2021 02:00:00 2.26667 C 5.38 g/m*3 2.27 C 0 km/h
1319 25-10-2021 03:00:00 1.875 C 5.28 g/m*3 1.88 C 0 km/h
1320 25-10-2021 04:00:00 2.00833 C 5.34 g/m*3 2.01 C 0 km/h
1321 25-10-2021 05:00:00 2.625 C 5.57 g/m*3 2.63 C 0.26667 km/h
1322 25-10-2021 06:00:00 2.60833 C 5.56 g/m*3 2.61 C 0 km/h
1323 25-10-2021 07:00:00 2.43333 C 5.49 g/m*3 2.43 C 0.66667 km/h
1324 25-10-2021 08:00:00 2.175 C 5.4 g/m*3 2.17 C 0.53333 km/h
1325 25-10-2021 09:00:00 2.175 C 5.43 g/m*3 2.17 C 0.8 km/h
Sensor: Nr:Datum:Temp:Abs-Feuchte:Windchill:Wind:
Aussen-T/F 1326 25-10-2021 10:00:00 2.8 C 5.69 g/m*3 2.8 C 0.4 km/h
1327 25-10-2021 11:00:00 3.91667 C 6.13 g/m*3 3.92 C 0.26667 km/h
1328 25-10-2021 12:00:00 5.33333 C 6.74 g/m*3 5.33 C 1.06667 km/h
1329 25-10-2021 13:00:00 6.59167 C 7.34 g/m*3 6.59 C 0.53333 km/h
1330 25-10-2021 14:00:00 8.275 C 8.23 g/m*3 8.28 C 0.53333 km/h
1331 25-10-2021 15:00:00 10.15833 C 9.3 g/m*3 10.16 C 0.13333 km/h
1332 25-10-2021 16:00:00 10.95833 C 9.63 g/m*3 10.96 C 0.13333 km/h
1333 25-10-2021 17:00:00 11.475 C 9.75 g/m*3 11.48 C 0.8 km/h
1334 25-10-2021 18:00:00 10.19167 C 8.94 g/m*3 10.19 C 2.93333 km/h
1335 25-10-2021 19:00:00 10.225 C 9.13 g/m*3 10.23 C 0.13333 km/h
1336 25-10-2021 20:00:00 10.34167 C 9.22 g/m*3 10.34 C 0.26667 km/h
1337 25-10-2021 21:00:00 10.60833 C 9.37 g/m*3 9.66 C 8.33333 km/h
1338 25-10-2021 22:00:00 10.60833 C 9.28 g/m*3 10.31 C 5.49167 km/h
1339 25-10-2021 23:00:00 10.29167 C 9.09 g/m*3 9.64 C 6.69167 km/h
1340 26-10-2021 00:00:00 10.71667 C 9.37 g/m*3 10.36 C 5.76667 km/h
1341 26-10-2021 01:00:00 10.75833 C 9.35 g/m*3 10.4 C 5.775 km/h
1342 26-10-2021 02:00:00 11.05 C 9.32 g/m*3 11.05 C 10.09167 km/h
1343 26-10-2021 03:00:00 11.15 C 9.25 g/m*3 11.15 C 9.4 km/h
1344 26-10-2021 04:00:00 11.275 C 9.17 g/m*3 11.28 C 7.8 km/h
1345 26-10-2021 05:00:00 11.16667 C 9.2 g/m*3 11.17 C 6.04167 km/h
1346 26-10-2021 06:00:00 10.93333 C 9.14 g/m*3 10.93 C 2.13333 km/h
1347 26-10-2021 07:00:00 10.91667 C 9.15 g/m*3 10.42 C 6.425 km/h
1348 26-10-2021 08:00:00 10.85 C 9.09 g/m*3 10.85 C 4.55833 km/h
1349 26-10-2021 09:00:00 11.08333 C 9.23 g/m*3 11.08 C 10.63333 km/h
1350 26-10-2021 10:00:00 11.28333 C 9.27 g/m*3 11.28 C 9.00833 km/h
Sensor: Nr:Datum:Temp:Abs-Feuchte:Windchill:Wind:
Aussen-T/F 1351 26-10-2021 11:00:00 12 C 9.49 g/m*3 12 C 12.49167 km/h
1352 26-10-2021 12:00:00 12.70833 C 9.49 g/m*3 12.71 C 12.76667 km/h
1353 26-10-2021 13:00:00 13.78333 C 9.59 g/m*3 13.78 C 14.63333 km/h
1354 26-10-2021 14:00:00 14.64167 C 9.55 g/m*3 14.64 C 15.3 km/h
1355 26-10-2021 15:00:00 15.11667 C 9.46 g/m*3 15.12 C 12.36667 km/h
1356 26-10-2021 16:00:00 15.15833 C 9.38 g/m*3 15.16 C 13.96667 km/h
1357 26-10-2021 17:00:00 14.31667 C 9.2 g/m*3 14.32 C 11.7 km/h
1358 26-10-2021 18:00:00 12.71667 C 9.04 g/m*3 12.72 C 6.84167 km/h
1359 26-10-2021 19:00:00 12.29167 C 9.07 g/m*3 12.29 C 5.075 km/h
1360 26-10-2021 20:00:00 10.61667 C 8.65 g/m*3 10.17 C 6.03333 km/h
1361 26-10-2021 21:00:00 10.625 C 8.75 g/m*3 9.52 C 9.15 km/h
1362 26-10-2021 22:00:00 10.51667 C 8.67 g/m*3 9.4 C 9.13333 km/h
1363 26-10-2021 23:00:00 10.41667 C 8.66 g/m*3 9.54 C 7.78333 km/h
1364 27-10-2021 00:00:00 10.69167 C 8.89 g/m*3 9.24 C 11.41667 km/h
1365 27-10-2021 01:00:00 11.64167 C 9.28 g/m*3 11.64 C 10.75833 km/h
1366 27-10-2021 02:00:00 11.95 C 9.46 g/m*3 11.95 C 12.1 km/h
1367 27-10-2021 03:00:00 12.19167 C 9.6 g/m*3 12.19 C 11.16667 km/h
1368 27-10-2021 04:00:00 12.38333 C 9.7 g/m*3 12.38 C 12.1 km/h
1369 27-10-2021 05:00:00 12.19167 C 9.72 g/m*3 12.19 C 8.34167 km/h
1370 27-10-2021 06:00:00 11.93333 C 9.67 g/m*3 11.93 C 4.80833 km/h
1371 27-10-2021 07:00:00 11.8 C 9.68 g/m*3 11.8 C 4.95 km/h
1372 27-10-2021 08:00:00 11.75833 C 9.69 g/m*3 11.76 C 7.525 km/h
1373 27-10-2021 09:00:00 11.65 C 9.66 g/m*3 11.65 C 4.96667 km/h
1374 27-10-2021 10:00:00 12.41667 C 9.94 g/m*3 12.42 C 10.9 km/h
1375 27-10-2021 11:00:00 13.05 C 10.12 g/m*3 13.05 C 10.1 km/h
Sensor: Nr:Datum:Temp:Abs-Feuchte:Windchill:Wind:
Aussen-T/F 1376 27-10-2021 12:00:00 13.98333 C 10.44 g/m*3 13.98 C 5.36667 km/h
1377 27-10-2021 13:00:00 14.8 C 10.65 g/m*3 14.8 C 5.49167 km/h
1378 27-10-2021 14:00:00 15.25833 C 10.77 g/m*3 15.26 C 4.00833 km/h
1379 27-10-2021 15:00:00 15.85 C 10.97 g/m*3 15.85 C 3.6 km/h
1380 27-10-2021 16:00:00 15.8 C 11.03 g/m*3 15.8 C 3.06667 km/h
1381 27-10-2021 17:00:00 15.225 C 10.76 g/m*3 15.23 C 4.53333 km/h
1382 27-10-2021 18:00:00 12.65 C 9.78 g/m*3 12.65 C 5.34167 km/h
1383 27-10-2021 19:00:00 10.95 C 9.14 g/m*3 10.95 C 3.74167 km/h
1384 27-10-2021 20:00:00 9.75 C 8.64 g/m*3 9.75 C 1.2 km/h
1385 27-10-2021 21:00:00 8.85833 C 8.26 g/m*3 8.86 C 0.66667 km/h
1386 27-10-2021 22:00:00 8.525 C 8.12 g/m*3 8.53 C 0.53333 km/h
1387 27-10-2021 23:00:00 8.20833 C 7.97 g/m*3 8.21 C 0.13333 km/h
1388 28-10-2021 00:00:00 7.54167 C 7.65 g/m*3 7.54 C 0 km/h
1389 28-10-2021 01:00:00 8.2 C 8.04 g/m*3 8.2 C 0 km/h
1390 28-10-2021 02:00:00 8.78333 C 8.35 g/m*3 8.78 C 0 km/h
1391 28-10-2021 03:00:00 8.60833 C 8.25 g/m*3 8.61 C 0.26667 km/h
1392 28-10-2021 04:00:00 8.01667 C 7.95 g/m*3 8.02 C 0 km/h
1393 28-10-2021 05:00:00 7.7 C 7.84 g/m*3 7.7 C 0 km/h
1394 28-10-2021 06:00:00 7.41667 C 7.71 g/m*3 7.42 C 0 km/h
1395 28-10-2021 07:00:00 7.6 C 7.81 g/m*3 7.6 C 0 km/h
1396 28-10-2021 08:00:00 7.58333 C 7.81 g/m*3 7.58 C 0 km/h
1397 28-10-2021 09:00:00 7.54167 C 7.79 g/m*3 7.54 C 0.66667 km/h
1398 28-10-2021 10:00:00 7.95833 C 8 g/m*3 7.96 C 0.26667 km/h
1399 28-10-2021 11:00:00 8.79167 C 8.44 g/m*3 8.79 C 1.33333 km/h
1400 28-10-2021 12:00:00 9.48333 C 8.82 g/m*3 9.48 C 4.40833 km/h
Sensor: Nr:Datum:Temp:Abs-Feuchte:Windchill:Wind:
Aussen-T/F 1401 28-10-2021 13:00:00 10.60833 C 9.28 g/m*3 10.61 C 4.66667 km/h
1402 28-10-2021 14:00:00 11.25 C 9.14 g/m*3 11.25 C 10.35 km/h
1403 28-10-2021 15:00:00 11.40833 C 8.97 g/m*3 11.41 C 13.03333 km/h
1404 28-10-2021 16:00:00 10.85 C 8.76 g/m*3 9.1 C 13.83333 km/h
1405 28-10-2021 17:00:00 10.725 C 8.65 g/m*3 10.73 C 4.95833 km/h
1406 28-10-2021 18:00:00 9.125 C 8.05 g/m*3 9.13 C 4.81667 km/h
1407 28-10-2021 19:00:00 7.7 C 7.45 g/m*3 7.7 C 0.53333 km/h
1408 28-10-2021 20:00:00 6.79167 C 7.18 g/m*3 6.79 C 0.8 km/h
1409 28-10-2021 21:00:00 6.825 C 7.28 g/m*3 6.83 C 0.93333 km/h
1410 28-10-2021 22:00:00 7.11667 C 7.47 g/m*3 7.12 C 0 km/h
1411 28-10-2021 23:00:00 7.60833 C 7.74 g/m*3 7.61 C 0 km/h
1412 29-10-2021 00:00:00 7.925 C 7.9 g/m*3 7.93 C 0.13333 km/h
1413 29-10-2021 01:00:00 7.70833 C 7.79 g/m*3 7.71 C 0.26667 km/h
1414 29-10-2021 02:00:00 6.51667 C 7.18 g/m*3 6.52 C 0 km/h
1415 29-10-2021 03:00:00 5.275 C 6.6 g/m*3 5.28 C 0 km/h
1416 29-10-2021 04:00:00 5.20833 C 6.61 g/m*3 5.21 C 0 km/h
1417 29-10-2021 05:00:00 5.31667 C 6.66 g/m*3 5.32 C 0.4 km/h
1418 29-10-2021 06:00:00 5.125 C 6.58 g/m*3 5.13 C 0.13333 km/h
1419 29-10-2021 07:00:00 4.60833 C 6.36 g/m*3 4.61 C 0 km/h
1420 29-10-2021 08:00:00 4.15833 C 6.19 g/m*3 4.16 C 0.13333 km/h
1421 29-10-2021 09:00:00 4.83333 C 6.52 g/m*3 4.83 C 0 km/h
1422 29-10-2021 10:00:00 6.19167 C 7.13 g/m*3 6.19 C 0 km/h
1423 29-10-2021 11:00:00 8.38333 C 8.29 g/m*3 8.38 C 0.8 km/h
1424 29-10-2021 12:00:00 9.75833 C 9.05 g/m*3 9.76 C 2.13333 km/h
1425 29-10-2021 13:00:00 10.54167 C 9.42 g/m*3 10.54 C 2 km/h
Sensor: Nr:Datum:Temp:Abs-Feuchte:Windchill:Wind:
Aussen-T/F 1426 29-10-2021 14:00:00 11.59167 C 9.81 g/m*3 11.59 C 0.53333 km/h
1427 29-10-2021 15:00:00 12.79167 C 10.18 g/m*3 12.79 C 1.34167 km/h
1428 29-10-2021 16:00:00 13.71667 C 10.02 g/m*3 13.72 C 2.675 km/h
1429 29-10-2021 17:00:00 13.91667 C 9.46 g/m*3 13.92 C 5.08333 km/h
1430 29-10-2021 18:00:00 11.475 C 8.73 g/m*3 11.48 C 3.88333 km/h
1431 29-10-2021 19:00:00 10.20833 C 8.32 g/m*3 10.21 C 3.34167 km/h
1432 29-10-2021 20:00:00 8.85 C 7.89 g/m*3 8.85 C 1.6 km/h
1433 29-10-2021 21:00:00 7.925 C 7.58 g/m*3 7.93 C 0.8 km/h
1434 29-10-2021 22:00:00 7.7 C 7.62 g/m*3 7.7 C 0 km/h
1435 29-10-2021 23:00:00 7.40833 C 7.53 g/m*3 7.41 C 0.26667 km/h
1436 30-10-2021 00:00:00 7.25833 C 7.49 g/m*3 7.26 C 0.13333 km/h
1437 30-10-2021 01:00:00 7.24167 C 7.52 g/m*3 7.24 C 0.93333 km/h
1438 30-10-2021 02:00:00 7.01667 C 7.45 g/m*3 7.02 C 0.53333 km/h
1439 30-10-2021 03:00:00 7.13333 C 7.5 g/m*3 7.13 C 0.13333 km/h
1440 30-10-2021 04:00:00 7.51667 C 7.7 g/m*3 7.52 C 0.53333 km/h
1441 30-10-2021 05:00:00 7.93333 C 7.98 g/m*3 7.93 C 0.4 km/h
1442 30-10-2021 06:00:00 8.375 C 8.22 g/m*3 8.38 C 1.2 km/h
1443 30-10-2021 07:00:00 8.525 C 8.29 g/m*3 8.53 C 2.26667 km/h
1444 30-10-2021 08:00:00 9.275 C 8.36 g/m*3 9.28 C 3.74167 km/h
1445 30-10-2021 09:00:00 9.40833 C 8.35 g/m*3 9.41 C 0.8 km/h
1446 30-10-2021 10:00:00 9.83333 C 8.5 g/m*3 9.83 C 0.4 km/h
1447 30-10-2021 11:00:00 10.425 C 8.88 g/m*3 10.43 C 1.46667 km/h
1448 30-10-2021 12:00:00 9.975 C 8.62 g/m*3 9.98 C 4.40833 km/h
1449 30-10-2021 13:00:00 10.275 C 8.91 g/m*3 10.28 C 1.33333 km/h
1450 30-10-2021 14:00:00 10.625 C 8.99 g/m*3 10.63 C 4.55833 km/h
Sensor: Nr:Datum:Temp:Abs-Feuchte:Windchill:Wind:
Aussen-T/F 1451 30-10-2021 15:00:00 10.38333 C 8.74 g/m*3 10.38 C 1.6 km/h
1452 30-10-2021 16:00:00 10.19167 C 8.73 g/m*3 10.19 C 1.06667 km/h
1453 30-10-2021 17:00:00 10.09167 C 8.62 g/m*3 10.09 C 3.88333 km/h
1454 30-10-2021 18:00:00 10.1 C 8.61 g/m*3 10.1 C 3.075 km/h
1455 30-10-2021 19:00:00 10.30833 C 8.82 g/m*3 10.31 C 2 km/h
1456 30-10-2021 20:00:00 10.69167 C 9.16 g/m*3 10.69 C 1.73333 km/h
1457 30-10-2021 21:00:00 11.075 C 9.55 g/m*3 11.08 C 1.73333 km/h
1458 30-10-2021 22:00:00 11.23333 C 9.67 g/m*3 11.23 C 1.86667 km/h
1459 30-10-2021 23:00:00 12.21667 C 10.33 g/m*3 12.22 C 2.8 km/h
1460 31-10-2021 00:00:00 12.625 C 10.52 g/m*3 12.63 C 3.48333 km/h
1461 31-10-2021 01:00:00 12.74167 C 10.6 g/m*3 12.74 C 2.13333 km/h
1462 31-10-2021 02:00:00 12.31667 C 10.33 g/m*3 12.32 C 0 km/h
1463 31-10-2021 04:00:00 10.53043 C 9.29 g/m*3 10.53 C 0 km/h
1464 31-10-2021 05:00:00 10.38462 C 9.27 g/m*3 10.38 C 0.12308 km/h
1465 31-10-2021 06:00:00 9.80833 C 8.91 g/m*3 9.81 C 0.13333 km/h
1466 31-10-2021 07:00:00 9.5 C 8.78 g/m*3 9.5 C 0.26667 km/h
1467 31-10-2021 08:00:00 9.79167 C 8.99 g/m*3 9.79 C 0 km/h
1468 31-10-2021 09:00:00 10.84167 C 9.61 g/m*3 10.84 C 0 km/h
1469 31-10-2021 10:00:00 13.01667 C 11.11 g/m*3 13.02 C 0.26667 km/h
1470 31-10-2021 11:00:00 14.70833 C 12.28 g/m*3 14.71 C 2.66667 km/h
1471 31-10-2021 12:00:00 15.89167 C 12.5 g/m*3 15.89 C 4.00833 km/h
1472 31-10-2021 13:00:00 17.28333 C 12.64 g/m*3 17.28 C 4.13333 km/h
1473 31-10-2021 14:00:00 17.58333 C 12.76 g/m*3 17.58 C 3.60833 km/h
1474 31-10-2021 15:00:00 18.075 C 12.9 g/m*3 18.08 C 4.14167 km/h
1475 31-10-2021 16:00:00 16.89167 C 12.33 g/m*3 16.89 C 0.53333 km/h
Sensor: Nr:Datum:Temp:Abs-Feuchte:Windchill:Wind:
Aussen-T/F 1476 31-10-2021 17:00:00 14.93333 C 11.54 g/m*3 14.93 C 0.26667 km/h
1477 31-10-2021 18:00:00 13.41667 C 10.79 g/m*3 13.42 C 1.2 km/h
1478 31-10-2021 19:00:00 13.31667 C 10.97 g/m*3 13.32 C 2.4 km/h
1479 31-10-2021 20:00:00 14.85 C 11.8 g/m*3 14.85 C 4.69167 km/h
1480 31-10-2021 21:00:00 15.34167 C 11.98 g/m*3 15.34 C 5.36667 km/h
1481 31-10-2021 22:00:00 15.61667 C 11.54 g/m*3 15.62 C 9.66667 km/h
1482 31-10-2021 23:00:00 12.18333 C 9.67 g/m*3 12.18 C 6.18333 km/h
1483 01-11-2021 00:00:00 11.2 C 9.48 g/m*3 11.2 C 2.8 km/h
1484 01-11-2021 01:00:00 10.39167 C 9.09 g/m*3 10.39 C 3.73333 km/h
1485 01-11-2021 02:00:00 10.10833 C 9.04 g/m*3 10.11 C 0.4 km/h
1486 01-11-2021 03:00:00 10.03333 C 9.04 g/m*3 10.03 C 0.13333 km/h
1487 01-11-2021 04:00:00 10.09167 C 9.07 g/m*3 10.09 C 0.53333 km/h
1488 01-11-2021 05:00:00 10.05833 C 9.05 g/m*3 10.06 C 2.26667 km/h
1489 01-11-2021 06:00:00 9.80833 C 8.91 g/m*3 9.81 C 4.94167 km/h
1490 01-11-2021 07:00:00 9.36667 C 8.57 g/m*3 8.73 C 6.03333 km/h
1491 01-11-2021 08:00:00 8.75 C 8.23 g/m*3 8.75 C 2.26667 km/h
1492 01-11-2021 09:00:00 8.79167 C 8.29 g/m*3 8.79 C 2.54167 km/h
1493 01-11-2021 10:00:00 10 C 8.89 g/m*3 10 C 2.93333 km/h
1494 01-11-2021 11:00:00 11.9 C 9.2 g/m*3 11.9 C 8.74167 km/h
1495 01-11-2021 12:00:00 12.79167 C 8.77 g/m*3 12.79 C 12.5 km/h
1496 01-11-2021 13:00:00 13.30833 C 8.58 g/m*3 13.31 C 15.025 km/h
1497 01-11-2021 14:00:00 13.29167 C 8.67 g/m*3 13.29 C 11.55833 km/h
1498 01-11-2021 15:00:00 12.71667 C 8.79 g/m*3 12.72 C 6.70833 km/h
1499 01-11-2021 16:00:00 11.40833 C 8.57 g/m*3 11.41 C 2.00833 km/h
1500 01-11-2021 17:00:00 9.05 C 7.81 g/m*3 9.05 C 2.95 km/h
Sensor: Nr:Datum:Temp:Abs-Feuchte:Windchill:Wind:
Aussen-T/F 1501 01-11-2021 18:00:00 7.44167 C 7.35 g/m*3 7.44 C 1.2 km/h
1502 01-11-2021 19:00:00 7.25 C 7.42 g/m*3 7.25 C 1.73333 km/h
1503 01-11-2021 20:00:00 7.075 C 7.33 g/m*3 7.08 C 1.2 km/h
1504 01-11-2021 21:00:00 7.14167 C 7.43 g/m*3 7.14 C 1.6 km/h
1505 01-11-2021 22:00:00 7.1 C 7.41 g/m*3 7.1 C 2 km/h
1506 01-11-2021 23:00:00 6.30833 C 7.04 g/m*3 6.31 C 0.26667 km/h
1507 02-11-2021 00:00:00 5.625 C 6.73 g/m*3 5.63 C 0 km/h
1508 02-11-2021 01:00:00 5.43333 C 6.68 g/m*3 5.43 C 0 km/h
1509 02-11-2021 02:00:00 6.45 C 7.18 g/m*3 6.45 C 0.4 km/h
1510 02-11-2021 03:00:00 7.05 C 7.47 g/m*3 7.05 C 1.86667 km/h
1511 02-11-2021 04:00:00 6.95833 C 7.4 g/m*3 6.96 C 4.55 km/h
1512 02-11-2021 05:00:00 5.81667 C 6.79 g/m*3 5.82 C 1.86667 km/h
1513 02-11-2021 06:00:00 5.56667 C 6.74 g/m*3 5.57 C 2.8 km/h
1514 02-11-2021 07:00:00 5.48333 C 6.71 g/m*3 5.48 C 2.4 km/h
1515 02-11-2021 08:00:00 5.85 C 6.9 g/m*3 5.85 C 2 km/h
1516 02-11-2021 09:00:00 6.725 C 7.31 g/m*3 6.73 C 0.13333 km/h
1517 02-11-2021 10:00:00 8.15833 C 7.91 g/m*3 8.16 C 0 km/h
1518 02-11-2021 11:00:00 8.69167 C 8.14 g/m*3 8.69 C 0.13333 km/h
1519 02-11-2021 12:00:00 9.33333 C 8.47 g/m*3 9.33 C 0 km/h
1520 02-11-2021 13:00:00 9.63333 C 8.67 g/m*3 9.63 C 0.66667 km/h
1521 02-11-2021 14:00:00 8.94167 C 8.24 g/m*3 8.94 C 3.875 km/h
1522 02-11-2021 15:00:00 8.80833 C 8.22 g/m*3 8.81 C 1.73333 km/h
1523 02-11-2021 16:00:00 9.475 C 8.51 g/m*3 9.48 C 1.06667 km/h
1524 02-11-2021 17:00:00 8.63333 C 8.07 g/m*3 8.63 C 0.66667 km/h
1525 02-11-2021 18:00:00 8.23333 C 7.97 g/m*3 8.23 C 3.06667 km/h
Sensor: Nr:Datum:Temp:Abs-Feuchte:Windchill:Wind:
Aussen-T/F 1526 02-11-2021 19:00:00 7.86667 C 7.81 g/m*3 7.87 C 4.83333 km/h
1527 02-11-2021 20:00:00 7.55833 C 7.63 g/m*3 6.87 C 5.34167 km/h
1528 02-11-2021 21:00:00 7.64167 C 7.75 g/m*3 6.92 C 5.46667 km/h
1529 02-11-2021 22:00:00 7.425 C 7.63 g/m*3 7.43 C 3.075 km/h
1530 02-11-2021 23:00:00 6.375 C 7.09 g/m*3 6.38 C 1.86667 km/h
1531 03-11-2021 00:00:00 5.19167 C 6.57 g/m*3 5.19 C 0.13333 km/h
1532 03-11-2021 01:00:00 5.28333 C 6.65 g/m*3 5.28 C 0 km/h
1533 03-11-2021 02:00:00 4.88333 C 6.47 g/m*3 4.88 C 0 km/h
1534 03-11-2021 03:00:00 5.18333 C 6.6 g/m*3 5.18 C 0 km/h
1535 03-11-2021 04:00:00 5.4 C 6.74 g/m*3 5.4 C 0 km/h
1536 03-11-2021 05:00:00 5.9 C 6.99 g/m*3 5.9 C 0 km/h
1537 03-11-2021 06:00:00 6.10833 C 7.09 g/m*3 6.11 C 0 km/h
1538 03-11-2021 07:00:00 6.325 C 7.19 g/m*3 6.33 C 0 km/h
1539 03-11-2021 08:00:00 6.60833 C 7.33 g/m*3 6.61 C 0.8 km/h
1540 03-11-2021 09:00:00 6.8 C 7.42 g/m*3 6.8 C 0 km/h
1541 03-11-2021 10:00:00 7.25 C 7.64 g/m*3 6.51 C 5.36667 km/h
1542 03-11-2021 11:00:00 7.9 C 7.97 g/m*3 7.01 C 6.175 km/h
1543 03-11-2021 12:00:00 8.45 C 8.26 g/m*3 8.45 C 2.14167 km/h
1544 03-11-2021 13:00:00 8.78333 C 8.43 g/m*3 8.78 C 0.4 km/h
1545 03-11-2021 14:00:00 9.05833 C 8.58 g/m*3 9.06 C 0 km/h
1546 03-11-2021 15:00:00 9.325 C 8.73 g/m*3 9.32 C 0 km/h
1547 03-11-2021 16:00:00 9.25 C 8.69 g/m*3 9.25 C 0.13333 km/h
1548 03-11-2021 17:00:00 8.725 C 8.34 g/m*3 8.73 C 0 km/h
1549 03-11-2021 18:00:00 8.325 C 8.19 g/m*3 8.32 C 0.4 km/h
1550 03-11-2021 19:00:00 7.95 C 7.96 g/m*3 7.95 C 2.4 km/h
Sensor: Nr:Datum:Temp:Abs-Feuchte:Windchill:Wind:
Aussen-T/F 1551 03-11-2021 20:00:00 7.49167 C 7.73 g/m*3 7.49 C 1.73333 km/h
1552 03-11-2021 21:00:00 7.25833 C 7.64 g/m*3 7.26 C 0.4 km/h
1553 03-11-2021 22:00:00 7.2 C 7.61 g/m*3 7.2 C 0.26667 km/h
1554 03-11-2021 23:00:00 7.15 C 7.59 g/m*3 7.15 C 2.54167 km/h
1555 04-11-2021 00:00:00 7.05 C 7.54 g/m*3 7.05 C 3.46667 km/h
1556 04-11-2021 01:00:00 7.09167 C 7.56 g/m*3 7.09 C 3.74167 km/h
1557 04-11-2021 02:00:00 7.10833 C 7.57 g/m*3 7.11 C 4.01667 km/h
1558 04-11-2021 03:00:00 7.14167 C 7.59 g/m*3 7.14 C 3.6 km/h
1559 04-11-2021 04:00:00 7.00833 C 7.52 g/m*3 6.02 C 6.025 km/h
1560 04-11-2021 05:00:00 6.89167 C 7.46 g/m*3 6.1 C 5.36667 km/h
1561 04-11-2021 06:00:00 6.775 C 7.34 g/m*3 6.78 C 4.69167 km/h
1562 04-11-2021 07:00:00 6.7 C 7.29 g/m*3 5.43 C 6.85 km/h
1563 04-11-2021 08:00:00 6.66667 C 7.22 g/m*3 5.47 C 6.575 km/h
1564 04-11-2021 09:00:00 6.89167 C 7.27 g/m*3 5.81 C 6.3 km/h
1565 04-11-2021 10:00:00 7.28333 C 7.39 g/m*3 7.28 C 4.825 km/h
1566 04-11-2021 11:00:00 7.70833 C 7.5 g/m*3 7.71 C 4.14167 km/h
1567 04-11-2021 12:00:00 8.45 C 7.76 g/m*3 8.45 C 2.00833 km/h
1568 04-11-2021 13:00:00 8.75 C 7.87 g/m*3 8.75 C 0.26667 km/h
1569 04-11-2021 14:00:00 9.03333 C 7.96 g/m*3 9.03 C 2.55 km/h
1570 04-11-2021 15:00:00 8.30833 C 7.86 g/m*3 8.31 C 1.06667 km/h
1571 04-11-2021 16:00:00 8.25 C 7.96 g/m*3 8.25 C 0 km/h
1572 04-11-2021 17:00:00 7.75833 C 7.73 g/m*3 7.76 C 3.75833 km/h
1573 04-11-2021 18:00:00 7.61667 C 7.66 g/m*3 6.04 C 8.725 km/h
1574 04-11-2021 19:00:00 7.50833 C 7.61 g/m*3 5.66 C 9.96667 km/h
1575 04-11-2021 20:00:00 7.4 C 7.55 g/m*3 5.91 C 8.2 km/h
Sensor: Nr:Datum:Temp:Abs-Feuchte:Windchill:Wind:
Aussen-T/F 1576 04-11-2021 21:00:00 7.35 C 7.56 g/m*3 5.98 C 7.65 km/h
1577 04-11-2021 22:00:00 7.30833 C 7.54 g/m*3 5.68 C 8.73333 km/h
1578 04-11-2021 23:00:00 7.26667 C 7.52 g/m*3 7.27 C 4.4 km/h
1579 05-11-2021 00:00:00 7.3 C 7.58 g/m*3 7.3 C 2.53333 km/h
1580 05-11-2021 01:00:00 7.06667 C 7.47 g/m*3 7.07 C 1.6 km/h
1581 05-11-2021 02:00:00 6.75 C 7.31 g/m*3 6.75 C 0.4 km/h
1582 05-11-2021 03:00:00 6.58333 C 7.24 g/m*3 6.58 C 0.4 km/h
1583 05-11-2021 04:00:00 6.275 C 7.11 g/m*3 6.28 C 0.26667 km/h
1584 05-11-2021 05:00:00 6.6 C 7.25 g/m*3 6.6 C 2.13333 km/h
1585 05-11-2021 06:00:00 6.675 C 7.33 g/m*3 6.68 C 3.86667 km/h
1586 05-11-2021 07:00:00 6.78333 C 7.41 g/m*3 6.78 C 2.53333 km/h
1587 05-11-2021 08:00:00 6.89167 C 7.46 g/m*3 6.89 C 0.66667 km/h
1588 05-11-2021 09:00:00 7.33333 C 7.68 g/m*3 7.33 C 0.26667 km/h
1589 05-11-2021 10:00:00 7.78333 C 7.91 g/m*3 7.78 C 0 km/h
1590 05-11-2021 11:00:00 8.375 C 8.18 g/m*3 8.38 C 0 km/h
1591 05-11-2021 12:00:00 9.03333 C 8.33 g/m*3 9.03 C 0.13333 km/h
1592 05-11-2021 13:00:00 9.83333 C 8.41 g/m*3 9.83 C 3.2 km/h
1593 05-11-2021 14:00:00 10.45 C 8.45 g/m*3 10.45 C 1.2 km/h
1594 05-11-2021 15:00:00 10.80833 C 8.66 g/m*3 10.81 C 0.13333 km/h
1595 05-11-2021 16:00:00 10.14167 C 8.61 g/m*3 10.14 C 0.66667 km/h
1596 05-11-2021 17:00:00 8.48333 C 7.87 g/m*3 8.48 C 0.26667 km/h
1597 05-11-2021 18:00:00 7.45 C 7.5 g/m*3 7.45 C 0 km/h
1598 05-11-2021 19:00:00 6.88333 C 7.28 g/m*3 6.88 C 0 km/h
1599 05-11-2021 20:00:00 6.59167 C 7.21 g/m*3 6.59 C 1.73333 km/h
1600 05-11-2021 21:00:00 7.10833 C 7.49 g/m*3 7.11 C 4.26667 km/h
Sensor: Nr:Datum:Temp:Abs-Feuchte:Windchill:Wind:
Aussen-T/F 1601 05-11-2021 22:00:00 7.20833 C 7.54 g/m*3 7.21 C 4.13333 km/h
1602 05-11-2021 23:00:00 7.025 C 7.46 g/m*3 7.03 C 3.73333 km/h
1603 06-11-2021 00:00:00 6.91667 C 7.44 g/m*3 6.92 C 4.95 km/h
1604 06-11-2021 01:00:00 6.91667 C 7.46 g/m*3 6.92 C 4.13333 km/h
1605 06-11-2021 02:00:00 6.875 C 7.45 g/m*3 6.88 C 2.93333 km/h
1606 06-11-2021 03:00:00 6.78333 C 7.4 g/m*3 6.78 C 1.86667 km/h
1607 06-11-2021 04:00:00 5.875 C 6.92 g/m*3 5.88 C 2.54167 km/h
1608 06-11-2021 05:00:00 5.63333 C 6.86 g/m*3 5.63 C 3.2 km/h
1609 06-11-2021 06:00:00 5.74167 C 6.92 g/m*3 5.74 C 4.80833 km/h
1610 06-11-2021 07:00:00 5.725 C 6.91 g/m*3 5.73 C 2.13333 km/h
1611 06-11-2021 08:00:00 5.23333 C 6.69 g/m*3 5.23 C 0.93333 km/h
1612 06-11-2021 09:00:00 5.31667 C 6.73 g/m*3 5.32 C 0.13333 km/h
1613 06-11-2021 10:00:00 5.84167 C 6.97 g/m*3 5.84 C 1.86667 km/h
1614 06-11-2021 11:00:00 6.96667 C 7.51 g/m*3 5.78 C 6.7 km/h
1615 06-11-2021 12:00:00 7.58333 C 7.73 g/m*3 5.91 C 9.15833 km/h
1616 06-11-2021 13:00:00 8.45 C 7.85 g/m*3 7.36 C 7.25833 km/h
1617 06-11-2021 14:00:00 8.80833 C 7.92 g/m*3 8.13 C 5.89167 km/h
1618 06-11-2021 15:00:00 9.23333 C 7.58 g/m*3 7.95 C 8.73333 km/h
1619 06-11-2021 16:00:00 8.08333 C 7.29 g/m*3 7.34 C 5.75 km/h
1620 06-11-2021 17:00:00 7.41667 C 7.2 g/m*3 6.5 C 6.01667 km/h
1621 06-11-2021 18:00:00 8.225 C 7.32 g/m*3 6.82 C 8.46667 km/h
1622 06-11-2021 19:00:00 8.6 C 7.28 g/m*3 6.97 C 9.95 km/h
1623 06-11-2021 20:00:00 8.54167 C 7.13 g/m*3 6.16 C 14.63333 km/h
1624 06-11-2021 21:00:00 8.45833 C 7.07 g/m*3 6.21 C 13.56667 km/h
1625 06-11-2021 22:00:00 8.28333 C 6.93 g/m*3 5.9 C 14.23333 km/h
Sensor: Nr:Datum:Temp:Abs-Feuchte:Windchill:Wind:
Aussen-T/F 1626 06-11-2021 23:00:00 7.53333 C 6.82 g/m*3 6.84 C 5.35833 km/h
1627 07-11-2021 00:00:00 6.95 C 6.78 g/m*3 6.17 C 5.35833 km/h
1628 07-11-2021 01:00:00 7.23333 C 6.93 g/m*3 5.45 C 9.4 km/h
1629 07-11-2021 02:00:00 7.54167 C 7 g/m*3 5.84 C 9.26667 km/h
1630 07-11-2021 03:00:00 8.05 C 7.12 g/m*3 5.09 C 18.36667 km/h
1631 07-11-2021 04:00:00 8 C 7.03 g/m*3 4.47 C 23.86667 km/h
1632 07-11-2021 05:00:00 7.96667 C 7.1 g/m*3 4.54 C 22.64167 km/h
1633 07-11-2021 06:00:00 7.79167 C 7.13 g/m*3 4.37 C 22.10833 km/h
1634 07-11-2021 07:00:00 7.625 C 7.14 g/m*3 4.26 C 21.175 km/h
1635 07-11-2021 08:00:00 7.65 C 7.27 g/m*3 4.12 C 22.9 km/h
1636 07-11-2021 09:00:00 8.31667 C 7.52 g/m*3 5.34 C 19.16667 km/h
1637 07-11-2021 10:00:00 8.85 C 7.75 g/m*3 5.94 C 19.85 km/h
1638 07-11-2021 11:00:00 8.90833 C 7.82 g/m*3 6.27 C 17.43333 km/h
1639 07-11-2021 12:00:00 9.08333 C 8.03 g/m*3 7.31 C 11.3 km/h
1640 07-11-2021 13:00:00 9.65833 C 8.27 g/m*3 7.87 C 12.23333 km/h
1641 07-11-2021 14:00:00 9.93333 C 8.29 g/m*3 8.34 C 11.29167 km/h
1642 07-11-2021 15:00:00 10.31667 C 8.04 g/m*3 8.67 C 12.225 km/h
1643 07-11-2021 16:00:00 10.60833 C 7.33 g/m*3 9.16 C 11.29167 km/h
1644 07-11-2021 17:00:00 9.35833 C 7.13 g/m*3 7.9 C 9.80833 km/h
1645 07-11-2021 18:00:00 8.075 C 7.08 g/m*3 6.73 C 8.06667 km/h
1646 07-11-2021 19:00:00 7.675 C 7.03 g/m*3 6.11 C 8.74167 km/h
1647 07-11-2021 20:00:00 7.94167 C 7.04 g/m*3 6.52 C 8.325 km/h
1648 07-11-2021 21:00:00 7.40833 C 6.87 g/m*3 6.52 C 5.89167 km/h
1649 07-11-2021 22:00:00 6.93333 C 6.8 g/m*3 6.2 C 5.21667 km/h
1650 07-11-2021 23:00:00 6.98333 C 7.06 g/m*3 5.65 C 7.25 km/h
Sensor: Nr:Datum:Temp:Abs-Feuchte:Windchill:Wind:
Aussen-T/F 1651 08-11-2021 00:00:00 7.04167 C 7.23 g/m*3 7.04 C 3.475 km/h
1652 08-11-2021 01:00:00 6.58333 C 7.06 g/m*3 6.58 C 1.33333 km/h
1653 08-11-2021 02:00:00 6.49167 C 7.06 g/m*3 6.49 C 0.53333 km/h
1654 08-11-2021 03:00:00 6.19167 C 6.95 g/m*3 6.19 C 1.46667 km/h
1655 08-11-2021 04:00:00 5.98333 C 6.89 g/m*3 5.98 C 1.33333 km/h
1656 08-11-2021 05:00:00 6.075 C 6.95 g/m*3 6.08 C 3.6 km/h
1657 08-11-2021 06:00:00 6.15 C 6.97 g/m*3 6.15 C 4.53333 km/h
1658 08-11-2021 07:00:00 6.13333 C 6.96 g/m*3 6.13 C 3.46667 km/h
1659 08-11-2021 08:00:00 6.29167 C 7.03 g/m*3 5.38 C 5.475 km/h
1660 08-11-2021 09:00:00 6.56667 C 7.16 g/m*3 6.57 C 3.46667 km/h
1661 08-11-2021 10:00:00 7.26667 C 7.46 g/m*3 7.27 C 2.66667 km/h
1662 08-11-2021 11:00:00 8.65 C 7.9 g/m*3 8.65 C 2.8 km/h
1663 08-11-2021 12:00:00 9.86667 C 8.12 g/m*3 9.87 C 2.4 km/h
1664 08-11-2021 13:00:00 10.46667 C 8.19 g/m*3 10.47 C 2.53333 km/h
1665 08-11-2021 14:00:00 10.80833 C 8.19 g/m*3 10.81 C 3.86667 km/h
1666 08-11-2021 15:00:00 10.41667 C 8.2 g/m*3 10.42 C 0.53333 km/h
1667 08-11-2021 16:00:00 9.275 C 7.81 g/m*3 9.28 C 0.13333 km/h
1668 08-11-2021 17:00:00 7.08333 C 7.07 g/m*3 7.08 C 0.93333 km/h
1669 08-11-2021 18:00:00 6.875 C 7.19 g/m*3 6.88 C 0 km/h
1670 08-11-2021 19:00:00 6.8 C 7.2 g/m*3 6.8 C 0 km/h
1671 08-11-2021 20:00:00 6.875 C 7.3 g/m*3 6.88 C 0 km/h
1672 08-11-2021 21:00:00 6.9 C 7.31 g/m*3 6.9 C 0 km/h
1673 08-11-2021 22:00:00 6.86667 C 7.3 g/m*3 6.87 C 0 km/h
1674 08-11-2021 23:00:00 6.69167 C 7.21 g/m*3 6.69 C 0 km/h
1675 09-11-2021 00:00:00 6.58333 C 7.16 g/m*3 6.58 C 0 km/h
Sensor: Nr:Datum:Temp:Abs-Feuchte:Windchill:Wind:
Aussen-T/F 1676 09-11-2021 01:00:00 6.54167 C 7.14 g/m*3 6.54 C 0 km/h
1677 09-11-2021 02:00:00 6.39167 C 7.07 g/m*3 6.39 C 0 km/h
1678 09-11-2021 03:00:00 6.26667 C 7.02 g/m*3 6.27 C 0 km/h
1679 09-11-2021 04:00:00 5.96667 C 6.89 g/m*3 5.97 C 0.13333 km/h
1680 09-11-2021 05:00:00 5 C 6.44 g/m*3 5 C 0 km/h
1681 09-11-2021 06:00:00 3.60833 C 5.88 g/m*3 3.61 C 0.13333 km/h
1682 09-11-2021 07:00:00 2.90833 C 5.64 g/m*3 2.91 C 0.26667 km/h
1683 09-11-2021 08:00:00 3.93333 C 6.09 g/m*3 3.93 C 0.13333 km/h
1684 09-11-2021 09:00:00 4.68333 C 6.44 g/m*3 4.68 C 1.33333 km/h
1685 09-11-2021 10:00:00 4.99167 C 6.59 g/m*3 4.99 C 1.86667 km/h
1686 09-11-2021 11:00:00 5.44167 C 6.79 g/m*3 5.44 C 2 km/h
1687 09-11-2021 12:00:00 6.35 C 7.2 g/m*3 6.35 C 0.8 km/h
1688 09-11-2021 13:00:00 7.11667 C 7.57 g/m*3 7.12 C 0.8 km/h
1689 09-11-2021 14:00:00 7.26667 C 7.62 g/m*3 7.27 C 2.66667 km/h
1690 09-11-2021 15:00:00 7.325 C 7.54 g/m*3 7.33 C 3.2 km/h
1691 09-11-2021 16:00:00 6.79167 C 7.13 g/m*3 6.79 C 1.06667 km/h
1692 09-11-2021 17:00:00 6.04167 C 6.69 g/m*3 6.04 C 2 km/h
1693 09-11-2021 18:00:00 4.56667 C 6.12 g/m*3 4.57 C 0 km/h
1694 09-11-2021 19:00:00 3.53333 C 5.79 g/m*3 3.53 C 0 km/h
1695 09-11-2021 20:00:00 2.725 C 5.51 g/m*3 2.73 C 0 km/h
1696 09-11-2021 21:00:00 2.03333 C 5.29 g/m*3 2.03 C 0 km/h
1697 09-11-2021 22:00:00 1.55 C 5.13 g/m*3 1.55 C 0.26667 km/h
1698 09-11-2021 23:00:00 1.175 C 5.01 g/m*3 1.18 C 0 km/h
1699 10-11-2021 00:00:00 0.54167 C 4.79 g/m*3 0.54 C 0 km/h
1700 10-11-2021 01:00:00 0.25 C 4.72 g/m*3 0.25 C 0.26667 km/h
Sensor: Nr:Datum:Temp:Abs-Feuchte:Windchill:Wind:
Aussen-T/F 1701 10-11-2021 02:00:00 0.14167 C 4.7 g/m*3 0.14 C 0 km/h
1702 10-11-2021 03:00:00 0.23333 C 4.73 g/m*3 0.23 C 0 km/h
1703 10-11-2021 04:00:00 0.34167 C 4.76 g/m*3 0.34 C 0.4 km/h
1704 10-11-2021 05:00:00 0.275 C 4.74 g/m*3 0.28 C 0.4 km/h
1705 10-11-2021 06:00:00 0.23333 C 4.75 g/m*3 0.23 C 0.13333 km/h
1706 10-11-2021 07:00:00 0.325 C 4.81 g/m*3 0.33 C 1.2 km/h
1707 10-11-2021 08:00:00 0.50833 C 4.87 g/m*3 0.51 C 1.86667 km/h
1708 10-11-2021 09:00:00 0.65833 C 4.92 g/m*3 0.66 C 0.53333 km/h
1709 10-11-2021 10:00:00 1.15833 C 5.09 g/m*3 1.16 C 0.13333 km/h
1710 10-11-2021 11:00:00 1.675 C 5.27 g/m*3 1.68 C 1.86667 km/h
1711 10-11-2021 12:00:00 2.625 C 5.62 g/m*3 2.63 C 1.46667 km/h
1712 10-11-2021 13:00:00 3.5 C 5.96 g/m*3 3.5 C 0 km/h
1713 10-11-2021 14:00:00 4.55 C 6.4 g/m*3 4.55 C 1.2 km/h
1714 10-11-2021 15:00:00 4.8 C 6.5 g/m*3 4.8 C 0 km/h
1715 10-11-2021 16:00:00 4.30833 C 6.24 g/m*3 4.31 C 0 km/h
1716 10-11-2021 17:00:00 2.64167 C 5.57 g/m*3 2.64 C 0 km/h
1717 10-11-2021 18:00:00 1.74167 C 5.24 g/m*3 1.74 C 0 km/h
1718 10-11-2021 19:00:00 1.275 C 5.08 g/m*3 1.27 C 0 km/h
1719 10-11-2021 20:00:00 0.825 C 4.92 g/m*3 0.83 C 0 km/h
1720 10-11-2021 21:00:00 0.7 C 4.89 g/m*3 0.7 C 0 km/h
1721 10-11-2021 22:00:00 1.40833 C 5.18 g/m*3 1.41 C 0 km/h
1722 10-11-2021 23:00:00 1.80833 C 5.32 g/m*3 1.81 C 0.8 km/h
1723 11-11-2021 00:00:00 1.8 C 5.32 g/m*3 1.8 C 0.4 km/h
1724 11-11-2021 01:00:00 1.61667 C 5.25 g/m*3 1.62 C 1.2 km/h
1725 11-11-2021 02:00:00 1.475 C 5.2 g/m*3 1.48 C 0.66667 km/h
Sensor: Nr:Datum:Temp:Abs-Feuchte:Windchill:Wind:
Aussen-T/F 1726 11-11-2021 03:00:00 1.45 C 5.19 g/m*3 1.45 C 0.4 km/h
1727 11-11-2021 04:00:00 1.39167 C 5.17 g/m*3 1.39 C 1.33333 km/h
1728 11-11-2021 05:00:00 1.28333 C 5.13 g/m*3 1.28 C 1.46667 km/h
1729 11-11-2021 06:00:00 1.125 C 5.08 g/m*3 1.13 C 1.6 km/h
1730 11-11-2021 07:00:00 0.91667 C 5.01 g/m*3 0.92 C 2.13333 km/h
1731 11-11-2021 08:00:00 1.11667 C 5.07 g/m*3 1.12 C 1.2 km/h
1732 11-11-2021 09:00:00 1.31667 C 5.14 g/m*3 1.32 C 1.6 km/h
1733 11-11-2021 10:00:00 1.58333 C 5.24 g/m*3 1.58 C 1.86667 km/h
1734 11-11-2021 11:00:00 2.05 C 5.44 g/m*3 2.05 C 1.06667 km/h
1735 11-11-2021 12:00:00 2.55833 C 5.62 g/m*3 2.56 C 0.93333 km/h
1736 11-11-2021 13:00:00 2.88333 C 5.77 g/m*3 2.88 C 2.53333 km/h
1737 11-11-2021 14:00:00 3.23333 C 5.89 g/m*3 3.23 C 1.06667 km/h
1738 11-11-2021 15:00:00 3.44167 C 6 g/m*3 3.44 C 1.33333 km/h
1739 11-11-2021 16:00:00 3.31667 C 5.91 g/m*3 3.32 C 0.93333 km/h
1740 11-11-2021 17:00:00 3.05833 C 5.79 g/m*3 3.06 C 0.13333 km/h
1741 11-11-2021 18:00:00 2.325 C 5.51 g/m*3 2.33 C 3.2 km/h
1742 11-11-2021 19:00:00 1.96667 C 5.38 g/m*3 1.97 C 0.4 km/h
1743 11-11-2021 20:00:00 2.53333 C 5.59 g/m*3 2.53 C 0.26667 km/h
1744 11-11-2021 21:00:00 2.54167 C 5.59 g/m*3 2.54 C 1.06667 km/h
1745 11-11-2021 22:00:00 2.35 C 5.52 g/m*3 2.35 C 0.66667 km/h
1746 11-11-2021 23:00:00 2.175 C 5.45 g/m*3 2.17 C 0.66667 km/h
1747 12-11-2021 00:00:00 1.94167 C 5.37 g/m*3 1.94 C 0.13333 km/h
1748 12-11-2021 01:00:00 1.825 C 5.33 g/m*3 1.83 C 0 km/h
1749 12-11-2021 02:00:00 1.75 C 5.3 g/m*3 1.75 C 0.66667 km/h
1750 12-11-2021 03:00:00 1.8 C 5.34 g/m*3 1.8 C 2.26667 km/h
Sensor: Nr:Datum:Temp:Abs-Feuchte:Windchill:Wind:
Aussen-T/F 1751 12-11-2021 04:00:00 1.74167 C 5.32 g/m*3 1.74 C 1.73333 km/h
1752 12-11-2021 05:00:00 1.425 C 5.18 g/m*3 1.43 C 2.93333 km/h
1753 12-11-2021 06:00:00 1.43333 C 5.19 g/m*3 1.43 C 0.4 km/h
1754 12-11-2021 07:00:00 1.675 C 5.3 g/m*3 1.68 C 1.33333 km/h
1755 12-11-2021 08:00:00 1.33333 C 5.16 g/m*3 1.33 C 3.73333 km/h
1756 12-11-2021 09:00:00 1.775 C 5.36 g/m*3 1.78 C 2.93333 km/h
1757 12-11-2021 10:00:00 2.35 C 5.58 g/m*3 2.35 C 3.06667 km/h
1758 12-11-2021 11:00:00 2.8 C 5.74 g/m*3 2.8 C 4.825 km/h
1759 12-11-2021 12:00:00 2.9 C 5.78 g/m*3 2.9 C 4.53333 km/h
1760 12-11-2021 13:00:00 3.59167 C 6.02 g/m*3 3.59 C 4.26667 km/h
1761 12-11-2021 14:00:00 4.15 C 6.2 g/m*3 4.15 C 3.06667 km/h
1762 12-11-2021 15:00:00 4.49167 C 6.31 g/m*3 4.49 C 1.73333 km/h
1763 12-11-2021 16:00:00 4.1 C 6.08 g/m*3 4.1 C 0.26667 km/h
1764 12-11-2021 17:00:00 2.43333 C 5.41 g/m*3 2.43 C 0 km/h
1765 12-11-2021 18:00:00 1.65 C 5.18 g/m*3 1.65 C 0.53333 km/h
1766 12-11-2021 19:00:00 1.40833 C 5.12 g/m*3 1.41 C 0.4 km/h
1767 12-11-2021 20:00:00 0.925 C 4.96 g/m*3 0.93 C 0.13333 km/h
1768 12-11-2021 21:00:00 0.45833 C 4.8 g/m*3 0.46 C 0.13333 km/h
1769 12-11-2021 22:00:00 0.15 C 4.71 g/m*3 0.15 C 0 km/h
1770 12-11-2021 23:00:00 1.11667 C 5.07 g/m*3 1.12 C 1.86667 km/h
1771 13-11-2021 00:00:00 1.74167 C 5.3 g/m*3 1.74 C 2.68333 km/h
1772 13-11-2021 01:00:00 2.53333 C 5.59 g/m*3 2.53 C 1.33333 km/h
1773 13-11-2021 02:00:00 3.05833 C 5.79 g/m*3 3.06 C 0.53333 km/h
1774 13-11-2021 03:00:00 3.525 C 5.97 g/m*3 3.53 C 3.06667 km/h
1775 13-11-2021 04:00:00 3.73333 C 6.06 g/m*3 3.73 C 2.4 km/h
Sensor: Nr:Datum:Temp:Abs-Feuchte:Windchill:Wind:
Aussen-T/F 1776 13-11-2021 05:00:00 4.025 C 6.18 g/m*3 4.03 C 0.26667 km/h
1777 13-11-2021 06:00:00 4.03333 C 6.18 g/m*3 4.03 C 0.13333 km/h
1778 13-11-2021 07:00:00 4.65833 C 6.44 g/m*3 4.66 C 0 km/h
1779 13-11-2021 08:00:00 5.25833 C 6.7 g/m*3 5.26 C 0 km/h
1780 13-11-2021 09:00:00 5.78333 C 6.94 g/m*3 5.78 C 0 km/h
1781 13-11-2021 10:00:00 6.45833 C 7.25 g/m*3 6.46 C 0 km/h
1782 13-11-2021 11:00:00 6.81667 C 7.43 g/m*3 6.82 C 0 km/h
1783 13-11-2021 12:00:00 7.24167 C 7.64 g/m*3 7.24 C 0.4 km/h
1784 13-11-2021 13:00:00 8.075 C 8.07 g/m*3 8.07 C 0.13333 km/h
1785 13-11-2021 14:00:00 8.59167 C 8.35 g/m*3 8.59 C 0.13333 km/h
1786 13-11-2021 15:00:00 9.21667 C 8.69 g/m*3 9.22 C 0 km/h
1787 13-11-2021 16:00:00 9.15833 C 8.64 g/m*3 9.16 C 0 km/h
1788 13-11-2021 17:00:00 8.71667 C 8.4 g/m*3 8.72 C 0 km/h
1789 13-11-2021 18:00:00 8.425 C 8.24 g/m*3 8.43 C 0 km/h
1790 13-11-2021 19:00:00 8.28333 C 8.17 g/m*3 8.28 C 0 km/h
1791 13-11-2021 20:00:00 8.24167 C 8.15 g/m*3 8.24 C 0.66667 km/h
1792 13-11-2021 21:00:00 8.1 C 8.07 g/m*3 8.1 C 0 km/h
1793 13-11-2021 22:00:00 7.85833 C 7.95 g/m*3 7.86 C 0 km/h
1794 13-11-2021 23:00:00 7.7 C 7.87 g/m*3 7.7 C 0 km/h
1795 14-11-2021 00:00:00 7.60833 C 7.82 g/m*3 7.61 C 0 km/h
1796 14-11-2021 01:00:00 7.55833 C 7.79 g/m*3 7.56 C 0.26667 km/h
1797 14-11-2021 02:00:00 7.38333 C 7.71 g/m*3 7.38 C 0 km/h
1798 14-11-2021 03:00:00 7.25833 C 7.64 g/m*3 7.26 C 3.75833 km/h
1799 14-11-2021 04:00:00 7.14167 C 7.59 g/m*3 7.14 C 2 km/h
1800 14-11-2021 05:00:00 6.96667 C 7.5 g/m*3 6.97 C 0 km/h
Sensor: Nr:Datum:Temp:Abs-Feuchte:Windchill:Wind:
Aussen-T/F 1801 14-11-2021 06:00:00 6.85 C 7.44 g/m*3 6.85 C 0 km/h
1802 14-11-2021 07:00:00 6.80833 C 7.44 g/m*3 6.81 C 0 km/h
1803 14-11-2021 08:00:00 7.28333 C 7.72 g/m*3 7.28 C 0.13333 km/h
1804 14-11-2021 09:00:00 7.73333 C 7.96 g/m*3 7.73 C 0 km/h
1805 14-11-2021 10:00:00 8.13333 C 8.17 g/m*3 8.13 C 4.55 km/h
1806 14-11-2021 11:00:00 8.55 C 8.32 g/m*3 7.57 C 6.85833 km/h
1807 14-11-2021 12:00:00 9.03333 C 8.47 g/m*3 9.03 C 3.33333 km/h
1808 14-11-2021 13:00:00 9.43333 C 8.5 g/m*3 9.43 C 3.06667 km/h
1809 14-11-2021 14:00:00 9.75833 C 8.58 g/m*3 9.76 C 0.4 km/h
1810 14-11-2021 15:00:00 9.65833 C 8.57 g/m*3 9.66 C 1.46667 km/h
1811 14-11-2021 16:00:00 9.25833 C 8.44 g/m*3 9.26 C 0 km/h
1812 14-11-2021 17:00:00 8.79167 C 8.26 g/m*3 8.79 C 0 km/h
1813 14-11-2021 18:00:00 8.45833 C 8.16 g/m*3 8.46 C 0 km/h
1814 14-11-2021 19:00:00 8.50833 C 8.2 g/m*3 8.51 C 0 km/h
1815 14-11-2021 20:00:00 8.4 C 8.14 g/m*3 8.4 C 0.26667 km/h
1816 14-11-2021 21:00:00 8.29167 C 8.09 g/m*3 8.29 C 0.66667 km/h
1817 14-11-2021 22:00:00 8.18333 C 8 g/m*3 8.18 C 1.46667 km/h
1818 14-11-2021 23:00:00 8.11667 C 7.91 g/m*3 8.12 C 2.00833 km/h
1819 15-11-2021 00:00:00 8.00833 C 7.85 g/m*3 8.01 C 0.93333 km/h
1820 15-11-2021 01:00:00 7.9 C 7.67 g/m*3 7.9 C 1.875 km/h
1821 15-11-2021 02:00:00 7.83333 C 7.69 g/m*3 7.83 C 0.26667 km/h
1822 15-11-2021 03:00:00 7.85 C 7.57 g/m*3 7.85 C 3.21667 km/h
1823 15-11-2021 04:00:00 7.85833 C 7.55 g/m*3 7.86 C 2.54167 km/h
1824 15-11-2021 05:00:00 7.73333 C 7.56 g/m*3 7.73 C 2.26667 km/h
1825 15-11-2021 06:00:00 7.7 C 7.57 g/m*3 7.7 C 1.73333 km/h
Sensor: Nr:Datum:Temp:Abs-Feuchte:Windchill:Wind:
Aussen-T/F 1826 15-11-2021 07:00:00 7.60833 C 7.53 g/m*3 7.61 C 1.73333 km/h
1827 15-11-2021 08:00:00 7.48333 C 7.47 g/m*3 7.48 C 1.34167 km/h
1828 15-11-2021 09:00:00 7.59167 C 7.39 g/m*3 6.95 C 5.225 km/h
1829 15-11-2021 10:00:00 7.7 C 7.24 g/m*3 6.2 C 8.46667 km/h
1830 15-11-2021 11:00:00 7.63333 C 7.19 g/m*3 6.31 C 7.66667 km/h
1831 15-11-2021 12:00:00 7.4 C 7.22 g/m*3 6.24 C 6.84167 km/h
1832 15-11-2021 13:00:00 7.2 C 7.22 g/m*3 6.28 C 5.90833 km/h
1833 15-11-2021 14:00:00 7.10833 C 7.13 g/m*3 5.79 C 7.25833 km/h
1834 15-11-2021 15:00:00 7.19167 C 7.14 g/m*3 7.19 C 3.34167 km/h
1835 15-11-2021 16:00:00 7.09167 C 7.14 g/m*3 7.09 C 0.93333 km/h
1836 15-11-2021 17:00:00 6.85 C 7.06 g/m*3 6.85 C 0.13333 km/h
1837 15-11-2021 18:00:00 6.74167 C 7.08 g/m*3 6.74 C 0.13333 km/h
1838 15-11-2021 19:00:00 6.69167 C 7.09 g/m*3 6.69 C 0 km/h
1839 15-11-2021 20:00:00 6.6 C 7.1 g/m*3 6.6 C 0 km/h
1840 15-11-2021 21:00:00 6.54167 C 7.11 g/m*3 6.54 C 0 km/h
1841 15-11-2021 22:00:00 6.4 C 7.07 g/m*3 6.4 C 0 km/h
1842 15-11-2021 23:00:00 6.31667 C 7.04 g/m*3 6.32 C 0 km/h
1843 16-11-2021 00:00:00 6.25 C 7.01 g/m*3 6.25 C 0 km/h
1844 16-11-2021 01:00:00 6.175 C 7.02 g/m*3 6.18 C 0 km/h
1845 16-11-2021 02:00:00 6.1 C 7.01 g/m*3 6.1 C 0 km/h
1846 16-11-2021 03:00:00 6.04167 C 6.99 g/m*3 6.04 C 0 km/h
1847 16-11-2021 04:00:00 5.96667 C 6.95 g/m*3 5.97 C 0 km/h
1848 16-11-2021 05:00:00 5.93333 C 6.94 g/m*3 5.93 C 0 km/h
1849 16-11-2021 06:00:00 5.9 C 6.92 g/m*3 5.9 C 0 km/h
1850 16-11-2021 07:00:00 5.9 C 6.92 g/m*3 5.9 C 0 km/h
Sensor: Nr:Datum:Temp:Abs-Feuchte:Windchill:Wind:
Aussen-T/F 1851 16-11-2021 08:00:00 5.9 C 6.92 g/m*3 5.9 C 0 km/h
1852 16-11-2021 09:00:00 6.025 C 6.98 g/m*3 6.03 C 0 km/h
1853 16-11-2021 10:00:00 6.24167 C 7.09 g/m*3 6.24 C 0 km/h
1854 16-11-2021 11:00:00 6.4 C 7.18 g/m*3 6.4 C 0 km/h
1855 16-11-2021 12:00:00 6.41667 C 7.16 g/m*3 6.42 C 0.8 km/h
1856 16-11-2021 13:00:00 6.40833 C 7.15 g/m*3 6.41 C 0 km/h
1857 16-11-2021 14:00:00 6.325 C 7.06 g/m*3 6.33 C 0 km/h
1858 16-11-2021 15:00:00 6.3 C 7.05 g/m*3 6.3 C 0 km/h
1859 16-11-2021 16:00:00 6.16667 C 7.02 g/m*3 6.17 C 0.13333 km/h
1860 16-11-2021 17:00:00 5.8 C 6.86 g/m*3 5.8 C 0 km/h
1861 16-11-2021 18:00:00 5.7 C 6.83 g/m*3 5.7 C 0 km/h
1862 16-11-2021 19:00:00 5.7 C 6.83 g/m*3 5.7 C 0 km/h
1863 16-11-2021 20:00:00 5.6 C 6.79 g/m*3 5.6 C 0.13333 km/h
1864 16-11-2021 21:00:00 5.58333 C 6.78 g/m*3 5.58 C 0 km/h
1865 16-11-2021 22:00:00 5.525 C 6.75 g/m*3 5.53 C 0 km/h
1866 16-11-2021 23:00:00 5.41667 C 6.71 g/m*3 5.42 C 0 km/h
1867 17-11-2021 00:00:00 5.4 C 6.7 g/m*3 5.4 C 0 km/h
1868 17-11-2021 01:00:00 5.4 C 6.7 g/m*3 5.4 C 0 km/h
1869 17-11-2021 02:00:00 5.38333 C 6.72 g/m*3 5.38 C 0.4 km/h
1870 17-11-2021 03:00:00 5.26667 C 6.64 g/m*3 5.27 C 0.53333 km/h
1871 17-11-2021 04:00:00 4.925 C 6.49 g/m*3 4.93 C 2.26667 km/h
1872 17-11-2021 05:00:00 4.8 C 6.44 g/m*3 4.8 C 2.8 km/h
1873 17-11-2021 06:00:00 4.81667 C 6.44 g/m*3 4.82 C 4.00833 km/h
1874 17-11-2021 07:00:00 4.9 C 6.48 g/m*3 4.9 C 2.13333 km/h
1875 17-11-2021 08:00:00 5.09167 C 6.53 g/m*3 5.09 C 4.26667 km/h
Sensor: Nr:Datum:Temp:Abs-Feuchte:Windchill:Wind:
Aussen-T/F 1876 17-11-2021 09:00:00 5.6 C 6.72 g/m*3 5.6 C 3.06667 km/h
1877 17-11-2021 10:00:00 6.44167 C 7 g/m*3 5.25 C 6.44167 km/h
1878 17-11-2021 11:00:00 7.29167 C 7.21 g/m*3 5.87 C 7.8 km/h
1879 17-11-2021 12:00:00 7.85833 C 7.3 g/m*3 6.24 C 9.15833 km/h
1880 17-11-2021 13:00:00 7.875 C 7.38 g/m*3 6.63 C 7.51667 km/h
1881 17-11-2021 14:00:00 7.59167 C 7.47 g/m*3 7.59 C 3.61667 km/h
1882 17-11-2021 15:00:00 7.65 C 7.5 g/m*3 5.81 C 10.09167 km/h
1883 17-11-2021 16:00:00 8.04167 C 7.63 g/m*3 6.15 C 10.75833 km/h
1884 17-11-2021 17:00:00 7.88333 C 7.6 g/m*3 5.89 C 11.16667 km/h
1885 17-11-2021 18:00:00 8.00833 C 7.71 g/m*3 6 C 11.43333 km/h
1886 17-11-2021 19:00:00 7.96667 C 7.73 g/m*3 6.26 C 9.69167 km/h
1887 17-11-2021 20:00:00 7.50833 C 7.51 g/m*3 6.52 C 6.30833 km/h
1888 17-11-2021 21:00:00 6.69167 C 7.16 g/m*3 5.97 C 5.08333 km/h
1889 17-11-2021 22:00:00 6.025 C 6.91 g/m*3 6.03 C 3.74167 km/h
1890 17-11-2021 23:00:00 5.20833 C 6.55 g/m*3 5.21 C 2.93333 km/h
1891 18-11-2021 00:00:00 5.04167 C 6.54 g/m*3 5.04 C 2.93333 km/h
1892 18-11-2021 01:00:00 5.4 C 6.73 g/m*3 5.4 C 3.46667 km/h
1893 18-11-2021 02:00:00 5.30833 C 6.68 g/m*3 5.31 C 3.86667 km/h
1894 18-11-2021 03:00:00 5.39167 C 6.75 g/m*3 5.39 C 4.40833 km/h
1895 18-11-2021 04:00:00 4.9 C 6.5 g/m*3 4.9 C 3.875 km/h
1896 18-11-2021 05:00:00 4.95 C 6.54 g/m*3 4.95 C 4.275 km/h
1897 18-11-2021 06:00:00 3.99167 C 6.11 g/m*3 3.99 C 1.33333 km/h
1898 18-11-2021 07:00:00 2.98333 C 5.7 g/m*3 2.98 C 0 km/h
1899 18-11-2021 08:00:00 2.975 C 5.74 g/m*3 2.98 C 0.26667 km/h
1900 18-11-2021 09:00:00 4.55 C 6.42 g/m*3 4.55 C 0.66667 km/h
Sensor: Nr:Datum:Temp:Abs-Feuchte:Windchill:Wind:
Aussen-T/F 1901 18-11-2021 10:00:00 6.15 C 7.16 g/m*3 6.15 C 0.66667 km/h
1902 18-11-2021 11:00:00 7.03333 C 7.54 g/m*3 7.03 C 3.88333 km/h
1903 18-11-2021 12:00:00 7.71667 C 7.68 g/m*3 6.37 C 7.8 km/h
1904 18-11-2021 13:00:00 8.23333 C 7.57 g/m*3 6.83 C 8.475 km/h
1905 18-11-2021 14:00:00 8.65 C 7.6 g/m*3 7.38 C 8.2 km/h
1906 18-11-2021 15:00:00 8.33333 C 7.5 g/m*3 7.71 C 5.49167 km/h
1907 18-11-2021 16:00:00 7.49167 C 7.22 g/m*3 6.35 C 6.825 km/h
1908 18-11-2021 17:00:00 6.48333 C 6.91 g/m*3 5.6 C 5.48333 km/h
1909 18-11-2021 18:00:00 6.06667 C 6.79 g/m*3 6.07 C 3.2 km/h
1910 18-11-2021 19:00:00 6.29167 C 7.01 g/m*3 5.03 C 6.575 km/h
1911 18-11-2021 20:00:00 5.88333 C 6.78 g/m*3 5.88 C 0.13333 km/h
1912 18-11-2021 21:00:00 6 C 6.95 g/m*3 6 C 0.8 km/h
1913 18-11-2021 22:00:00 6.575 C 7.24 g/m*3 6.58 C 1.33333 km/h
1914 18-11-2021 23:00:00 7.4 C 7.55 g/m*3 6.47 C 6.03333 km/h
1915 19-11-2021 00:00:00 7.76667 C 7.59 g/m*3 7.77 C 4.40833 km/h
1916 19-11-2021 01:00:00 7.83333 C 7.54 g/m*3 6.93 C 6.15833 km/h
1917 19-11-2021 02:00:00 7.45833 C 7.43 g/m*3 7.46 C 4.29167 km/h
1918 19-11-2021 03:00:00 7.65 C 7.58 g/m*3 6.29 C 7.80833 km/h
1919 19-11-2021 04:00:00 8.06667 C 7.72 g/m*3 6.6 C 8.60833 km/h
1920 19-11-2021 05:00:00 8.19167 C 7.78 g/m*3 6.72 C 8.76667 km/h
1921 19-11-2021 06:00:00 8.2 C 7.79 g/m*3 6.84 C 8.21667 km/h
1922 19-11-2021 07:00:00 8.2 C 7.86 g/m*3 6.64 C 9.16667 km/h
1923 19-11-2021 08:00:00 8.23333 C 7.95 g/m*3 6.86 C 8.33333 km/h
1924 19-11-2021 09:00:00 8.41667 C 8.1 g/m*3 6.7 C 10.23333 km/h
1925 19-11-2021 10:00:00 8.93333 C 8.36 g/m*3 7.13 C 11.3 km/h
Sensor: Nr:Datum:Temp:Abs-Feuchte:Windchill:Wind:
Aussen-T/F 1926 19-11-2021 11:00:00 9.68333 C 8.57 g/m*3 7.8 C 12.9 km/h
1927 19-11-2021 12:00:00 10.21667 C 8.7 g/m*3 8.45 C 12.9 km/h
1928 19-11-2021 13:00:00 10.65833 C 8.78 g/m*3 8.95 C 13.16667 km/h
1929 19-11-2021 14:00:00 10.58333 C 8.74 g/m*3 9.16 C 11.03333 km/h
1930 19-11-2021 15:00:00 10.225 C 8.73 g/m*3 8.91 C 9.95833 km/h
1931 19-11-2021 16:00:00 10.3 C 8.71 g/m*3 9.43 C 7.66667 km/h
1932 19-11-2021 17:00:00 10.16667 C 8.68 g/m*3 9.59 C 6.28333 km/h
1933 19-11-2021 18:00:00 9.96667 C 8.65 g/m*3 9.97 C 4.14167 km/h
1934 19-11-2021 19:00:00 10.01667 C 8.69 g/m*3 9.42 C 6.28333 km/h
1935 19-11-2021 20:00:00 10.01667 C 8.65 g/m*3 10.02 C 4.66667 km/h
1936 19-11-2021 21:00:00 9.95 C 8.63 g/m*3 9.95 C 2.8 km/h
1937 19-11-2021 22:00:00 9.8 C 8.62 g/m*3 9.8 C 2.54167 km/h
1938 19-11-2021 23:00:00 9.71667 C 8.58 g/m*3 9.72 C 1.2 km/h
1939 20-11-2021 00:00:00 9.65 C 8.55 g/m*3 9.65 C 1.875 km/h
1940 20-11-2021 01:00:00 9.68333 C 8.56 g/m*3 9.68 C 2.13333 km/h
1941 20-11-2021 02:00:00 9.60833 C 8.52 g/m*3 9.61 C 1.6 km/h
1942 20-11-2021 03:00:00 9.49167 C 8.46 g/m*3 9.49 C 2.53333 km/h
1943 20-11-2021 04:00:00 9.375 C 8.4 g/m*3 9.38 C 2.13333 km/h
1944 20-11-2021 05:00:00 9.25 C 8.34 g/m*3 9.25 C 1.2 km/h
1945 20-11-2021 06:00:00 9.14167 C 8.36 g/m*3 9.14 C 1.73333 km/h
1946 20-11-2021 07:00:00 9.1 C 8.34 g/m*3 9.1 C 2.93333 km/h
1947 20-11-2021 08:00:00 9.1 C 8.34 g/m*3 9.1 C 2.26667 km/h
1948 20-11-2021 09:00:00 9.31667 C 8.46 g/m*3 9.32 C 1.6 km/h
1949 20-11-2021 10:00:00 9.73333 C 8.58 g/m*3 9.73 C 0.53333 km/h
1950 20-11-2021 11:00:00 10.16667 C 8.5 g/m*3 10.17 C 2.13333 km/h
Sensor: Nr:Datum:Temp:Abs-Feuchte:Windchill:Wind:
Aussen-T/F 1951 20-11-2021 12:00:00 10.66667 C 8.2 g/m*3 10.67 C 3.46667 km/h
1952 20-11-2021 13:00:00 10.88333 C 8.11 g/m*3 10.88 C 4 km/h
1953 20-11-2021 14:00:00 10.95 C 8.05 g/m*3 10.95 C 1.73333 km/h
1954 20-11-2021 15:00:00 10.73333 C 8.09 g/m*3 10.73 C 0 km/h
1955 20-11-2021 16:00:00 8.4 C 7.44 g/m*3 8.4 C 0.4 km/h
1956 20-11-2021 17:00:00 6.40833 C 6.79 g/m*3 6.41 C 0.13333 km/h
1957 20-11-2021 18:00:00 5.11667 C 6.37 g/m*3 5.12 C 0 km/h
1958 20-11-2021 19:00:00 4.13333 C 6.03 g/m*3 4.13 C 0 km/h
1959 20-11-2021 20:00:00 3.51667 C 5.83 g/m*3 3.52 C 0 km/h
1960 20-11-2021 21:00:00 2.875 C 5.6 g/m*3 2.88 C 0 km/h
1961 20-11-2021 22:00:00 3.00833 C 5.69 g/m*3 3.01 C 1.46667 km/h
1962 20-11-2021 23:00:00 4.81667 C 6.51 g/m*3 4.82 C 3.06667 km/h
1963 21-11-2021 00:00:00 5.88333 C 6.99 g/m*3 5.88 C 4.94167 km/h
1964 21-11-2021 01:00:00 6.05833 C 7.07 g/m*3 6.06 C 2.53333 km/h
1965 21-11-2021 02:00:00 6.1 C 7.08 g/m*3 6.1 C 3.86667 km/h
1966 21-11-2021 03:00:00 6.11667 C 7.02 g/m*3 6.12 C 4.26667 km/h
1967 21-11-2021 04:00:00 6.2 C 7.06 g/m*3 5.06 C 6.15 km/h
1968 21-11-2021 05:00:00 6.31667 C 7.05 g/m*3 5.15 C 6.28333 km/h
1969 21-11-2021 06:00:00 6.425 C 7.02 g/m*3 6.43 C 4.675 km/h
1970 21-11-2021 07:00:00 6.5 C 7.06 g/m*3 5.44 C 6.03333 km/h
1971 21-11-2021 08:00:00 6.56667 C 7.12 g/m*3 4.93 C 8.19167 km/h
1972 21-11-2021 09:00:00 6.85 C 7.18 g/m*3 5.39 C 7.65 km/h
1973 21-11-2021 10:00:00 7.55833 C 7.37 g/m*3 6.32 C 7.24167 km/h
1974 21-11-2021 11:00:00 8.16667 C 7.47 g/m*3 6.75 C 8.48333 km/h
1975 21-11-2021 12:00:00 8.125 C 7.5 g/m*3 6.98 C 7.25 km/h
Sensor: Nr:Datum:Temp:Abs-Feuchte:Windchill:Wind:
Aussen-T/F 1976 21-11-2021 13:00:00 7.86667 C 7.64 g/m*3 7.27 C 5.20833 km/h
1977 21-11-2021 14:00:00 7.775 C 7.72 g/m*3 7.78 C 4.13333 km/h
1978 21-11-2021 15:00:00 7.55833 C 7.65 g/m*3 7.56 C 1.6 km/h
1979 21-11-2021 16:00:00 7.54167 C 7.7 g/m*3 7.54 C 0 km/h
1980 21-11-2021 17:00:00 7.28333 C 7.58 g/m*3 7.28 C 0 km/h
1981 21-11-2021 18:00:00 7.20833 C 7.54 g/m*3 7.21 C 0 km/h
1982 21-11-2021 19:00:00 7.075 C 7.47 g/m*3 7.08 C 0 km/h
1983 21-11-2021 20:00:00 6.80833 C 7.35 g/m*3 6.81 C 0 km/h
1984 21-11-2021 21:00:00 6.9 C 7.42 g/m*3 6.9 C 0 km/h
1985 21-11-2021 22:00:00 6.76667 C 7.34 g/m*3 6.77 C 0 km/h
1986 21-11-2021 23:00:00 6.475 C 7.24 g/m*3 6.48 C 1.60833 km/h
1987 22-11-2021 00:00:00 6.34167 C 7.16 g/m*3 6.34 C 0.66667 km/h
1988 22-11-2021 01:00:00 5.8 C 6.89 g/m*3 5.8 C 0.13333 km/h
1989 22-11-2021 02:00:00 5.625 C 6.83 g/m*3 5.63 C 1.33333 km/h
1990 22-11-2021 03:00:00 5.10833 C 6.58 g/m*3 5.11 C 0.13333 km/h
1991 22-11-2021 04:00:00 4.025 C 6.11 g/m*3 4.03 C 0.53333 km/h
1992 22-11-2021 05:00:00 4.36667 C 6.32 g/m*3 4.37 C 0.66667 km/h
1993 22-11-2021 06:00:00 4.625 C 6.43 g/m*3 4.63 C 1.2 km/h
1994 22-11-2021 07:00:00 4.65 C 6.42 g/m*3 4.65 C 0.8 km/h
1995 22-11-2021 08:00:00 4.68333 C 6.41 g/m*3 4.68 C 0 km/h
1996 22-11-2021 09:00:00 4.99167 C 6.58 g/m*3 4.99 C 0.8 km/h
1997 22-11-2021 10:00:00 5.48333 C 6.72 g/m*3 5.48 C 2.93333 km/h
1998 22-11-2021 11:00:00 6.24167 C 6.71 g/m*3 4.51 C 8.33333 km/h
1999 22-11-2021 12:00:00 6.825 C 6.59 g/m*3 5.13 C 8.61667 km/h
2000 22-11-2021 13:00:00 7.30833 C 6.42 g/m*3 5.38 C 10.20833 km/h
Sensor: Nr:Datum:Temp:Abs-Feuchte:Windchill:Wind:
Aussen-T/F 2001 22-11-2021 14:00:00 7.15 C 6.32 g/m*3 6.4 C 5.36667 km/h
2002 22-11-2021 15:00:00 7.01667 C 6.3 g/m*3 7.02 C 4.425 km/h
2003 22-11-2021 16:00:00 5.98333 C 6.08 g/m*3 5.98 C 2.4 km/h
2004 22-11-2021 17:00:00 3.73333 C 5.56 g/m*3 3.73 C 2 km/h
2005 22-11-2021 18:00:00 2.48333 C 5.26 g/m*3 2.48 C 0.66667 km/h
2006 22-11-2021 19:00:00 1.43333 C 4.94 g/m*3 1.43 C 0 km/h
2007 22-11-2021 20:00:00 0.55833 C 4.72 g/m*3 0.56 C 0 km/h
2008 22-11-2021 21:00:00 -0.075 C 4.53 g/m*3 -0.08 C 0 km/h
2009 22-11-2021 22:00:00 -0.26667 C 4.51 g/m*3 -0.27 C 0 km/h
2010 22-11-2021 23:00:00 -0.74167 C 4.37 g/m*3 -0.74 C 0 km/h
2011 23-11-2021 00:00:00 -1.2 C 4.24 g/m*3 -1.2 C 0 km/h
2012 23-11-2021 01:00:00 -1.46667 C 4.16 g/m*3 -1.47 C 0 km/h
2013 23-11-2021 02:00:00 -1.725 C 4.08 g/m*3 -1.73 C 0 km/h
2014 23-11-2021 03:00:00 -2.08333 C 3.98 g/m*3 -2.08 C 0 km/h
2015 23-11-2021 04:00:00 -2.19167 C 3.98 g/m*3 -2.19 C 0 km/h
2016 23-11-2021 05:00:00 -2.075 C 4.03 g/m*3 -2.08 C 0 km/h
2017 23-11-2021 06:00:00 -1.525 C 4.18 g/m*3 -1.53 C 0 km/h
2018 23-11-2021 07:00:00 -1.06667 C 4.32 g/m*3 -1.07 C 0 km/h
2019 23-11-2021 08:00:00 -0.9 C 4.37 g/m*3 -0.9 C 0 km/h
2020 23-11-2021 09:00:00 -1.01667 C 4.33 g/m*3 -1.02 C 0 km/h
2021 23-11-2021 10:00:00 -0.8 C 4.43 g/m*3 -0.8 C 0 km/h
2022 23-11-2021 11:00:00 -0.20833 C 4.63 g/m*3 -0.21 C 0 km/h
2023 23-11-2021 12:00:00 0.68333 C 4.93 g/m*3 0.68 C 0 km/h
2024 23-11-2021 13:00:00 1.50833 C 5.21 g/m*3 1.51 C 0 km/h
2025 23-11-2021 14:00:00 2.225 C 5.47 g/m*3 2.23 C 0 km/h
Sensor: Nr:Datum:Temp:Abs-Feuchte:Windchill:Wind:
Aussen-T/F 2026 23-11-2021 15:00:00 2.88333 C 5.64 g/m*3 2.88 C 0 km/h
2027 23-11-2021 16:00:00 3.29167 C 5.76 g/m*3 3.29 C 0 km/h
2028 23-11-2021 17:00:00 3.24167 C 5.74 g/m*3 3.24 C 0 km/h
2029 23-11-2021 18:00:00 3.375 C 5.79 g/m*3 3.38 C 0 km/h
2030 23-11-2021 19:00:00 3.63333 C 5.89 g/m*3 3.63 C 0 km/h
2031 23-11-2021 20:00:00 3.825 C 6.02 g/m*3 3.83 C 0 km/h
2032 23-11-2021 21:00:00 3.95833 C 6.03 g/m*3 3.96 C 0 km/h
2033 23-11-2021 22:00:00 4.08333 C 6.11 g/m*3 4.08 C 0 km/h
2034 23-11-2021 23:00:00 4.1 C 6.14 g/m*3 4.1 C 0 km/h
2035 24-11-2021 00:00:00 4.1 C 6.14 g/m*3 4.1 C 0 km/h
2036 24-11-2021 01:00:00 4.16667 C 6.17 g/m*3 4.17 C 0 km/h
2037 24-11-2021 02:00:00 4.23333 C 6.2 g/m*3 4.23 C 0 km/h
2038 24-11-2021 03:00:00 4.175 C 6.18 g/m*3 4.18 C 0 km/h
2039 24-11-2021 04:00:00 3.91667 C 6.07 g/m*3 3.92 C 0 km/h
2040 24-11-2021 05:00:00 3.95 C 6.08 g/m*3 3.95 C 0 km/h
2041 24-11-2021 06:00:00 3.88333 C 6.06 g/m*3 3.88 C 0 km/h
2042 24-11-2021 07:00:00 3.8 C 6.02 g/m*3 3.8 C 0 km/h
2043 24-11-2021 08:00:00 3.73333 C 6 g/m*3 3.73 C 0 km/h
2044 24-11-2021 09:00:00 3.96667 C 6.09 g/m*3 3.97 C 0 km/h
2045 24-11-2021 10:00:00 4.5 C 6.31 g/m*3 4.5 C 0 km/h
2046 24-11-2021 11:00:00 5.125 C 6.51 g/m*3 5.13 C 0 km/h
2047 24-11-2021 12:00:00 5.69167 C 6.58 g/m*3 5.69 C 0 km/h
2048 24-11-2021 13:00:00 6.40833 C 6.52 g/m*3 6.41 C 2.01667 km/h
2049 24-11-2021 14:00:00 6.80833 C 6.21 g/m*3 6.81 C 3.2 km/h
2050 24-11-2021 15:00:00 6.7 C 6.09 g/m*3 6.7 C 3.06667 km/h
Sensor: Nr:Datum:Temp:Abs-Feuchte:Windchill:Wind:
Aussen-T/F 2051 24-11-2021 16:00:00 6.00833 C 6.06 g/m*3 6.01 C 0 km/h
2052 24-11-2021 17:00:00 3.78333 C 5.46 g/m*3 3.78 C 1.6 km/h
2053 24-11-2021 18:00:00 2.31667 C 5.14 g/m*3 2.32 C 0.93333 km/h
2054 24-11-2021 19:00:00 1.98333 C 5.13 g/m*3 1.98 C 0 km/h
2055 24-11-2021 20:00:00 0.4 C 4.61 g/m*3 0.4 C 0 km/h
2056 24-11-2021 21:00:00 -0.28333 C 4.47 g/m*3 -0.28 C 0 km/h
2057 24-11-2021 22:00:00 0.03333 C 4.61 g/m*3 0.03 C 0 km/h
2058 24-11-2021 23:00:00 1.05833 C 5 g/m*3 1.06 C 0 km/h
2059 25-11-2021 00:00:00 1.45 C 5.13 g/m*3 1.45 C 0.13333 km/h
2060 25-11-2021 01:00:00 1.675 C 5.22 g/m*3 1.68 C 0 km/h
2061 25-11-2021 02:00:00 1.8 C 5.26 g/m*3 1.8 C 0 km/h
2062 25-11-2021 03:00:00 1.89167 C 5.3 g/m*3 1.89 C 0 km/h
2063 25-11-2021 04:00:00 2.04167 C 5.35 g/m*3 2.04 C 0 km/h
2064 25-11-2021 05:00:00 2.175 C 5.4 g/m*3 2.17 C 0 km/h
2065 25-11-2021 06:00:00 2.20833 C 5.41 g/m*3 2.21 C 0 km/h
2066 25-11-2021 07:00:00 2.26667 C 5.43 g/m*3 2.27 C 0 km/h
2067 25-11-2021 08:00:00 2.28333 C 5.44 g/m*3 2.28 C 0 km/h
2068 25-11-2021 09:00:00 2.625 C 5.57 g/m*3 2.63 C 0 km/h
2069 25-11-2021 10:00:00 3 C 5.7 g/m*3 3 C 0 km/h
2070 25-11-2021 11:00:00 3.55 C 5.83 g/m*3 3.55 C 0.53333 km/h
2071 25-11-2021 12:00:00 4.38333 C 5.88 g/m*3 4.38 C 0.13333 km/h
2072 25-11-2021 13:00:00 4.95833 C 5.71 g/m*3 4.96 C 0 km/h
2073 25-11-2021 14:00:00 4.94167 C 5.66 g/m*3 4.94 C 0 km/h
2074 25-11-2021 15:00:00 4.6 C 5.74 g/m*3 4.6 C 0 km/h
2075 25-11-2021 16:00:00 4.36667 C 5.69 g/m*3 4.37 C 0 km/h
Sensor: Nr:Datum:Temp:Abs-Feuchte:Windchill:Wind:
Aussen-T/F 2076 25-11-2021 17:00:00 3.93333 C 5.64 g/m*3 3.93 C 0 km/h
2077 25-11-2021 18:00:00 3.875 C 5.67 g/m*3 3.88 C 0 km/h
2078 25-11-2021 19:00:00 3.98333 C 5.7 g/m*3 3.98 C 0 km/h
2079 25-11-2021 20:00:00 4.10833 C 5.7 g/m*3 4.11 C 0.13333 km/h
2080 25-11-2021 21:00:00 4.06667 C 5.68 g/m*3 4.07 C 0 km/h
2081 25-11-2021 22:00:00 3.7 C 5.63 g/m*3 3.7 C 0.26667 km/h
2082 25-11-2021 23:00:00 3.86667 C 5.63 g/m*3 3.87 C 2.13333 km/h
2083 26-11-2021 00:00:00 3.7 C 5.64 g/m*3 3.7 C 0 km/h
2084 26-11-2021 01:00:00 3.625 C 5.74 g/m*3 3.63 C 0.26667 km/h
2085 26-11-2021 02:00:00 3.13333 C 5.62 g/m*3 3.13 C 0.53333 km/h
2086 26-11-2021 03:00:00 2.98333 C 5.63 g/m*3 2.98 C 1.2 km/h
2087 26-11-2021 04:00:00 2.80833 C 5.58 g/m*3 2.81 C 0.53333 km/h
2088 26-11-2021 05:00:00 2.725 C 5.55 g/m*3 2.73 C 0.66667 km/h
2089 26-11-2021 06:00:00 2.925 C 5.62 g/m*3 2.93 C 0.93333 km/h
2090 26-11-2021 07:00:00 2.56667 C 5.48 g/m*3 2.57 C 2.26667 km/h
2091 26-11-2021 08:00:00 2.98333 C 5.66 g/m*3 1.6 C 5.49167 km/h
2092 26-11-2021 09:00:00 3.75833 C 5.87 g/m*3 2.24 C 6.15 km/h
2093 26-11-2021 10:00:00 4.53333 C 6.01 g/m*3 1.94 C 10.75833 km/h
2094 26-11-2021 11:00:00 4.85 C 6.01 g/m*3 2.13 C 11.7 km/h
2095 26-11-2021 12:00:00 4.99167 C 6 g/m*3 2.16 C 12.5 km/h
2096 26-11-2021 13:00:00 5.25 C 5.96 g/m*3 3.09 C 9.41667 km/h
2097 26-11-2021 14:00:00 5.33333 C 5.8 g/m*3 2.84 C 11.03333 km/h
2098 26-11-2021 15:00:00 5.075 C 5.71 g/m*3 3.04 C 8.74167 km/h
2099 26-11-2021 16:00:00 4.69167 C 5.63 g/m*3 2.65 C 8.46667 km/h
2100 26-11-2021 17:00:00 4.63333 C 5.5 g/m*3 3.08 C 6.7 km/h
Sensor: Nr:Datum:Temp:Abs-Feuchte:Windchill:Wind:
Aussen-T/F 2101 26-11-2021 18:00:00 4.5 C 5.44 g/m*3 2.87 C 6.86667 km/h
2102 26-11-2021 19:00:00 4.43333 C 5.49 g/m*3 4.43 C 4.825 km/h
2103 26-11-2021 20:00:00 4.38333 C 5.65 g/m*3 3.19 C 5.49167 km/h
2104 26-11-2021 21:00:00 4.28333 C 5.75 g/m*3 4.28 C 4.55833 km/h
2105 26-11-2021 22:00:00 3.66667 C 5.65 g/m*3 3.67 C 4.14167 km/h
2106 26-11-2021 23:00:00 3.46667 C 5.66 g/m*3 3.47 C 1.06667 km/h
2107 27-11-2021 00:00:00 3.35833 C 5.66 g/m*3 3.36 C 0.4 km/h
2108 27-11-2021 01:00:00 3.35 C 5.66 g/m*3 3.35 C 0.66667 km/h
2109 27-11-2021 02:00:00 3.45 C 5.7 g/m*3 3.45 C 1.33333 km/h
2110 27-11-2021 03:00:00 3.61667 C 5.76 g/m*3 3.62 C 2.80833 km/h
2111 27-11-2021 04:00:00 3.675 C 5.77 g/m*3 2.29 C 5.75 km/h
2112 27-11-2021 05:00:00 3.09167 C 5.55 g/m*3 1.83 C 5.20833 km/h
2113 27-11-2021 06:00:00 3.41667 C 5.71 g/m*3 1.8 C 6.29167 km/h
2114 27-11-2021 07:00:00 3.55833 C 5.77 g/m*3 2.01 C 6.15833 km/h
2115 27-11-2021 08:00:00 3.30833 C 5.71 g/m*3 1.87 C 5.74167 km/h
2116 27-11-2021 09:00:00 2.825 C 5.52 g/m*3 2.83 C 4.13333 km/h
2117 27-11-2021 10:00:00 2.71667 C 5.51 g/m*3 2.72 C 4.29167 km/h
2118 27-11-2021 11:00:00 3.51667 C 5.68 g/m*3 0.84 C 10.2 km/h
2119 27-11-2021 12:00:00 4.425 C 5.61 g/m*3 1.4 C 12.89167 km/h
2120 27-11-2021 13:00:00 4.525 C 5.43 g/m*3 2.1 C 9.95833 km/h
2121 27-11-2021 14:00:00 4.5 C 5.3 g/m*3 2.64 C 7.66667 km/h
2122 27-11-2021 15:00:00 4.125 C 5.36 g/m*3 4.13 C 3.86667 km/h
2123 27-11-2021 16:00:00 2.8 C 5.06 g/m*3 2.8 C 1.86667 km/h
2124 27-11-2021 17:00:00 0.83333 C 4.68 g/m*3 0.83 C 1.46667 km/h
2125 27-11-2021 18:00:00 0.24167 C 4.59 g/m*3 0.24 C 0.8 km/h
Sensor: Nr:Datum:Temp:Abs-Feuchte:Windchill:Wind:
Aussen-T/F 2126 27-11-2021 19:00:00 0.025 C 4.56 g/m*3 0.03 C 0 km/h
2127 27-11-2021 20:00:00 0.15 C 4.63 g/m*3 0.15 C 0 km/h
2128 27-11-2021 21:00:00 0 C 4.61 g/m*3 0 C 0 km/h
2129 27-11-2021 22:00:00 0.43333 C 4.75 g/m*3 0.43 C 0 km/h
2130 27-11-2021 23:00:00 0.3 C 4.73 g/m*3 0.3 C 0 km/h
2131 28-11-2021 00:00:00 0.44167 C 4.79 g/m*3 0.44 C 0 km/h
2132 28-11-2021 01:00:00 0.825 C 4.92 g/m*3 0.83 C 0 km/h
2133 28-11-2021 02:00:00 1.10833 C 5.02 g/m*3 1.11 C 0 km/h
2134 28-11-2021 03:00:00 1.13333 C 5.03 g/m*3 1.13 C 0 km/h
2135 28-11-2021 04:00:00 1.175 C 5.04 g/m*3 1.18 C 0 km/h
2136 28-11-2021 05:00:00 1.325 C 5.09 g/m*3 1.33 C 0 km/h
2137 28-11-2021 06:00:00 1.65833 C 5.22 g/m*3 1.66 C 0 km/h
2138 28-11-2021 07:00:00 1.89167 C 5.33 g/m*3 1.89 C 0 km/h
2139 28-11-2021 08:00:00 2.16667 C 5.43 g/m*3 2.17 C 0 km/h
2140 28-11-2021 09:00:00 2.68333 C 5.63 g/m*3 2.68 C 0 km/h
2141 28-11-2021 10:00:00 3.25 C 5.86 g/m*3 3.25 C 0.26667 km/h
2142 28-11-2021 11:00:00 3.75833 C 6.02 g/m*3 3.76 C 0.4 km/h
2143 28-11-2021 12:00:00 4.26667 C 6.11 g/m*3 4.27 C 0.53333 km/h
2144 28-11-2021 13:00:00 3.64167 C 5.78 g/m*3 3.64 C 3.35833 km/h
2145 28-11-2021 14:00:00 3.15 C 5.66 g/m*3 3.15 C 0.26667 km/h
2146 28-11-2021 15:00:00 3.11667 C 5.69 g/m*3 3.12 C 0.26667 km/h
2147 28-11-2021 16:00:00 3.15833 C 5.71 g/m*3 3.16 C 1.86667 km/h
2148 28-11-2021 17:00:00 2.975 C 5.64 g/m*3 2.98 C 2.26667 km/h
2149 28-11-2021 18:00:00 2.78333 C 5.57 g/m*3 2.78 C 1.6 km/h
2150 28-11-2021 19:00:00 2.58333 C 5.54 g/m*3 2.58 C 0.93333 km/h
Sensor: Nr:Datum:Temp:Abs-Feuchte:Windchill:Wind:
Aussen-T/F 2151 28-11-2021 20:00:00 2.30833 C 5.45 g/m*3 2.31 C 1.46667 km/h
2152 28-11-2021 21:00:00 2.36667 C 5.47 g/m*3 2.37 C 0 km/h
2153 28-11-2021 22:00:00 2.64167 C 5.57 g/m*3 2.64 C 0.8 km/h
2154 28-11-2021 23:00:00 2.49167 C 5.52 g/m*3 2.49 C 2.93333 km/h
2155 29-11-2021 00:00:00 2.69167 C 5.59 g/m*3 1.21 C 5.625 km/h
2156 29-11-2021 01:00:00 1.95833 C 5.29 g/m*3 1.96 C 2.66667 km/h
2157 29-11-2021 02:00:00 1.85833 C 5.28 g/m*3 0.37 C 5.35 km/h
2158 29-11-2021 03:00:00 1.54167 C 5.14 g/m*3 1.54 C 4.15833 km/h
2159 29-11-2021 04:00:00 0.675 C 4.84 g/m*3 0.68 C 4.275 km/h
2160 29-11-2021 05:00:00 0.525 C 4.81 g/m*3 0.53 C 2 km/h
2161 29-11-2021 06:00:00 0.8 C 4.91 g/m*3 0.8 C 0 km/h
2162 29-11-2021 07:00:00 0.48333 C 4.81 g/m*3 0.48 C 1.46667 km/h
2163 29-11-2021 08:00:00 0.61667 C 4.85 g/m*3 -1.05 C 5.35 km/h
2164 29-11-2021 09:00:00 1.38333 C 5.09 g/m*3 -0.73 C 6.825 km/h
2165 29-11-2021 10:00:00 2.1 C 5.22 g/m*3 -0.48 C 8.75 km/h
2166 29-11-2021 11:00:00 3.125 C 5.41 g/m*3 0.07 C 11.56667 km/h
2167 29-11-2021 12:00:00 4.2 C 5.55 g/m*3 0.47 C 16.9 km/h
2168 29-11-2021 13:00:00 3.44167 C 5.61 g/m*3 0.4 C 11.83333 km/h
2169 29-11-2021 14:00:00 3.30833 C 5.69 g/m*3 1.54 C 6.7 km/h
2170 29-11-2021 15:00:00 3.4 C 5.74 g/m*3 2.13 C 5.35 km/h
2171 29-11-2021 16:00:00 3.35 C 5.72 g/m*3 3.35 C 3.73333 km/h
2172 29-11-2021 17:00:00 3.28333 C 5.7 g/m*3 3.28 C 2.94167 km/h
2173 29-11-2021 18:00:00 3.3 C 5.71 g/m*3 3.3 C 4.00833 km/h
2174 29-11-2021 19:00:00 3.14167 C 5.64 g/m*3 3.14 C 2.13333 km/h
2175 29-11-2021 20:00:00 2.91667 C 5.58 g/m*3 2.92 C 2.54167 km/h
Sensor: Nr:Datum:Temp:Abs-Feuchte:Windchill:Wind:
Aussen-T/F 2176 29-11-2021 21:00:00 3.25 C 5.71 g/m*3 1.85 C 5.625 km/h
2177 29-11-2021 22:00:00 3.3 C 5.76 g/m*3 1.8 C 5.90833 km/h
2178 29-11-2021 23:00:00 3.55 C 5.82 g/m*3 0.79 C 10.625 km/h
2179 30-11-2021 00:00:00 3.95833 C 5.75 g/m*3 0.15 C 17.03333 km/h
2180 30-11-2021 01:00:00 4.23333 C 5.65 g/m*3 0.46 C 17.3 km/h
2181 30-11-2021 02:00:00 3.91667 C 5.46 g/m*3 -0.21 C 19.30833 km/h
2182 30-11-2021 03:00:00 3.89167 C 5.42 g/m*3 0.13 C 16.63333 km/h
2183 30-11-2021 04:00:00 3.83333 C 5.44 g/m*3 0.48 C 13.96667 km/h
2184 30-11-2021 05:00:00 3.78333 C 5.62 g/m*3 -0.94 C 23.99167 km/h
2185 30-11-2021 06:00:00 3.425 C 5.63 g/m*3 -1.32 C 23.31667 km/h
2186 30-11-2021 07:00:00 3.50833 C 5.7 g/m*3 -1.44 C 25.34167 km/h
2187 30-11-2021 08:00:00 4.05833 C 5.82 g/m*3 -0.66 C 24.66667 km/h
2188 30-11-2021 09:00:00 4.475 C 5.97 g/m*3 -0.52 C 28.69167 km/h
2189 30-11-2021 10:00:00 5.13333 C 6.18 g/m*3 0.61 C 25.74167 km/h
2190 30-11-2021 11:00:00 5.43333 C 6.47 g/m*3 1.2 C 23.71667 km/h
2191 30-11-2021 12:00:00 5.73333 C 6.63 g/m*3 1.55 C 24.10833 km/h
2192 30-11-2021 13:00:00 6.15833 C 6.78 g/m*3 2.08 C 24.25 km/h
2193 30-11-2021 14:00:00 6.24167 C 6.9 g/m*3 2.14 C 24.65833 km/h
2194 30-11-2021 15:00:00 6.29167 C 6.95 g/m*3 2.64 C 20.5 km/h
2195 30-11-2021 16:00:00 6.29167 C 7.02 g/m*3 2.48 C 21.96667 km/h
2196 30-11-2021 17:00:00 6.44167 C 7.08 g/m*3 2.83 C 20.5 km/h
2197 30-11-2021 18:00:00 6.64167 C 7.17 g/m*3 3.31 C 18.5 km/h
2198 30-11-2021 19:00:00 6.84167 C 7.27 g/m*3 3.76 C 16.9 km/h
2199 30-11-2021 20:00:00 7.15 C 7.34 g/m*3 4.06 C 17.56667 km/h
2200 30-11-2021 21:00:00 7.41667 C 7.38 g/m*3 4.35 C 17.975 km/h
Sensor: Nr:Datum:Temp:Abs-Feuchte:Windchill:Wind:
Aussen-T/F 2201 30-11-2021 22:00:00 7.74167 C 7.41 g/m*3 4.19 C 23.31667 km/h
2202 30-11-2021 23:00:00 7.80833 C 7.4 g/m*3 4.13 C 24.925 km/h

Maximal/Minimal-Werte vom 31.08.2021 - 30.11.2021

Sensor Min Max Avg
Temp
(Aussen-T/F)
-2.3 °C
23-11-2021  04:10:00
28.1 °C
08-09-2021  17:10:00
10.5 °C
Abs-Feuchte
(Aussen-T/F)
3.98 g/m*3
23-11-2021  03:00:00
18.09 g/m*3
14-09-2021  16:00:00
9.07 g/m*3
Windchill
(Aussen-T/F)
-2.19 C
23-11-2021  04:00:00
27.76 C
08-09-2021  17:00:00
10.33 C

Die Daten stammen von einer Davis Vantage Pro 2 Wetter-Station und werden unter Linux mit der Software wview2wettercgi und aufbereitet. Alle Angaben erfolgen ohne Gewähr für ihre Vollständigkeit oder Richtigkeit.
Kontakt: Rainer Krienke krienke@uni-koblenz.de . Meine Webseiten an der Uni Koblenz oder privat.
Version: $Revision: 0.78 $